<?xml version="1.0" encoding="UTF-8" standalone="no" ?>
<gpx xmlns="http://www.topografix.com/GPX/1/1" xmlns:xsi="http://www.w3.org/2001/XMLSchema-instance" xsi:schemaLocation="http://www.topografix.com/GPX/1/1 http://www.topografix.com/GPX/1/1/gpx.xsd" version="1.1" creator="VisuGPX - https://www.visugpx.com">
  <metadata>
    <name>Grotte de Panissolle-Flauzins</name>
  </metadata>
  <trk>
    <name><![CDATA[2022-09-20_140349]]></name>
    <extensions>
      <line xmlns="http://www.topografix.com/GPX/gpx_style/0/2">
        <width>3</width>
      </line>
    </extensions>
    <trkseg>
      <trkpt lat="44.19769" lon="2.15493">
        <ele>251.2</ele>
        <time>2022-09-20T12:03:49.000Z</time>
      </trkpt>
      <trkpt lat="44.19769" lon="2.15492">
        <ele>251.1</ele>
        <time>2022-09-20T12:03:50.000Z</time>
      </trkpt>
      <trkpt lat="44.19777" lon="2.15484">
        <ele>250.5</ele>
        <time>2022-09-20T12:04:01.000Z</time>
      </trkpt>
      <trkpt lat="44.19783" lon="2.15474">
        <ele>249.7</ele>
        <time>2022-09-20T12:04:13.000Z</time>
      </trkpt>
      <trkpt lat="44.19788" lon="2.15463">
        <ele>249.4</ele>
        <time>2022-09-20T12:04:22.000Z</time>
      </trkpt>
      <trkpt lat="44.19792" lon="2.15452">
        <ele>248.8</ele>
        <time>2022-09-20T12:04:31.000Z</time>
      </trkpt>
      <trkpt lat="44.19796" lon="2.15439">
        <ele>248</ele>
        <time>2022-09-20T12:04:41.000Z</time>
      </trkpt>
      <trkpt lat="44.19796" lon="2.15439">
        <ele>248</ele>
        <time>2022-09-20T12:04:41.000Z</time>
      </trkpt>
      <trkpt lat="44.19799" lon="2.15426">
        <ele>246.4</ele>
        <time>2022-09-20T12:04:53.000Z</time>
      </trkpt>
      <trkpt lat="44.19801" lon="2.15413">
        <ele>245.8</ele>
        <time>2022-09-20T12:05:07.000Z</time>
      </trkpt>
      <trkpt lat="44.19802" lon="2.154">
        <ele>245</ele>
        <time>2022-09-20T12:05:18.000Z</time>
      </trkpt>
      <trkpt lat="44.19806" lon="2.15387">
        <ele>245</ele>
        <time>2022-09-20T12:05:27.000Z</time>
      </trkpt>
      <trkpt lat="44.1981" lon="2.15375">
        <ele>243.9</ele>
        <time>2022-09-20T12:05:37.000Z</time>
      </trkpt>
      <trkpt lat="44.19813" lon="2.15362">
        <ele>242.6</ele>
        <time>2022-09-20T12:05:46.000Z</time>
      </trkpt>
      <trkpt lat="44.19817" lon="2.1535">
        <ele>241.7</ele>
        <time>2022-09-20T12:05:55.000Z</time>
      </trkpt>
      <trkpt lat="44.19821" lon="2.15339">
        <ele>240.2</ele>
        <time>2022-09-20T12:06:06.000Z</time>
      </trkpt>
      <trkpt lat="44.19825" lon="2.15327">
        <ele>238.9</ele>
        <time>2022-09-20T12:06:14.000Z</time>
      </trkpt>
      <trkpt lat="44.19827" lon="2.15313">
        <ele>237.5</ele>
        <time>2022-09-20T12:06:23.000Z</time>
      </trkpt>
      <trkpt lat="44.1983" lon="2.15301">
        <ele>235.4</ele>
        <time>2022-09-20T12:06:31.000Z</time>
      </trkpt>
      <trkpt lat="44.19831" lon="2.15287">
        <ele>232.6</ele>
        <time>2022-09-20T12:06:43.000Z</time>
      </trkpt>
      <trkpt lat="44.19834" lon="2.15274">
        <ele>231.9</ele>
        <time>2022-09-20T12:06:54.000Z</time>
      </trkpt>
      <trkpt lat="44.19838" lon="2.15261">
        <ele>232.8</ele>
        <time>2022-09-20T12:07:03.000Z</time>
      </trkpt>
      <trkpt lat="44.19843" lon="2.1525">
        <ele>232.3</ele>
        <time>2022-09-20T12:07:12.000Z</time>
      </trkpt>
      <trkpt lat="44.19843" lon="2.15236">
        <ele>231.4</ele>
        <time>2022-09-20T12:07:23.000Z</time>
      </trkpt>
      <trkpt lat="44.19847" lon="2.15225">
        <ele>231.5</ele>
        <time>2022-09-20T12:07:33.000Z</time>
      </trkpt>
      <trkpt lat="44.1985" lon="2.15212">
        <ele>230.8</ele>
        <time>2022-09-20T12:07:43.000Z</time>
      </trkpt>
      <trkpt lat="44.1985" lon="2.15199">
        <ele>230.3</ele>
        <time>2022-09-20T12:07:52.000Z</time>
      </trkpt>
      <trkpt lat="44.1985" lon="2.15186">
        <ele>230.1</ele>
        <time>2022-09-20T12:08:02.000Z</time>
      </trkpt>
      <trkpt lat="44.19852" lon="2.15173">
        <ele>229.3</ele>
        <time>2022-09-20T12:08:11.000Z</time>
      </trkpt>
      <trkpt lat="44.19857" lon="2.15162">
        <ele>225.7</ele>
        <time>2022-09-20T12:08:23.000Z</time>
      </trkpt>
      <trkpt lat="44.1986" lon="2.1515">
        <ele>224.5</ele>
        <time>2022-09-20T12:08:32.000Z</time>
      </trkpt>
      <trkpt lat="44.19866" lon="2.15139">
        <ele>224.6</ele>
        <time>2022-09-20T12:08:41.000Z</time>
      </trkpt>
      <trkpt lat="44.19873" lon="2.1513">
        <ele>223.9</ele>
        <time>2022-09-20T12:08:50.000Z</time>
      </trkpt>
      <trkpt lat="44.1988" lon="2.15122">
        <ele>224.3</ele>
        <time>2022-09-20T12:08:58.000Z</time>
      </trkpt>
      <trkpt lat="44.19888" lon="2.15115">
        <ele>224.4</ele>
        <time>2022-09-20T12:09:10.000Z</time>
      </trkpt>
      <trkpt lat="44.19897" lon="2.15108">
        <ele>224.6</ele>
        <time>2022-09-20T12:09:18.000Z</time>
      </trkpt>
      <trkpt lat="44.19905" lon="2.15102">
        <ele>224.5</ele>
        <time>2022-09-20T12:09:27.000Z</time>
      </trkpt>
      <trkpt lat="44.19914" lon="2.15096">
        <ele>224.1</ele>
        <time>2022-09-20T12:09:36.000Z</time>
      </trkpt>
      <trkpt lat="44.19923" lon="2.15091">
        <ele>223.9</ele>
        <time>2022-09-20T12:09:44.000Z</time>
      </trkpt>
      <trkpt lat="44.19932" lon="2.15084">
        <ele>223.3</ele>
        <time>2022-09-20T12:09:54.000Z</time>
      </trkpt>
      <trkpt lat="44.19939" lon="2.15076">
        <ele>221</ele>
        <time>2022-09-20T12:10:05.000Z</time>
      </trkpt>
      <trkpt lat="44.19948" lon="2.15073">
        <ele>220.7</ele>
        <time>2022-09-20T12:10:13.000Z</time>
      </trkpt>
      <trkpt lat="44.19957" lon="2.15067">
        <ele>220.5</ele>
        <time>2022-09-20T12:10:24.000Z</time>
      </trkpt>
      <trkpt lat="44.19965" lon="2.15062">
        <ele>220</ele>
        <time>2022-09-20T12:10:36.000Z</time>
      </trkpt>
      <trkpt lat="44.19974" lon="2.15058">
        <ele>220.8</ele>
        <time>2022-09-20T12:10:44.000Z</time>
      </trkpt>
      <trkpt lat="44.19982" lon="2.15053">
        <ele>221</ele>
        <time>2022-09-20T12:10:50.000Z</time>
      </trkpt>
      <trkpt lat="44.19991" lon="2.15045">
        <ele>220.9</ele>
        <time>2022-09-20T12:10:59.000Z</time>
      </trkpt>
      <trkpt lat="44.19998" lon="2.15037">
        <ele>220.6</ele>
        <time>2022-09-20T12:11:07.000Z</time>
      </trkpt>
      <trkpt lat="44.20007" lon="2.15032">
        <ele>221</ele>
        <time>2022-09-20T12:11:17.000Z</time>
      </trkpt>
      <trkpt lat="44.20016" lon="2.15029">
        <ele>221.3</ele>
        <time>2022-09-20T12:11:26.000Z</time>
      </trkpt>
      <trkpt lat="44.20025" lon="2.15027">
        <ele>221.7</ele>
        <time>2022-09-20T12:11:35.000Z</time>
      </trkpt>
      <trkpt lat="44.20032" lon="2.15018">
        <ele>220.9</ele>
        <time>2022-09-20T12:11:44.000Z</time>
      </trkpt>
      <trkpt lat="44.20035" lon="2.15005">
        <ele>221.4</ele>
        <time>2022-09-20T12:11:53.000Z</time>
      </trkpt>
      <trkpt lat="44.20043" lon="2.14997">
        <ele>221</ele>
        <time>2022-09-20T12:12:06.000Z</time>
      </trkpt>
      <trkpt lat="44.20052" lon="2.14992">
        <ele>220.1</ele>
        <time>2022-09-20T12:12:16.000Z</time>
      </trkpt>
      <trkpt lat="44.20059" lon="2.14984">
        <ele>220.4</ele>
        <time>2022-09-20T12:12:24.000Z</time>
      </trkpt>
      <trkpt lat="44.20067" lon="2.14975">
        <ele>219</ele>
        <time>2022-09-20T12:12:34.000Z</time>
      </trkpt>
      <trkpt lat="44.20071" lon="2.14964">
        <ele>219.4</ele>
        <time>2022-09-20T12:12:42.000Z</time>
      </trkpt>
      <trkpt lat="44.20073" lon="2.14952">
        <ele>220.5</ele>
        <time>2022-09-20T12:12:53.000Z</time>
      </trkpt>
      <trkpt lat="44.20076" lon="2.14939">
        <ele>221</ele>
        <time>2022-09-20T12:13:02.000Z</time>
      </trkpt>
      <trkpt lat="44.20081" lon="2.14936">
        <ele>221.3</ele>
        <time>2022-09-20T12:13:13.000Z</time>
      </trkpt>
      <trkpt lat="44.20082" lon="2.14935">
        <ele>220.9</ele>
        <time>2022-09-20T12:13:14.000Z</time>
      </trkpt>
      <trkpt lat="44.20087" lon="2.14924">
        <ele>219.9</ele>
        <time>2022-09-20T12:13:23.000Z</time>
      </trkpt>
      <trkpt lat="44.20088" lon="2.14911">
        <ele>219.3</ele>
        <time>2022-09-20T12:13:32.000Z</time>
      </trkpt>
      <trkpt lat="44.2009" lon="2.14898">
        <ele>220</ele>
        <time>2022-09-20T12:13:43.000Z</time>
      </trkpt>
      <trkpt lat="44.20088" lon="2.14892">
        <ele>218.8</ele>
        <time>2022-09-20T12:13:58.000Z</time>
      </trkpt>
      <trkpt lat="44.20088" lon="2.14892">
        <ele>218.4</ele>
        <time>2022-09-20T12:14:00.000Z</time>
      </trkpt>
      <trkpt lat="44.20088" lon="2.14892">
        <ele>218.1</ele>
        <time>2022-09-20T12:14:02.000Z</time>
      </trkpt>
      <trkpt lat="44.20088" lon="2.14892">
        <ele>217.9</ele>
        <time>2022-09-20T12:14:03.000Z</time>
      </trkpt>
      <trkpt lat="44.20092" lon="2.14881">
        <ele>216.8</ele>
        <time>2022-09-20T12:14:15.000Z</time>
      </trkpt>
      <trkpt lat="44.20097" lon="2.14869">
        <ele>217</ele>
        <time>2022-09-20T12:14:24.000Z</time>
      </trkpt>
      <trkpt lat="44.20101" lon="2.14857">
        <ele>216.8</ele>
        <time>2022-09-20T12:14:33.000Z</time>
      </trkpt>
      <trkpt lat="44.20107" lon="2.14846">
        <ele>216.9</ele>
        <time>2022-09-20T12:14:43.000Z</time>
      </trkpt>
      <trkpt lat="44.20108" lon="2.14832">
        <ele>217.1</ele>
        <time>2022-09-20T12:14:54.000Z</time>
      </trkpt>
      <trkpt lat="44.20113" lon="2.1482">
        <ele>217.9</ele>
        <time>2022-09-20T12:15:05.000Z</time>
      </trkpt>
      <trkpt lat="44.20112" lon="2.14807">
        <ele>216.9</ele>
        <time>2022-09-20T12:15:13.000Z</time>
      </trkpt>
      <trkpt lat="44.20113" lon="2.14794">
        <ele>217.7</ele>
        <time>2022-09-20T12:15:23.000Z</time>
      </trkpt>
      <trkpt lat="44.20115" lon="2.14792">
        <ele>217.7</ele>
        <time>2022-09-20T12:15:27.000Z</time>
      </trkpt>
      <trkpt lat="44.20116" lon="2.14791">
        <ele>217.7</ele>
        <time>2022-09-20T12:15:28.000Z</time>
      </trkpt>
      <trkpt lat="44.20117" lon="2.14778">
        <ele>217.7</ele>
        <time>2022-09-20T12:15:37.000Z</time>
      </trkpt>
      <trkpt lat="44.20115" lon="2.14765">
        <ele>218</ele>
        <time>2022-09-20T12:15:47.000Z</time>
      </trkpt>
      <trkpt lat="44.2011" lon="2.14754">
        <ele>218.3</ele>
        <time>2022-09-20T12:16:01.000Z</time>
      </trkpt>
      <trkpt lat="44.20108" lon="2.14741">
        <ele>219.5</ele>
        <time>2022-09-20T12:16:13.000Z</time>
      </trkpt>
      <trkpt lat="44.20106" lon="2.14727">
        <ele>220.5</ele>
        <time>2022-09-20T12:16:22.000Z</time>
      </trkpt>
      <trkpt lat="44.20105" lon="2.14713">
        <ele>221.2</ele>
        <time>2022-09-20T12:16:34.000Z</time>
      </trkpt>
      <trkpt lat="44.201" lon="2.14702">
        <ele>221.1</ele>
        <time>2022-09-20T12:16:45.000Z</time>
      </trkpt>
      <trkpt lat="44.20094" lon="2.1469">
        <ele>219.8</ele>
        <time>2022-09-20T12:16:54.000Z</time>
      </trkpt>
      <trkpt lat="44.20091" lon="2.14678">
        <ele>220</ele>
        <time>2022-09-20T12:17:05.000Z</time>
      </trkpt>
      <trkpt lat="44.20087" lon="2.14667">
        <ele>220.1</ele>
        <time>2022-09-20T12:17:16.000Z</time>
      </trkpt>
      <trkpt lat="44.20085" lon="2.14654">
        <ele>220.7</ele>
        <time>2022-09-20T12:17:25.000Z</time>
      </trkpt>
      <trkpt lat="44.2008" lon="2.14643">
        <ele>222.2</ele>
        <time>2022-09-20T12:17:36.000Z</time>
      </trkpt>
      <trkpt lat="44.20075" lon="2.14633">
        <ele>222.4</ele>
        <time>2022-09-20T12:17:48.000Z</time>
      </trkpt>
      <trkpt lat="44.20071" lon="2.1462">
        <ele>221.8</ele>
        <time>2022-09-20T12:18:00.000Z</time>
      </trkpt>
      <trkpt lat="44.20067" lon="2.1461">
        <ele>221.6</ele>
        <time>2022-09-20T12:18:12.000Z</time>
      </trkpt>
      <trkpt lat="44.20067" lon="2.14595">
        <ele>221.5</ele>
        <time>2022-09-20T12:18:22.000Z</time>
      </trkpt>
      <trkpt lat="44.20066" lon="2.14582">
        <ele>220.6</ele>
        <time>2022-09-20T12:18:34.000Z</time>
      </trkpt>
      <trkpt lat="44.20062" lon="2.14571">
        <ele>220.1</ele>
        <time>2022-09-20T12:18:47.000Z</time>
      </trkpt>
      <trkpt lat="44.2006" lon="2.14558">
        <ele>221.4</ele>
        <time>2022-09-20T12:19:02.000Z</time>
      </trkpt>
      <trkpt lat="44.20058" lon="2.14545">
        <ele>223</ele>
        <time>2022-09-20T12:19:12.000Z</time>
      </trkpt>
      <trkpt lat="44.20059" lon="2.14531">
        <ele>223</ele>
        <time>2022-09-20T12:19:25.000Z</time>
      </trkpt>
      <trkpt lat="44.20062" lon="2.14519">
        <ele>222.6</ele>
        <time>2022-09-20T12:19:36.000Z</time>
      </trkpt>
      <trkpt lat="44.20064" lon="2.14507">
        <ele>222.4</ele>
        <time>2022-09-20T12:19:45.000Z</time>
      </trkpt>
      <trkpt lat="44.20065" lon="2.14502">
        <ele>222.8</ele>
        <time>2022-09-20T12:19:53.000Z</time>
      </trkpt>
      <trkpt lat="44.20065" lon="2.14502">
        <ele>223.1</ele>
        <time>2022-09-20T12:19:54.000Z</time>
      </trkpt>
      <trkpt lat="44.20073" lon="2.14496">
        <ele>223.4</ele>
        <time>2022-09-20T12:20:08.000Z</time>
      </trkpt>
      <trkpt lat="44.20079" lon="2.14486">
        <ele>222.7</ele>
        <time>2022-09-20T12:20:19.000Z</time>
      </trkpt>
      <trkpt lat="44.2008" lon="2.14483">
        <ele>222.8</ele>
        <time>2022-09-20T12:20:26.000Z</time>
      </trkpt>
      <trkpt lat="44.2008" lon="2.14483">
        <ele>223</ele>
        <time>2022-09-20T12:20:28.000Z</time>
      </trkpt>
      <trkpt lat="44.2008" lon="2.14483">
        <ele>223.1</ele>
        <time>2022-09-20T12:20:29.000Z</time>
      </trkpt>
      <trkpt lat="44.2008" lon="2.14483">
        <ele>223.2</ele>
        <time>2022-09-20T12:20:30.000Z</time>
      </trkpt>
      <trkpt lat="44.2008" lon="2.14479">
        <ele>224.5</ele>
        <time>2022-09-20T12:20:37.000Z</time>
      </trkpt>
      <trkpt lat="44.2008" lon="2.14479">
        <ele>224.5</ele>
        <time>2022-09-20T12:20:39.000Z</time>
      </trkpt>
      <trkpt lat="44.20074" lon="2.14477">
        <ele>226.5</ele>
        <time>2022-09-20T12:20:51.000Z</time>
      </trkpt>
      <trkpt lat="44.20074" lon="2.14477">
        <ele>226.8</ele>
        <time>2022-09-20T12:20:54.000Z</time>
      </trkpt>
      <trkpt lat="44.20073" lon="2.14477">
        <ele>228.6</ele>
        <time>2022-09-20T12:21:00.000Z</time>
      </trkpt>
      <trkpt lat="44.20073" lon="2.14477">
        <ele>228.8</ele>
        <time>2022-09-20T12:21:01.000Z</time>
      </trkpt>
      <trkpt lat="44.20073" lon="2.14477">
        <ele>229.2</ele>
        <time>2022-09-20T12:21:08.000Z</time>
      </trkpt>
      <trkpt lat="44.20073" lon="2.14477">
        <ele>229.4</ele>
        <time>2022-09-20T12:21:09.000Z</time>
      </trkpt>
      <trkpt lat="44.20073" lon="2.14477">
        <ele>229.8</ele>
        <time>2022-09-20T12:21:11.000Z</time>
      </trkpt>
      <trkpt lat="44.20073" lon="2.14477">
        <ele>230</ele>
        <time>2022-09-20T12:21:12.000Z</time>
      </trkpt>
      <trkpt lat="44.20073" lon="2.14477">
        <ele>230.2</ele>
        <time>2022-09-20T12:21:13.000Z</time>
      </trkpt>
      <trkpt lat="44.20073" lon="2.14476">
        <ele>230.5</ele>
        <time>2022-09-20T12:21:15.000Z</time>
      </trkpt>
      <trkpt lat="44.20072" lon="2.14476">
        <ele>231.8</ele>
        <time>2022-09-20T12:21:20.000Z</time>
      </trkpt>
      <trkpt lat="44.20072" lon="2.14476">
        <ele>231.9</ele>
        <time>2022-09-20T12:21:24.000Z</time>
      </trkpt>
      <trkpt lat="44.20072" lon="2.14476">
        <ele>231.9</ele>
        <time>2022-09-20T12:21:25.000Z</time>
      </trkpt>
      <trkpt lat="44.20072" lon="2.14476">
        <ele>231.9</ele>
        <time>2022-09-20T12:21:29.000Z</time>
      </trkpt>
      <trkpt lat="44.20072" lon="2.14476">
        <ele>232</ele>
        <time>2022-09-20T12:21:31.000Z</time>
      </trkpt>
      <trkpt lat="44.20072" lon="2.14476">
        <ele>231.6</ele>
        <time>2022-09-20T12:21:34.000Z</time>
      </trkpt>
      <trkpt lat="44.20072" lon="2.14476">
        <ele>231.5</ele>
        <time>2022-09-20T12:21:35.000Z</time>
      </trkpt>
      <trkpt lat="44.20072" lon="2.14476">
        <ele>231.4</ele>
        <time>2022-09-20T12:21:36.000Z</time>
      </trkpt>
      <trkpt lat="44.20072" lon="2.14476">
        <ele>231.4</ele>
        <time>2022-09-20T12:21:37.000Z</time>
      </trkpt>
      <trkpt lat="44.20073" lon="2.14475">
        <ele>230.3</ele>
        <time>2022-09-20T12:21:47.000Z</time>
      </trkpt>
      <trkpt lat="44.20081" lon="2.14471">
        <ele>229.1</ele>
        <time>2022-09-20T12:22:01.000Z</time>
      </trkpt>
      <trkpt lat="44.20086" lon="2.14475">
        <ele>227.9</ele>
        <time>2022-09-20T12:22:08.000Z</time>
      </trkpt>
      <trkpt lat="44.20086" lon="2.14475">
        <ele>227.9</ele>
        <time>2022-09-20T12:22:09.000Z</time>
      </trkpt>
      <trkpt lat="44.20095" lon="2.14475">
        <ele>227.7</ele>
        <time>2022-09-20T12:22:19.000Z</time>
      </trkpt>
      <trkpt lat="44.201" lon="2.14474">
        <ele>228.5</ele>
        <time>2022-09-20T12:22:38.000Z</time>
      </trkpt>
      <trkpt lat="44.201" lon="2.14474">
        <ele>228.6</ele>
        <time>2022-09-20T12:22:39.000Z</time>
      </trkpt>
      <trkpt lat="44.20109" lon="2.14474">
        <ele>230.4</ele>
        <time>2022-09-20T12:22:54.000Z</time>
      </trkpt>
      <trkpt lat="44.20119" lon="2.14471">
        <ele>231.6</ele>
        <time>2022-09-20T12:23:07.000Z</time>
      </trkpt>
      <trkpt lat="44.20122" lon="2.14471">
        <ele>232.3</ele>
        <time>2022-09-20T12:23:16.000Z</time>
      </trkpt>
      <trkpt lat="44.20122" lon="2.14471">
        <ele>232.3</ele>
        <time>2022-09-20T12:23:17.000Z</time>
      </trkpt>
      <trkpt lat="44.20122" lon="2.14471">
        <ele>232.3</ele>
        <time>2022-09-20T12:23:18.000Z</time>
      </trkpt>
      <trkpt lat="44.20122" lon="2.14471">
        <ele>232.4</ele>
        <time>2022-09-20T12:23:19.000Z</time>
      </trkpt>
      <trkpt lat="44.20128" lon="2.14465">
        <ele>233.1</ele>
        <time>2022-09-20T12:23:33.000Z</time>
      </trkpt>
      <trkpt lat="44.20128" lon="2.14464">
        <ele>233.2</ele>
        <time>2022-09-20T12:23:34.000Z</time>
      </trkpt>
      <trkpt lat="44.20133" lon="2.14457">
        <ele>234.6</ele>
        <time>2022-09-20T12:23:46.000Z</time>
      </trkpt>
      <trkpt lat="44.20134" lon="2.14458">
        <ele>234.4</ele>
        <time>2022-09-20T12:23:47.000Z</time>
      </trkpt>
      <trkpt lat="44.20135" lon="2.1446">
        <ele>234.2</ele>
        <time>2022-09-20T12:23:54.000Z</time>
      </trkpt>
      <trkpt lat="44.20136" lon="2.1446">
        <ele>234.2</ele>
        <time>2022-09-20T12:23:56.000Z</time>
      </trkpt>
      <trkpt lat="44.20136" lon="2.1446">
        <ele>234.2</ele>
        <time>2022-09-20T12:23:57.000Z</time>
      </trkpt>
      <trkpt lat="44.20136" lon="2.1446">
        <ele>234.2</ele>
        <time>2022-09-20T12:24:00.000Z</time>
      </trkpt>
      <trkpt lat="44.20145" lon="2.14457">
        <ele>236.5</ele>
        <time>2022-09-20T12:24:19.000Z</time>
      </trkpt>
      <trkpt lat="44.20149" lon="2.14457">
        <ele>237.2</ele>
        <time>2022-09-20T12:24:33.000Z</time>
      </trkpt>
      <trkpt lat="44.20149" lon="2.14457">
        <ele>237.3</ele>
        <time>2022-09-20T12:24:34.000Z</time>
      </trkpt>
      <trkpt lat="44.20157" lon="2.1445">
        <ele>238.6</ele>
        <time>2022-09-20T12:24:47.000Z</time>
      </trkpt>
      <trkpt lat="44.20164" lon="2.14441">
        <ele>241.9</ele>
        <time>2022-09-20T12:25:06.000Z</time>
      </trkpt>
      <trkpt lat="44.20165" lon="2.1444">
        <ele>242.4</ele>
        <time>2022-09-20T12:25:10.000Z</time>
      </trkpt>
      <trkpt lat="44.20165" lon="2.14439">
        <ele>242.5</ele>
        <time>2022-09-20T12:25:11.000Z</time>
      </trkpt>
      <trkpt lat="44.20167" lon="2.14437">
        <ele>243.3</ele>
        <time>2022-09-20T12:25:16.000Z</time>
      </trkpt>
      <trkpt lat="44.20167" lon="2.14438">
        <ele>243.5</ele>
        <time>2022-09-20T12:25:17.000Z</time>
      </trkpt>
      <trkpt lat="44.20172" lon="2.14439">
        <ele>245.1</ele>
        <time>2022-09-20T12:25:34.000Z</time>
      </trkpt>
      <trkpt lat="44.20172" lon="2.14439">
        <ele>245.2</ele>
        <time>2022-09-20T12:25:35.000Z</time>
      </trkpt>
      <trkpt lat="44.20172" lon="2.14438">
        <ele>245.4</ele>
        <time>2022-09-20T12:25:42.000Z</time>
      </trkpt>
      <trkpt lat="44.20172" lon="2.14438">
        <ele>245.5</ele>
        <time>2022-09-20T12:25:45.000Z</time>
      </trkpt>
      <trkpt lat="44.20172" lon="2.14438">
        <ele>245.7</ele>
        <time>2022-09-20T12:25:47.000Z</time>
      </trkpt>
      <trkpt lat="44.20172" lon="2.14439">
        <ele>245.7</ele>
        <time>2022-09-20T12:25:49.000Z</time>
      </trkpt>
      <trkpt lat="44.20172" lon="2.14439">
        <ele>246.6</ele>
        <time>2022-09-20T12:25:57.000Z</time>
      </trkpt>
      <trkpt lat="44.20172" lon="2.14438">
        <ele>246.6</ele>
        <time>2022-09-20T12:26:00.000Z</time>
      </trkpt>
      <trkpt lat="44.20172" lon="2.14438">
        <ele>246.6</ele>
        <time>2022-09-20T12:26:01.000Z</time>
      </trkpt>
      <trkpt lat="44.20172" lon="2.14438">
        <ele>246.7</ele>
        <time>2022-09-20T12:26:03.000Z</time>
      </trkpt>
      <trkpt lat="44.20174" lon="2.14436">
        <ele>247</ele>
        <time>2022-09-20T12:26:08.000Z</time>
      </trkpt>
      <trkpt lat="44.20174" lon="2.14436">
        <ele>247.1</ele>
        <time>2022-09-20T12:26:09.000Z</time>
      </trkpt>
      <trkpt lat="44.20173" lon="2.14436">
        <ele>248.1</ele>
        <time>2022-09-20T12:26:11.000Z</time>
      </trkpt>
      <trkpt lat="44.20173" lon="2.14437">
        <ele>248.4</ele>
        <time>2022-09-20T12:26:12.000Z</time>
      </trkpt>
      <trkpt lat="44.20172" lon="2.14437">
        <ele>249.2</ele>
        <time>2022-09-20T12:26:16.000Z</time>
      </trkpt>
      <trkpt lat="44.20172" lon="2.14437">
        <ele>249.4</ele>
        <time>2022-09-20T12:26:20.000Z</time>
      </trkpt>
      <trkpt lat="44.20172" lon="2.14437">
        <ele>249.4</ele>
        <time>2022-09-20T12:26:22.000Z</time>
      </trkpt>
      <trkpt lat="44.20171" lon="2.14437">
        <ele>249.7</ele>
        <time>2022-09-20T12:26:24.000Z</time>
      </trkpt>
      <trkpt lat="44.20166" lon="2.1443">
        <ele>253.3</ele>
        <time>2022-09-20T12:26:48.000Z</time>
      </trkpt>
      <trkpt lat="44.20166" lon="2.14429">
        <ele>253.4</ele>
        <time>2022-09-20T12:26:50.000Z</time>
      </trkpt>
      <trkpt lat="44.20172" lon="2.14421">
        <ele>253.7</ele>
        <time>2022-09-20T12:27:07.000Z</time>
      </trkpt>
      <trkpt lat="44.20181" lon="2.14423">
        <ele>255.2</ele>
        <time>2022-09-20T12:27:25.000Z</time>
      </trkpt>
      <trkpt lat="44.2019" lon="2.1442">
        <ele>256.6</ele>
        <time>2022-09-20T12:27:44.000Z</time>
      </trkpt>
      <trkpt lat="44.20197" lon="2.14411">
        <ele>257.1</ele>
        <time>2022-09-20T12:27:57.000Z</time>
      </trkpt>
      <trkpt lat="44.20201" lon="2.14399">
        <ele>258.2</ele>
        <time>2022-09-20T12:28:10.000Z</time>
      </trkpt>
      <trkpt lat="44.20209" lon="2.14392">
        <ele>259.5</ele>
        <time>2022-09-20T12:28:26.000Z</time>
      </trkpt>
      <trkpt lat="44.20211" lon="2.14391">
        <ele>259.8</ele>
        <time>2022-09-20T12:28:39.000Z</time>
      </trkpt>
      <trkpt lat="44.20211" lon="2.14391">
        <ele>259.8</ele>
        <time>2022-09-20T12:28:41.000Z</time>
      </trkpt>
      <trkpt lat="44.20211" lon="2.14392">
        <ele>259.9</ele>
        <time>2022-09-20T12:28:43.000Z</time>
      </trkpt>
      <trkpt lat="44.20211" lon="2.14391">
        <ele>260</ele>
        <time>2022-09-20T12:28:44.000Z</time>
      </trkpt>
      <trkpt lat="44.20218" lon="2.14381">
        <ele>262.8</ele>
        <time>2022-09-20T12:29:05.000Z</time>
      </trkpt>
      <trkpt lat="44.20224" lon="2.14376">
        <ele>261.7</ele>
        <time>2022-09-20T12:29:19.000Z</time>
      </trkpt>
      <trkpt lat="44.20225" lon="2.14376">
        <ele>261.6</ele>
        <time>2022-09-20T12:29:20.000Z</time>
      </trkpt>
      <trkpt lat="44.20226" lon="2.14376">
        <ele>262.7</ele>
        <time>2022-09-20T12:29:24.000Z</time>
      </trkpt>
      <trkpt lat="44.20226" lon="2.14376">
        <ele>262.9</ele>
        <time>2022-09-20T12:29:25.000Z</time>
      </trkpt>
      <trkpt lat="44.20226" lon="2.14376">
        <ele>263</ele>
        <time>2022-09-20T12:29:26.000Z</time>
      </trkpt>
      <trkpt lat="44.20227" lon="2.14375">
        <ele>262.8</ele>
        <time>2022-09-20T12:29:27.000Z</time>
      </trkpt>
      <trkpt lat="44.20235" lon="2.14371">
        <ele>263</ele>
        <time>2022-09-20T12:30:08.000Z</time>
      </trkpt>
      <trkpt lat="44.20237" lon="2.14358">
        <ele>264.5</ele>
        <time>2022-09-20T12:30:28.000Z</time>
      </trkpt>
      <trkpt lat="44.20236" lon="2.14359">
        <ele>264.8</ele>
        <time>2022-09-20T12:30:37.000Z</time>
      </trkpt>
      <trkpt lat="44.20237" lon="2.14359">
        <ele>265.1</ele>
        <time>2022-09-20T12:30:38.000Z</time>
      </trkpt>
      <trkpt lat="44.20237" lon="2.14359">
        <ele>265.2</ele>
        <time>2022-09-20T12:30:40.000Z</time>
      </trkpt>
      <trkpt lat="44.20236" lon="2.14359">
        <ele>265.3</ele>
        <time>2022-09-20T12:30:41.000Z</time>
      </trkpt>
      <trkpt lat="44.20236" lon="2.14359">
        <ele>265.3</ele>
        <time>2022-09-20T12:30:42.000Z</time>
      </trkpt>
      <trkpt lat="44.20236" lon="2.14359">
        <ele>265.4</ele>
        <time>2022-09-20T12:30:43.000Z</time>
      </trkpt>
      <trkpt lat="44.20236" lon="2.14359">
        <ele>265.4</ele>
        <time>2022-09-20T12:30:44.000Z</time>
      </trkpt>
      <trkpt lat="44.20236" lon="2.14359">
        <ele>265.5</ele>
        <time>2022-09-20T12:30:46.000Z</time>
      </trkpt>
      <trkpt lat="44.20234" lon="2.14358">
        <ele>266.1</ele>
        <time>2022-09-20T12:30:50.000Z</time>
      </trkpt>
      <trkpt lat="44.20234" lon="2.14358">
        <ele>266</ele>
        <time>2022-09-20T12:30:52.000Z</time>
      </trkpt>
      <trkpt lat="44.20235" lon="2.14359">
        <ele>265.7</ele>
        <time>2022-09-20T12:30:54.000Z</time>
      </trkpt>
      <trkpt lat="44.20235" lon="2.14359">
        <ele>265.7</ele>
        <time>2022-09-20T12:30:56.000Z</time>
      </trkpt>
      <trkpt lat="44.20232" lon="2.14347">
        <ele>265.9</ele>
        <time>2022-09-20T12:31:14.000Z</time>
      </trkpt>
      <trkpt lat="44.20235" lon="2.14335">
        <ele>266.6</ele>
        <time>2022-09-20T12:31:34.000Z</time>
      </trkpt>
      <trkpt lat="44.20236" lon="2.14327">
        <ele>267.9</ele>
        <time>2022-09-20T12:31:47.000Z</time>
      </trkpt>
      <trkpt lat="44.20236" lon="2.14327">
        <ele>267.9</ele>
        <time>2022-09-20T12:31:48.000Z</time>
      </trkpt>
      <trkpt lat="44.20235" lon="2.14327">
        <ele>267.8</ele>
        <time>2022-09-20T12:31:50.000Z</time>
      </trkpt>
      <trkpt lat="44.20236" lon="2.14327">
        <ele>267.7</ele>
        <time>2022-09-20T12:31:51.000Z</time>
      </trkpt>
      <trkpt lat="44.20236" lon="2.14325">
        <ele>268.3</ele>
        <time>2022-09-20T12:31:58.000Z</time>
      </trkpt>
      <trkpt lat="44.20237" lon="2.14325">
        <ele>268.2</ele>
        <time>2022-09-20T12:32:00.000Z</time>
      </trkpt>
      <trkpt lat="44.20238" lon="2.14326">
        <ele>267.8</ele>
        <time>2022-09-20T12:32:06.000Z</time>
      </trkpt>
      <trkpt lat="44.20238" lon="2.14326">
        <ele>267.8</ele>
        <time>2022-09-20T12:32:07.000Z</time>
      </trkpt>
      <trkpt lat="44.20237" lon="2.14326">
        <ele>267.7</ele>
        <time>2022-09-20T12:32:09.000Z</time>
      </trkpt>
      <trkpt lat="44.20238" lon="2.14326">
        <ele>267.8</ele>
        <time>2022-09-20T12:32:10.000Z</time>
      </trkpt>
      <trkpt lat="44.20238" lon="2.14325">
        <ele>267.8</ele>
        <time>2022-09-20T12:32:12.000Z</time>
      </trkpt>
      <trkpt lat="44.20238" lon="2.14325">
        <ele>267.8</ele>
        <time>2022-09-20T12:32:14.000Z</time>
      </trkpt>
      <trkpt lat="44.20238" lon="2.14325">
        <ele>267.8</ele>
        <time>2022-09-20T12:32:15.000Z</time>
      </trkpt>
      <trkpt lat="44.20237" lon="2.14326">
        <ele>268</ele>
        <time>2022-09-20T12:32:16.000Z</time>
      </trkpt>
      <trkpt lat="44.20237" lon="2.14326">
        <ele>268</ele>
        <time>2022-09-20T12:32:17.000Z</time>
      </trkpt>
      <trkpt lat="44.20236" lon="2.14326">
        <ele>268</ele>
        <time>2022-09-20T12:32:21.000Z</time>
      </trkpt>
      <trkpt lat="44.20235" lon="2.14327">
        <ele>268.4</ele>
        <time>2022-09-20T12:32:24.000Z</time>
      </trkpt>
      <trkpt lat="44.20236" lon="2.14327">
        <ele>268.4</ele>
        <time>2022-09-20T12:32:25.000Z</time>
      </trkpt>
      <trkpt lat="44.20236" lon="2.14327">
        <ele>268.5</ele>
        <time>2022-09-20T12:32:26.000Z</time>
      </trkpt>
      <trkpt lat="44.20236" lon="2.14326">
        <ele>268.6</ele>
        <time>2022-09-20T12:32:27.000Z</time>
      </trkpt>
      <trkpt lat="44.20236" lon="2.14326">
        <ele>268.6</ele>
        <time>2022-09-20T12:32:28.000Z</time>
      </trkpt>
      <trkpt lat="44.20236" lon="2.14327">
        <ele>268.7</ele>
        <time>2022-09-20T12:32:34.000Z</time>
      </trkpt>
      <trkpt lat="44.20236" lon="2.14328">
        <ele>269.1</ele>
        <time>2022-09-20T12:32:36.000Z</time>
      </trkpt>
      <trkpt lat="44.20235" lon="2.14328">
        <ele>269.8</ele>
        <time>2022-09-20T12:32:38.000Z</time>
      </trkpt>
      <trkpt lat="44.20231" lon="2.14325">
        <ele>273.9</ele>
        <time>2022-09-20T12:33:00.000Z</time>
      </trkpt>
      <trkpt lat="44.20231" lon="2.14325">
        <ele>274.2</ele>
        <time>2022-09-20T12:33:01.000Z</time>
      </trkpt>
      <trkpt lat="44.20233" lon="2.14326">
        <ele>275.2</ele>
        <time>2022-09-20T12:33:07.000Z</time>
      </trkpt>
      <trkpt lat="44.20233" lon="2.14326">
        <ele>275.3</ele>
        <time>2022-09-20T12:33:08.000Z</time>
      </trkpt>
      <trkpt lat="44.20239" lon="2.14326">
        <ele>275.2</ele>
        <time>2022-09-20T12:33:15.000Z</time>
      </trkpt>
      <trkpt lat="44.20239" lon="2.14325">
        <ele>275.3</ele>
        <time>2022-09-20T12:33:16.000Z</time>
      </trkpt>
      <trkpt lat="44.20245" lon="2.14317">
        <ele>275.7</ele>
        <time>2022-09-20T12:33:39.000Z</time>
      </trkpt>
      <trkpt lat="44.20245" lon="2.14317">
        <ele>275.8</ele>
        <time>2022-09-20T12:33:40.000Z</time>
      </trkpt>
      <trkpt lat="44.20246" lon="2.14311">
        <ele>275.8</ele>
        <time>2022-09-20T12:33:57.000Z</time>
      </trkpt>
      <trkpt lat="44.20246" lon="2.14311">
        <ele>275.7</ele>
        <time>2022-09-20T12:33:58.000Z</time>
      </trkpt>
      <trkpt lat="44.20246" lon="2.14311">
        <ele>275.4</ele>
        <time>2022-09-20T12:34:00.000Z</time>
      </trkpt>
      <trkpt lat="44.20246" lon="2.1431">
        <ele>275.5</ele>
        <time>2022-09-20T12:34:02.000Z</time>
      </trkpt>
      <trkpt lat="44.20246" lon="2.14309">
        <ele>276.3</ele>
        <time>2022-09-20T12:34:06.000Z</time>
      </trkpt>
      <trkpt lat="44.20247" lon="2.14308">
        <ele>276.3</ele>
        <time>2022-09-20T12:34:07.000Z</time>
      </trkpt>
      <trkpt lat="44.20251" lon="2.14302">
        <ele>279.9</ele>
        <time>2022-09-20T12:34:39.000Z</time>
      </trkpt>
      <trkpt lat="44.20251" lon="2.14302">
        <ele>280</ele>
        <time>2022-09-20T12:34:41.000Z</time>
      </trkpt>
      <trkpt lat="44.20251" lon="2.14289">
        <ele>281.8</ele>
        <time>2022-09-20T12:35:02.000Z</time>
      </trkpt>
      <trkpt lat="44.20255" lon="2.14277">
        <ele>284.9</ele>
        <time>2022-09-20T12:35:19.000Z</time>
      </trkpt>
      <trkpt lat="44.20261" lon="2.14271">
        <ele>286.5</ele>
        <time>2022-09-20T12:35:35.000Z</time>
      </trkpt>
      <trkpt lat="44.20261" lon="2.14271">
        <ele>286.6</ele>
        <time>2022-09-20T12:35:37.000Z</time>
      </trkpt>
      <trkpt lat="44.20262" lon="2.1427">
        <ele>286.8</ele>
        <time>2022-09-20T12:35:40.000Z</time>
      </trkpt>
      <trkpt lat="44.20262" lon="2.14269">
        <ele>286.6</ele>
        <time>2022-09-20T12:35:42.000Z</time>
      </trkpt>
      <trkpt lat="44.20266" lon="2.14257">
        <ele>287.4</ele>
        <time>2022-09-20T12:35:54.000Z</time>
      </trkpt>
      <trkpt lat="44.20268" lon="2.14249">
        <ele>288.7</ele>
        <time>2022-09-20T12:36:14.000Z</time>
      </trkpt>
      <trkpt lat="44.20268" lon="2.14248">
        <ele>288.6</ele>
        <time>2022-09-20T12:36:15.000Z</time>
      </trkpt>
      <trkpt lat="44.20266" lon="2.14242">
        <ele>290.2</ele>
        <time>2022-09-20T12:36:27.000Z</time>
      </trkpt>
      <trkpt lat="44.20266" lon="2.14242">
        <ele>290.3</ele>
        <time>2022-09-20T12:36:28.000Z</time>
      </trkpt>
      <trkpt lat="44.20269" lon="2.14235">
        <ele>290.7</ele>
        <time>2022-09-20T12:36:42.000Z</time>
      </trkpt>
      <trkpt lat="44.20269" lon="2.14235">
        <ele>290.8</ele>
        <time>2022-09-20T12:36:43.000Z</time>
      </trkpt>
      <trkpt lat="44.20273" lon="2.14234">
        <ele>290.4</ele>
        <time>2022-09-20T12:36:55.000Z</time>
      </trkpt>
      <trkpt lat="44.20273" lon="2.14234">
        <ele>290.4</ele>
        <time>2022-09-20T12:36:56.000Z</time>
      </trkpt>
      <trkpt lat="44.20273" lon="2.14234">
        <ele>290.5</ele>
        <time>2022-09-20T12:36:58.000Z</time>
      </trkpt>
      <trkpt lat="44.20274" lon="2.14234">
        <ele>290.6</ele>
        <time>2022-09-20T12:36:59.000Z</time>
      </trkpt>
      <trkpt lat="44.20272" lon="2.14231">
        <ele>291</ele>
        <time>2022-09-20T12:37:04.000Z</time>
      </trkpt>
      <trkpt lat="44.20272" lon="2.14231">
        <ele>291</ele>
        <time>2022-09-20T12:37:05.000Z</time>
      </trkpt>
      <trkpt lat="44.2027" lon="2.14226">
        <ele>292</ele>
        <time>2022-09-20T12:37:15.000Z</time>
      </trkpt>
      <trkpt lat="44.2027" lon="2.14226">
        <ele>292</ele>
        <time>2022-09-20T12:37:16.000Z</time>
      </trkpt>
      <trkpt lat="44.2027" lon="2.14226">
        <ele>292</ele>
        <time>2022-09-20T12:37:17.000Z</time>
      </trkpt>
      <trkpt lat="44.2027" lon="2.14226">
        <ele>292.1</ele>
        <time>2022-09-20T12:37:18.000Z</time>
      </trkpt>
      <trkpt lat="44.2027" lon="2.14226">
        <ele>292.2</ele>
        <time>2022-09-20T12:37:19.000Z</time>
      </trkpt>
      <trkpt lat="44.2027" lon="2.14226">
        <ele>292.3</ele>
        <time>2022-09-20T12:37:20.000Z</time>
      </trkpt>
      <trkpt lat="44.2027" lon="2.14224">
        <ele>292.4</ele>
        <time>2022-09-20T12:37:24.000Z</time>
      </trkpt>
      <trkpt lat="44.20269" lon="2.14224">
        <ele>292.7</ele>
        <time>2022-09-20T12:37:25.000Z</time>
      </trkpt>
      <trkpt lat="44.20269" lon="2.14224">
        <ele>292.7</ele>
        <time>2022-09-20T12:37:26.000Z</time>
      </trkpt>
      <trkpt lat="44.20268" lon="2.14224">
        <ele>292.6</ele>
        <time>2022-09-20T12:37:32.000Z</time>
      </trkpt>
      <trkpt lat="44.20268" lon="2.14224">
        <ele>292.6</ele>
        <time>2022-09-20T12:37:33.000Z</time>
      </trkpt>
      <trkpt lat="44.20268" lon="2.14225">
        <ele>292.7</ele>
        <time>2022-09-20T12:37:38.000Z</time>
      </trkpt>
      <trkpt lat="44.20271" lon="2.14216">
        <ele>291.3</ele>
        <time>2022-09-20T12:37:55.000Z</time>
      </trkpt>
      <trkpt lat="44.20271" lon="2.14216">
        <ele>291.2</ele>
        <time>2022-09-20T12:37:56.000Z</time>
      </trkpt>
      <trkpt lat="44.2027" lon="2.14215">
        <ele>291.5</ele>
        <time>2022-09-20T12:38:01.000Z</time>
      </trkpt>
      <trkpt lat="44.2027" lon="2.14215">
        <ele>291.6</ele>
        <time>2022-09-20T12:38:04.000Z</time>
      </trkpt>
      <trkpt lat="44.2027" lon="2.14215">
        <ele>291.3</ele>
        <time>2022-09-20T12:38:08.000Z</time>
      </trkpt>
      <trkpt lat="44.2027" lon="2.14215">
        <ele>291.2</ele>
        <time>2022-09-20T12:38:09.000Z</time>
      </trkpt>
      <trkpt lat="44.2027" lon="2.14215">
        <ele>291.2</ele>
        <time>2022-09-20T12:38:12.000Z</time>
      </trkpt>
      <trkpt lat="44.20269" lon="2.14216">
        <ele>291.4</ele>
        <time>2022-09-20T12:38:13.000Z</time>
      </trkpt>
      <trkpt lat="44.20268" lon="2.14215">
        <ele>291.6</ele>
        <time>2022-09-20T12:38:16.000Z</time>
      </trkpt>
      <trkpt lat="44.20268" lon="2.14215">
        <ele>291.8</ele>
        <time>2022-09-20T12:38:26.000Z</time>
      </trkpt>
      <trkpt lat="44.20268" lon="2.14215">
        <ele>292.1</ele>
        <time>2022-09-20T12:38:28.000Z</time>
      </trkpt>
      <trkpt lat="44.20268" lon="2.14215">
        <ele>292.2</ele>
        <time>2022-09-20T12:38:38.000Z</time>
      </trkpt>
      <trkpt lat="44.20268" lon="2.14215">
        <ele>292.2</ele>
        <time>2022-09-20T12:38:39.000Z</time>
      </trkpt>
      <trkpt lat="44.20268" lon="2.14215">
        <ele>292.6</ele>
        <time>2022-09-20T12:38:50.000Z</time>
      </trkpt>
      <trkpt lat="44.20268" lon="2.14216">
        <ele>292.9</ele>
        <time>2022-09-20T12:38:53.000Z</time>
      </trkpt>
      <trkpt lat="44.20269" lon="2.14216">
        <ele>292.8</ele>
        <time>2022-09-20T12:38:58.000Z</time>
      </trkpt>
      <trkpt lat="44.20269" lon="2.14216">
        <ele>292.8</ele>
        <time>2022-09-20T12:38:59.000Z</time>
      </trkpt>
      <trkpt lat="44.20269" lon="2.14216">
        <ele>292.9</ele>
        <time>2022-09-20T12:39:21.000Z</time>
      </trkpt>
      <trkpt lat="44.20269" lon="2.14216">
        <ele>292.8</ele>
        <time>2022-09-20T12:39:22.000Z</time>
      </trkpt>
      <trkpt lat="44.2027" lon="2.14216">
        <ele>292.7</ele>
        <time>2022-09-20T12:39:23.000Z</time>
      </trkpt>
      <trkpt lat="44.2027" lon="2.14216">
        <ele>292.6</ele>
        <time>2022-09-20T12:39:24.000Z</time>
      </trkpt>
      <trkpt lat="44.2027" lon="2.14216">
        <ele>292.6</ele>
        <time>2022-09-20T12:39:32.000Z</time>
      </trkpt>
      <trkpt lat="44.2027" lon="2.14217">
        <ele>292.9</ele>
        <time>2022-09-20T12:39:37.000Z</time>
      </trkpt>
      <trkpt lat="44.2027" lon="2.14218">
        <ele>292.7</ele>
        <time>2022-09-20T12:39:39.000Z</time>
      </trkpt>
      <trkpt lat="44.2027" lon="2.14218">
        <ele>292.7</ele>
        <time>2022-09-20T12:39:40.000Z</time>
      </trkpt>
      <trkpt lat="44.2027" lon="2.14218">
        <ele>292.7</ele>
        <time>2022-09-20T12:39:42.000Z</time>
      </trkpt>
      <trkpt lat="44.2027" lon="2.14218">
        <ele>292.7</ele>
        <time>2022-09-20T12:39:44.000Z</time>
      </trkpt>
      <trkpt lat="44.2027" lon="2.14218">
        <ele>292.7</ele>
        <time>2022-09-20T12:39:45.000Z</time>
      </trkpt>
      <trkpt lat="44.20271" lon="2.14218">
        <ele>292.7</ele>
        <time>2022-09-20T12:39:49.000Z</time>
      </trkpt>
      <trkpt lat="44.20271" lon="2.14219">
        <ele>292.5</ele>
        <time>2022-09-20T12:39:50.000Z</time>
      </trkpt>
      <trkpt lat="44.2027" lon="2.14218">
        <ele>292.4</ele>
        <time>2022-09-20T12:39:52.000Z</time>
      </trkpt>
      <trkpt lat="44.2027" lon="2.14218">
        <ele>292.4</ele>
        <time>2022-09-20T12:40:05.000Z</time>
      </trkpt>
      <trkpt lat="44.2027" lon="2.14218">
        <ele>292.4</ele>
        <time>2022-09-20T12:40:06.000Z</time>
      </trkpt>
      <trkpt lat="44.2027" lon="2.14218">
        <ele>292.5</ele>
        <time>2022-09-20T12:40:18.000Z</time>
      </trkpt>
      <trkpt lat="44.20271" lon="2.14218">
        <ele>292.6</ele>
        <time>2022-09-20T12:40:21.000Z</time>
      </trkpt>
      <trkpt lat="44.20271" lon="2.14217">
        <ele>292.7</ele>
        <time>2022-09-20T12:40:28.000Z</time>
      </trkpt>
      <trkpt lat="44.20271" lon="2.14217">
        <ele>292.8</ele>
        <time>2022-09-20T12:40:29.000Z</time>
      </trkpt>
      <trkpt lat="44.20271" lon="2.14217">
        <ele>292.7</ele>
        <time>2022-09-20T12:40:43.000Z</time>
      </trkpt>
      <trkpt lat="44.20271" lon="2.14217">
        <ele>292.8</ele>
        <time>2022-09-20T12:40:45.000Z</time>
      </trkpt>
      <trkpt lat="44.20271" lon="2.14217">
        <ele>292.8</ele>
        <time>2022-09-20T12:40:47.000Z</time>
      </trkpt>
      <trkpt lat="44.20271" lon="2.14217">
        <ele>292.8</ele>
        <time>2022-09-20T12:40:49.000Z</time>
      </trkpt>
      <trkpt lat="44.20271" lon="2.14217">
        <ele>292.8</ele>
        <time>2022-09-20T12:40:52.000Z</time>
      </trkpt>
      <trkpt lat="44.20271" lon="2.14217">
        <ele>292.8</ele>
        <time>2022-09-20T12:40:53.000Z</time>
      </trkpt>
      <trkpt lat="44.20271" lon="2.14217">
        <ele>292.8</ele>
        <time>2022-09-20T12:40:56.000Z</time>
      </trkpt>
      <trkpt lat="44.20271" lon="2.14217">
        <ele>292.8</ele>
        <time>2022-09-20T12:40:57.000Z</time>
      </trkpt>
      <trkpt lat="44.20271" lon="2.14217">
        <ele>293</ele>
        <time>2022-09-20T12:41:31.000Z</time>
      </trkpt>
      <trkpt lat="44.20271" lon="2.14217">
        <ele>293.2</ele>
        <time>2022-09-20T12:41:33.000Z</time>
      </trkpt>
      <trkpt lat="44.20271" lon="2.14216">
        <ele>293.2</ele>
        <time>2022-09-20T12:41:38.000Z</time>
      </trkpt>
      <trkpt lat="44.20271" lon="2.14216">
        <ele>293.3</ele>
        <time>2022-09-20T12:41:39.000Z</time>
      </trkpt>
      <trkpt lat="44.20271" lon="2.14216">
        <ele>293.3</ele>
        <time>2022-09-20T12:41:50.000Z</time>
      </trkpt>
      <trkpt lat="44.20271" lon="2.14216">
        <ele>293.4</ele>
        <time>2022-09-20T12:41:51.000Z</time>
      </trkpt>
      <trkpt lat="44.2027" lon="2.14216">
        <ele>293.7</ele>
        <time>2022-09-20T12:42:00.000Z</time>
      </trkpt>
      <trkpt lat="44.2027" lon="2.14216">
        <ele>294</ele>
        <time>2022-09-20T12:42:02.000Z</time>
      </trkpt>
      <trkpt lat="44.20271" lon="2.14216">
        <ele>294.1</ele>
        <time>2022-09-20T12:42:06.000Z</time>
      </trkpt>
      <trkpt lat="44.20278" lon="2.14207">
        <ele>294.2</ele>
        <time>2022-09-20T12:42:25.000Z</time>
      </trkpt>
      <trkpt lat="44.20279" lon="2.14194">
        <ele>296.5</ele>
        <time>2022-09-20T12:42:45.000Z</time>
      </trkpt>
      <trkpt lat="44.20279" lon="2.14194">
        <ele>296.8</ele>
        <time>2022-09-20T12:42:47.000Z</time>
      </trkpt>
      <trkpt lat="44.20279" lon="2.14193">
        <ele>297</ele>
        <time>2022-09-20T12:42:48.000Z</time>
      </trkpt>
      <trkpt lat="44.20278" lon="2.14184">
        <ele>300.5</ele>
        <time>2022-09-20T12:43:05.000Z</time>
      </trkpt>
      <trkpt lat="44.20278" lon="2.14184">
        <ele>300.4</ele>
        <time>2022-09-20T12:43:08.000Z</time>
      </trkpt>
      <trkpt lat="44.20278" lon="2.14181">
        <ele>301.2</ele>
        <time>2022-09-20T12:43:14.000Z</time>
      </trkpt>
      <trkpt lat="44.20278" lon="2.14181">
        <ele>301.3</ele>
        <time>2022-09-20T12:43:16.000Z</time>
      </trkpt>
      <trkpt lat="44.20279" lon="2.14168">
        <ele>303.7</ele>
        <time>2022-09-20T12:43:45.000Z</time>
      </trkpt>
      <trkpt lat="44.20279" lon="2.14168">
        <ele>303.4</ele>
        <time>2022-09-20T12:43:48.000Z</time>
      </trkpt>
      <trkpt lat="44.20279" lon="2.14168">
        <ele>303.4</ele>
        <time>2022-09-20T12:43:50.000Z</time>
      </trkpt>
      <trkpt lat="44.20284" lon="2.14162">
        <ele>306.2</ele>
        <time>2022-09-20T12:44:18.000Z</time>
      </trkpt>
      <trkpt lat="44.20284" lon="2.14161">
        <ele>306.3</ele>
        <time>2022-09-20T12:44:19.000Z</time>
      </trkpt>
      <trkpt lat="44.20284" lon="2.14161">
        <ele>306.4</ele>
        <time>2022-09-20T12:44:20.000Z</time>
      </trkpt>
      <trkpt lat="44.20283" lon="2.14162">
        <ele>306.6</ele>
        <time>2022-09-20T12:44:21.000Z</time>
      </trkpt>
      <trkpt lat="44.20283" lon="2.14161">
        <ele>307.3</ele>
        <time>2022-09-20T12:44:25.000Z</time>
      </trkpt>
      <trkpt lat="44.20283" lon="2.14161">
        <ele>307.1</ele>
        <time>2022-09-20T12:44:26.000Z</time>
      </trkpt>
      <trkpt lat="44.20283" lon="2.14161">
        <ele>307.2</ele>
        <time>2022-09-20T12:44:27.000Z</time>
      </trkpt>
      <trkpt lat="44.20283" lon="2.14161">
        <ele>307.3</ele>
        <time>2022-09-20T12:44:28.000Z</time>
      </trkpt>
      <trkpt lat="44.20283" lon="2.14156">
        <ele>309.6</ele>
        <time>2022-09-20T12:44:39.000Z</time>
      </trkpt>
      <trkpt lat="44.20283" lon="2.14156">
        <ele>309.6</ele>
        <time>2022-09-20T12:44:40.000Z</time>
      </trkpt>
      <trkpt lat="44.20284" lon="2.14155">
        <ele>310.1</ele>
        <time>2022-09-20T12:44:43.000Z</time>
      </trkpt>
      <trkpt lat="44.20284" lon="2.14156">
        <ele>310.5</ele>
        <time>2022-09-20T12:44:47.000Z</time>
      </trkpt>
      <trkpt lat="44.20285" lon="2.14156">
        <ele>310.4</ele>
        <time>2022-09-20T12:44:50.000Z</time>
      </trkpt>
      <trkpt lat="44.20285" lon="2.14156">
        <ele>310.3</ele>
        <time>2022-09-20T12:44:51.000Z</time>
      </trkpt>
      <trkpt lat="44.20283" lon="2.14155">
        <ele>311.9</ele>
        <time>2022-09-20T12:45:03.000Z</time>
      </trkpt>
      <trkpt lat="44.20284" lon="2.14156">
        <ele>312</ele>
        <time>2022-09-20T12:45:06.000Z</time>
      </trkpt>
      <trkpt lat="44.20287" lon="2.1416">
        <ele>312.5</ele>
        <time>2022-09-20T12:45:19.000Z</time>
      </trkpt>
      <trkpt lat="44.20287" lon="2.1416">
        <ele>312.8</ele>
        <time>2022-09-20T12:45:20.000Z</time>
      </trkpt>
      <trkpt lat="44.20291" lon="2.14156">
        <ele>311.7</ele>
        <time>2022-09-20T12:45:36.000Z</time>
      </trkpt>
      <trkpt lat="44.20291" lon="2.14156">
        <ele>311.6</ele>
        <time>2022-09-20T12:45:37.000Z</time>
      </trkpt>
      <trkpt lat="44.203" lon="2.14155">
        <ele>313.2</ele>
        <time>2022-09-20T12:46:03.000Z</time>
      </trkpt>
      <trkpt lat="44.20308" lon="2.14162">
        <ele>316.4</ele>
        <time>2022-09-20T12:46:21.000Z</time>
      </trkpt>
      <trkpt lat="44.20309" lon="2.14162">
        <ele>317.9</ele>
        <time>2022-09-20T12:46:29.000Z</time>
      </trkpt>
      <trkpt lat="44.20309" lon="2.14161">
        <ele>317.9</ele>
        <time>2022-09-20T12:46:30.000Z</time>
      </trkpt>
      <trkpt lat="44.20308" lon="2.14157">
        <ele>320</ele>
        <time>2022-09-20T12:46:46.000Z</time>
      </trkpt>
      <trkpt lat="44.20307" lon="2.14157">
        <ele>320</ele>
        <time>2022-09-20T12:46:47.000Z</time>
      </trkpt>
      <trkpt lat="44.20308" lon="2.14159">
        <ele>320.6</ele>
        <time>2022-09-20T12:46:54.000Z</time>
      </trkpt>
      <trkpt lat="44.20308" lon="2.14158">
        <ele>320.9</ele>
        <time>2022-09-20T12:46:56.000Z</time>
      </trkpt>
      <trkpt lat="44.20308" lon="2.14158">
        <ele>321</ele>
        <time>2022-09-20T12:46:57.000Z</time>
      </trkpt>
      <trkpt lat="44.20308" lon="2.14158">
        <ele>321.1</ele>
        <time>2022-09-20T12:46:59.000Z</time>
      </trkpt>
      <trkpt lat="44.20309" lon="2.14156">
        <ele>321.6</ele>
        <time>2022-09-20T12:47:04.000Z</time>
      </trkpt>
      <trkpt lat="44.20311" lon="2.14155">
        <ele>321.5</ele>
        <time>2022-09-20T12:47:05.000Z</time>
      </trkpt>
      <trkpt lat="44.20312" lon="2.14154">
        <ele>321.8</ele>
        <time>2022-09-20T12:47:08.000Z</time>
      </trkpt>
      <trkpt lat="44.20312" lon="2.14154">
        <ele>322</ele>
        <time>2022-09-20T12:47:10.000Z</time>
      </trkpt>
      <trkpt lat="44.2031" lon="2.14151">
        <ele>322.9</ele>
        <time>2022-09-20T12:47:19.000Z</time>
      </trkpt>
      <trkpt lat="44.2031" lon="2.14151">
        <ele>323.1</ele>
        <time>2022-09-20T12:47:20.000Z</time>
      </trkpt>
      <trkpt lat="44.20305" lon="2.1414">
        <ele>327.5</ele>
        <time>2022-09-20T12:47:44.000Z</time>
      </trkpt>
      <trkpt lat="44.20305" lon="2.1414">
        <ele>327.5</ele>
        <time>2022-09-20T12:47:45.000Z</time>
      </trkpt>
      <trkpt lat="44.20305" lon="2.14139">
        <ele>327.5</ele>
        <time>2022-09-20T12:47:46.000Z</time>
      </trkpt>
      <trkpt lat="44.20303" lon="2.14137">
        <ele>331.8</ele>
        <time>2022-09-20T12:48:04.000Z</time>
      </trkpt>
      <trkpt lat="44.20303" lon="2.14136">
        <ele>332</ele>
        <time>2022-09-20T12:48:05.000Z</time>
      </trkpt>
      <trkpt lat="44.2031" lon="2.14129">
        <ele>333.8</ele>
        <time>2022-09-20T12:48:21.000Z</time>
      </trkpt>
      <trkpt lat="44.20311" lon="2.14129">
        <ele>333.9</ele>
        <time>2022-09-20T12:48:23.000Z</time>
      </trkpt>
      <trkpt lat="44.20313" lon="2.14127">
        <ele>336.5</ele>
        <time>2022-09-20T12:48:42.000Z</time>
      </trkpt>
      <trkpt lat="44.20313" lon="2.14127">
        <ele>336.7</ele>
        <time>2022-09-20T12:48:43.000Z</time>
      </trkpt>
      <trkpt lat="44.20313" lon="2.14127">
        <ele>336.8</ele>
        <time>2022-09-20T12:48:44.000Z</time>
      </trkpt>
      <trkpt lat="44.20313" lon="2.14127">
        <ele>336.9</ele>
        <time>2022-09-20T12:48:45.000Z</time>
      </trkpt>
      <trkpt lat="44.20311" lon="2.14132">
        <ele>338.8</ele>
        <time>2022-09-20T12:49:00.000Z</time>
      </trkpt>
      <trkpt lat="44.20311" lon="2.14132">
        <ele>338.9</ele>
        <time>2022-09-20T12:49:01.000Z</time>
      </trkpt>
      <trkpt lat="44.20305" lon="2.14122">
        <ele>341.6</ele>
        <time>2022-09-20T12:49:30.000Z</time>
      </trkpt>
      <trkpt lat="44.20304" lon="2.14122">
        <ele>341.3</ele>
        <time>2022-09-20T12:49:34.000Z</time>
      </trkpt>
      <trkpt lat="44.20304" lon="2.14122">
        <ele>341.3</ele>
        <time>2022-09-20T12:49:35.000Z</time>
      </trkpt>
      <trkpt lat="44.20304" lon="2.14127">
        <ele>342.6</ele>
        <time>2022-09-20T12:49:52.000Z</time>
      </trkpt>
      <trkpt lat="44.20304" lon="2.14127">
        <ele>342.7</ele>
        <time>2022-09-20T12:49:53.000Z</time>
      </trkpt>
      <trkpt lat="44.20304" lon="2.14127">
        <ele>342.9</ele>
        <time>2022-09-20T12:49:57.000Z</time>
      </trkpt>
      <trkpt lat="44.20305" lon="2.14127">
        <ele>342.8</ele>
        <time>2022-09-20T12:49:58.000Z</time>
      </trkpt>
      <trkpt lat="44.20305" lon="2.14127">
        <ele>342.9</ele>
        <time>2022-09-20T12:49:59.000Z</time>
      </trkpt>
      <trkpt lat="44.20304" lon="2.14127">
        <ele>342.9</ele>
        <time>2022-09-20T12:50:00.000Z</time>
      </trkpt>
      <trkpt lat="44.20304" lon="2.14128">
        <ele>343.6</ele>
        <time>2022-09-20T12:50:06.000Z</time>
      </trkpt>
      <trkpt lat="44.20304" lon="2.14128">
        <ele>343.6</ele>
        <time>2022-09-20T12:50:07.000Z</time>
      </trkpt>
      <trkpt lat="44.20304" lon="2.14127">
        <ele>343.7</ele>
        <time>2022-09-20T12:50:09.000Z</time>
      </trkpt>
      <trkpt lat="44.20304" lon="2.14127">
        <ele>343.5</ele>
        <time>2022-09-20T12:50:11.000Z</time>
      </trkpt>
      <trkpt lat="44.20305" lon="2.14127">
        <ele>343.6</ele>
        <time>2022-09-20T12:50:14.000Z</time>
      </trkpt>
      <trkpt lat="44.20305" lon="2.14127">
        <ele>343.4</ele>
        <time>2022-09-20T12:50:18.000Z</time>
      </trkpt>
      <trkpt lat="44.20304" lon="2.14126">
        <ele>343.2</ele>
        <time>2022-09-20T12:50:22.000Z</time>
      </trkpt>
      <trkpt lat="44.20305" lon="2.14126">
        <ele>343.3</ele>
        <time>2022-09-20T12:50:24.000Z</time>
      </trkpt>
      <trkpt lat="44.20305" lon="2.14125">
        <ele>343.2</ele>
        <time>2022-09-20T12:50:27.000Z</time>
      </trkpt>
      <trkpt lat="44.20305" lon="2.14125">
        <ele>343.1</ele>
        <time>2022-09-20T12:50:28.000Z</time>
      </trkpt>
      <trkpt lat="44.20305" lon="2.14124">
        <ele>342.8</ele>
        <time>2022-09-20T12:50:31.000Z</time>
      </trkpt>
      <trkpt lat="44.20305" lon="2.14124">
        <ele>342.9</ele>
        <time>2022-09-20T12:50:32.000Z</time>
      </trkpt>
      <trkpt lat="44.20306" lon="2.14125">
        <ele>342.5</ele>
        <time>2022-09-20T12:50:41.000Z</time>
      </trkpt>
      <trkpt lat="44.20306" lon="2.14124">
        <ele>342.5</ele>
        <time>2022-09-20T12:50:42.000Z</time>
      </trkpt>
      <trkpt lat="44.20308" lon="2.14126">
        <ele>344.7</ele>
        <time>2022-09-20T12:51:13.000Z</time>
      </trkpt>
      <trkpt lat="44.20307" lon="2.14125">
        <ele>344.7</ele>
        <time>2022-09-20T12:51:14.000Z</time>
      </trkpt>
      <trkpt lat="44.20305" lon="2.14129">
        <ele>342.2</ele>
        <time>2022-09-20T12:51:43.000Z</time>
      </trkpt>
      <trkpt lat="44.20305" lon="2.14129">
        <ele>342.2</ele>
        <time>2022-09-20T12:51:44.000Z</time>
      </trkpt>
      <trkpt lat="44.20305" lon="2.14129">
        <ele>342.2</ele>
        <time>2022-09-20T12:51:45.000Z</time>
      </trkpt>
      <trkpt lat="44.20305" lon="2.1413">
        <ele>342.3</ele>
        <time>2022-09-20T12:51:56.000Z</time>
      </trkpt>
      <trkpt lat="44.20305" lon="2.14131">
        <ele>342.7</ele>
        <time>2022-09-20T12:51:58.000Z</time>
      </trkpt>
      <trkpt lat="44.20306" lon="2.1413">
        <ele>342.8</ele>
        <time>2022-09-20T12:51:59.000Z</time>
      </trkpt>
      <trkpt lat="44.20307" lon="2.14118">
        <ele>342.7</ele>
        <time>2022-09-20T12:52:18.000Z</time>
      </trkpt>
      <trkpt lat="44.20307" lon="2.14119">
        <ele>342.8</ele>
        <time>2022-09-20T12:52:19.000Z</time>
      </trkpt>
      <trkpt lat="44.20309" lon="2.14132">
        <ele>344.2</ele>
        <time>2022-09-20T12:52:36.000Z</time>
      </trkpt>
      <trkpt lat="44.20307" lon="2.14132">
        <ele>344.2</ele>
        <time>2022-09-20T12:52:46.000Z</time>
      </trkpt>
      <trkpt lat="44.20307" lon="2.14132">
        <ele>344.3</ele>
        <time>2022-09-20T12:52:47.000Z</time>
      </trkpt>
      <trkpt lat="44.20307" lon="2.14132">
        <ele>344.5</ele>
        <time>2022-09-20T12:52:50.000Z</time>
      </trkpt>
      <trkpt lat="44.20308" lon="2.14132">
        <ele>344.4</ele>
        <time>2022-09-20T12:52:51.000Z</time>
      </trkpt>
      <trkpt lat="44.20307" lon="2.14135">
        <ele>343.1</ele>
        <time>2022-09-20T12:53:20.000Z</time>
      </trkpt>
      <trkpt lat="44.20307" lon="2.14135">
        <ele>343.3</ele>
        <time>2022-09-20T12:53:21.000Z</time>
      </trkpt>
      <trkpt lat="44.20307" lon="2.14135">
        <ele>343.4</ele>
        <time>2022-09-20T12:53:23.000Z</time>
      </trkpt>
      <trkpt lat="44.20307" lon="2.14135">
        <ele>343.5</ele>
        <time>2022-09-20T12:53:24.000Z</time>
      </trkpt>
      <trkpt lat="44.20309" lon="2.14122">
        <ele>344.1</ele>
        <time>2022-09-20T12:53:32.000Z</time>
      </trkpt>
      <trkpt lat="44.20308" lon="2.1413">
        <ele>342.5</ele>
        <time>2022-09-20T12:53:47.000Z</time>
      </trkpt>
      <trkpt lat="44.20308" lon="2.14129">
        <ele>342.4</ele>
        <time>2022-09-20T12:53:48.000Z</time>
      </trkpt>
      <trkpt lat="44.2031" lon="2.14128">
        <ele>342</ele>
        <time>2022-09-20T12:53:59.000Z</time>
      </trkpt>
      <trkpt lat="44.2031" lon="2.14128">
        <ele>342</ele>
        <time>2022-09-20T12:54:00.000Z</time>
      </trkpt>
      <trkpt lat="44.20309" lon="2.14126">
        <ele>341.9</ele>
        <time>2022-09-20T12:54:08.000Z</time>
      </trkpt>
      <trkpt lat="44.20309" lon="2.14125">
        <ele>341.8</ele>
        <time>2022-09-20T12:54:10.000Z</time>
      </trkpt>
      <trkpt lat="44.20309" lon="2.14127">
        <ele>342.3</ele>
        <time>2022-09-20T12:54:36.000Z</time>
      </trkpt>
      <trkpt lat="44.20309" lon="2.14127">
        <ele>342.4</ele>
        <time>2022-09-20T12:54:37.000Z</time>
      </trkpt>
      <trkpt lat="44.20306" lon="2.14129">
        <ele>343.3</ele>
        <time>2022-09-20T12:54:44.000Z</time>
      </trkpt>
      <trkpt lat="44.20306" lon="2.14129">
        <ele>343.4</ele>
        <time>2022-09-20T12:54:45.000Z</time>
      </trkpt>
      <trkpt lat="44.20306" lon="2.14129">
        <ele>343.6</ele>
        <time>2022-09-20T12:54:46.000Z</time>
      </trkpt>
      <trkpt lat="44.20306" lon="2.14129">
        <ele>343.7</ele>
        <time>2022-09-20T12:54:47.000Z</time>
      </trkpt>
      <trkpt lat="44.20306" lon="2.1413">
        <ele>343.8</ele>
        <time>2022-09-20T12:54:49.000Z</time>
      </trkpt>
      <trkpt lat="44.20307" lon="2.14129">
        <ele>343.9</ele>
        <time>2022-09-20T12:54:50.000Z</time>
      </trkpt>
      <trkpt lat="44.20308" lon="2.1413">
        <ele>344.3</ele>
        <time>2022-09-20T12:54:56.000Z</time>
      </trkpt>
      <trkpt lat="44.20308" lon="2.1413">
        <ele>344.4</ele>
        <time>2022-09-20T12:54:57.000Z</time>
      </trkpt>
      <trkpt lat="44.20307" lon="2.14129">
        <ele>345</ele>
        <time>2022-09-20T12:55:02.000Z</time>
      </trkpt>
      <trkpt lat="44.20306" lon="2.14129">
        <ele>345.1</ele>
        <time>2022-09-20T12:55:03.000Z</time>
      </trkpt>
      <trkpt lat="44.20306" lon="2.1413">
        <ele>345.7</ele>
        <time>2022-09-20T12:55:14.000Z</time>
      </trkpt>
      <trkpt lat="44.20306" lon="2.1413">
        <ele>345.6</ele>
        <time>2022-09-20T12:55:16.000Z</time>
      </trkpt>
      <trkpt lat="44.20305" lon="2.1413">
        <ele>345.7</ele>
        <time>2022-09-20T12:55:18.000Z</time>
      </trkpt>
      <trkpt lat="44.20305" lon="2.1413">
        <ele>345.8</ele>
        <time>2022-09-20T12:55:19.000Z</time>
      </trkpt>
      <trkpt lat="44.20305" lon="2.1413">
        <ele>345.9</ele>
        <time>2022-09-20T12:55:20.000Z</time>
      </trkpt>
      <trkpt lat="44.20305" lon="2.1413">
        <ele>345.9</ele>
        <time>2022-09-20T12:55:21.000Z</time>
      </trkpt>
      <trkpt lat="44.20305" lon="2.14128">
        <ele>346.4</ele>
        <time>2022-09-20T12:55:26.000Z</time>
      </trkpt>
      <trkpt lat="44.20305" lon="2.14128">
        <ele>346.5</ele>
        <time>2022-09-20T12:55:27.000Z</time>
      </trkpt>
      <trkpt lat="44.20304" lon="2.14128">
        <ele>347.1</ele>
        <time>2022-09-20T12:55:31.000Z</time>
      </trkpt>
      <trkpt lat="44.20304" lon="2.14129">
        <ele>347.1</ele>
        <time>2022-09-20T12:55:32.000Z</time>
      </trkpt>
      <trkpt lat="44.20305" lon="2.1413">
        <ele>347.7</ele>
        <time>2022-09-20T12:55:41.000Z</time>
      </trkpt>
      <trkpt lat="44.20305" lon="2.1413">
        <ele>347.6</ele>
        <time>2022-09-20T12:55:43.000Z</time>
      </trkpt>
      <trkpt lat="44.20308" lon="2.14128">
        <ele>347.8</ele>
        <time>2022-09-20T12:56:01.000Z</time>
      </trkpt>
      <trkpt lat="44.20307" lon="2.14127">
        <ele>347.9</ele>
        <time>2022-09-20T12:56:02.000Z</time>
      </trkpt>
      <trkpt lat="44.20307" lon="2.14128">
        <ele>348.1</ele>
        <time>2022-09-20T12:56:05.000Z</time>
      </trkpt>
      <trkpt lat="44.20307" lon="2.14129">
        <ele>348.2</ele>
        <time>2022-09-20T12:56:07.000Z</time>
      </trkpt>
      <trkpt lat="44.20307" lon="2.14132">
        <ele>348.4</ele>
        <time>2022-09-20T12:56:11.000Z</time>
      </trkpt>
      <trkpt lat="44.20307" lon="2.14132">
        <ele>348.5</ele>
        <time>2022-09-20T12:56:12.000Z</time>
      </trkpt>
      <trkpt lat="44.20307" lon="2.14133">
        <ele>348.5</ele>
        <time>2022-09-20T12:56:14.000Z</time>
      </trkpt>
      <trkpt lat="44.20306" lon="2.14133">
        <ele>348.5</ele>
        <time>2022-09-20T12:56:15.000Z</time>
      </trkpt>
      <trkpt lat="44.20309" lon="2.14132">
        <ele>348.5</ele>
        <time>2022-09-20T12:56:29.000Z</time>
      </trkpt>
      <trkpt lat="44.20309" lon="2.14132">
        <ele>348.7</ele>
        <time>2022-09-20T12:56:30.000Z</time>
      </trkpt>
      <trkpt lat="44.2031" lon="2.14126">
        <ele>348.7</ele>
        <time>2022-09-20T12:56:42.000Z</time>
      </trkpt>
      <trkpt lat="44.2031" lon="2.14126">
        <ele>348.6</ele>
        <time>2022-09-20T12:56:43.000Z</time>
      </trkpt>
      <trkpt lat="44.20309" lon="2.14126">
        <ele>348.3</ele>
        <time>2022-09-20T12:56:50.000Z</time>
      </trkpt>
      <trkpt lat="44.20309" lon="2.14126">
        <ele>348.2</ele>
        <time>2022-09-20T12:56:51.000Z</time>
      </trkpt>
      <trkpt lat="44.20307" lon="2.14129">
        <ele>347.3</ele>
        <time>2022-09-20T12:57:03.000Z</time>
      </trkpt>
      <trkpt lat="44.20307" lon="2.14128">
        <ele>347.1</ele>
        <time>2022-09-20T12:57:04.000Z</time>
      </trkpt>
      <trkpt lat="44.20302" lon="2.14126">
        <ele>349.2</ele>
        <time>2022-09-20T12:57:43.000Z</time>
      </trkpt>
      <trkpt lat="44.20302" lon="2.14126">
        <ele>349.2</ele>
        <time>2022-09-20T12:57:44.000Z</time>
      </trkpt>
      <trkpt lat="44.20302" lon="2.14126">
        <ele>349.2</ele>
        <time>2022-09-20T12:57:45.000Z</time>
      </trkpt>
      <trkpt lat="44.20302" lon="2.14126">
        <ele>349.2</ele>
        <time>2022-09-20T12:57:48.000Z</time>
      </trkpt>
      <trkpt lat="44.20299" lon="2.14124">
        <ele>349.4</ele>
        <time>2022-09-20T12:57:54.000Z</time>
      </trkpt>
      <trkpt lat="44.20299" lon="2.14124">
        <ele>349.4</ele>
        <time>2022-09-20T12:57:55.000Z</time>
      </trkpt>
      <trkpt lat="44.20299" lon="2.14124">
        <ele>349.4</ele>
        <time>2022-09-20T12:57:56.000Z</time>
      </trkpt>
      <trkpt lat="44.20299" lon="2.14124">
        <ele>349.4</ele>
        <time>2022-09-20T12:58:01.000Z</time>
      </trkpt>
      <trkpt lat="44.20298" lon="2.14125">
        <ele>349.5</ele>
        <time>2022-09-20T12:58:04.000Z</time>
      </trkpt>
      <trkpt lat="44.20299" lon="2.14125">
        <ele>349.5</ele>
        <time>2022-09-20T12:58:05.000Z</time>
      </trkpt>
      <trkpt lat="44.20298" lon="2.14126">
        <ele>349.4</ele>
        <time>2022-09-20T12:58:09.000Z</time>
      </trkpt>
      <trkpt lat="44.20299" lon="2.14125">
        <ele>349.3</ele>
        <time>2022-09-20T12:58:12.000Z</time>
      </trkpt>
      <trkpt lat="44.203" lon="2.14124">
        <ele>349.1</ele>
        <time>2022-09-20T12:58:16.000Z</time>
      </trkpt>
      <trkpt lat="44.203" lon="2.14125">
        <ele>349.5</ele>
        <time>2022-09-20T12:58:23.000Z</time>
      </trkpt>
      <trkpt lat="44.20306" lon="2.14126">
        <ele>349</ele>
        <time>2022-09-20T12:58:42.000Z</time>
      </trkpt>
      <trkpt lat="44.20306" lon="2.14126">
        <ele>348.9</ele>
        <time>2022-09-20T12:58:44.000Z</time>
      </trkpt>
      <trkpt lat="44.20306" lon="2.14126">
        <ele>349</ele>
        <time>2022-09-20T12:58:45.000Z</time>
      </trkpt>
      <trkpt lat="44.20306" lon="2.14126">
        <ele>349</ele>
        <time>2022-09-20T12:58:46.000Z</time>
      </trkpt>
      <trkpt lat="44.20307" lon="2.14126">
        <ele>348.8</ele>
        <time>2022-09-20T12:58:56.000Z</time>
      </trkpt>
      <trkpt lat="44.20306" lon="2.14126">
        <ele>348.8</ele>
        <time>2022-09-20T12:59:01.000Z</time>
      </trkpt>
      <trkpt lat="44.20306" lon="2.14126">
        <ele>348.8</ele>
        <time>2022-09-20T12:59:03.000Z</time>
      </trkpt>
      <trkpt lat="44.20306" lon="2.14127">
        <ele>348.9</ele>
        <time>2022-09-20T12:59:06.000Z</time>
      </trkpt>
      <trkpt lat="44.20305" lon="2.14128">
        <ele>348.6</ele>
        <time>2022-09-20T12:59:11.000Z</time>
      </trkpt>
      <trkpt lat="44.20305" lon="2.14129">
        <ele>348.3</ele>
        <time>2022-09-20T12:59:13.000Z</time>
      </trkpt>
      <trkpt lat="44.20305" lon="2.14129">
        <ele>348.2</ele>
        <time>2022-09-20T12:59:14.000Z</time>
      </trkpt>
      <trkpt lat="44.20305" lon="2.14129">
        <ele>348.2</ele>
        <time>2022-09-20T12:59:16.000Z</time>
      </trkpt>
      <trkpt lat="44.20305" lon="2.1413">
        <ele>348.1</ele>
        <time>2022-09-20T12:59:22.000Z</time>
      </trkpt>
      <trkpt lat="44.20305" lon="2.1413">
        <ele>348.1</ele>
        <time>2022-09-20T12:59:23.000Z</time>
      </trkpt>
      <trkpt lat="44.20305" lon="2.14129">
        <ele>347.9</ele>
        <time>2022-09-20T12:59:26.000Z</time>
      </trkpt>
      <trkpt lat="44.20305" lon="2.14129">
        <ele>347.9</ele>
        <time>2022-09-20T12:59:27.000Z</time>
      </trkpt>
      <trkpt lat="44.2031" lon="2.14131">
        <ele>347</ele>
        <time>2022-09-20T12:59:55.000Z</time>
      </trkpt>
      <trkpt lat="44.20311" lon="2.14131">
        <ele>346.9</ele>
        <time>2022-09-20T12:59:57.000Z</time>
      </trkpt>
      <trkpt lat="44.20311" lon="2.14131">
        <ele>346.5</ele>
        <time>2022-09-20T13:00:00.000Z</time>
      </trkpt>
      <trkpt lat="44.2031" lon="2.1413">
        <ele>346.5</ele>
        <time>2022-09-20T13:00:01.000Z</time>
      </trkpt>
      <trkpt lat="44.20308" lon="2.1413">
        <ele>346.1</ele>
        <time>2022-09-20T13:00:12.000Z</time>
      </trkpt>
      <trkpt lat="44.20308" lon="2.14129">
        <ele>346</ele>
        <time>2022-09-20T13:00:14.000Z</time>
      </trkpt>
      <trkpt lat="44.20292" lon="2.1413">
        <ele>338.2</ele>
        <time>2022-09-20T13:10:06.000Z</time>
      </trkpt>
      <trkpt lat="44.20294" lon="2.14134">
        <ele>334.5</ele>
        <time>2022-09-20T13:10:07.000Z</time>
      </trkpt>
      <trkpt lat="44.20303" lon="2.1413">
        <ele>343.9</ele>
        <time>2022-09-20T13:10:28.000Z</time>
      </trkpt>
      <trkpt lat="44.20312" lon="2.14127">
        <ele>342.5</ele>
        <time>2022-09-20T13:10:49.000Z</time>
      </trkpt>
      <trkpt lat="44.2031" lon="2.1413">
        <ele>346.2</ele>
        <time>2022-09-20T13:11:16.000Z</time>
      </trkpt>
      <trkpt lat="44.2031" lon="2.1413">
        <ele>346.1</ele>
        <time>2022-09-20T13:11:19.000Z</time>
      </trkpt>
      <trkpt lat="44.20309" lon="2.14129">
        <ele>346.3</ele>
        <time>2022-09-20T13:11:23.000Z</time>
      </trkpt>
      <trkpt lat="44.20309" lon="2.14129">
        <ele>346.3</ele>
        <time>2022-09-20T13:11:25.000Z</time>
      </trkpt>
      <trkpt lat="44.20309" lon="2.1413">
        <ele>345.5</ele>
        <time>2022-09-20T13:11:30.000Z</time>
      </trkpt>
      <trkpt lat="44.20309" lon="2.1413">
        <ele>345.4</ele>
        <time>2022-09-20T13:11:32.000Z</time>
      </trkpt>
      <trkpt lat="44.20308" lon="2.1413">
        <ele>345.4</ele>
        <time>2022-09-20T13:11:37.000Z</time>
      </trkpt>
      <trkpt lat="44.20308" lon="2.1413">
        <ele>345.5</ele>
        <time>2022-09-20T13:12:07.000Z</time>
      </trkpt>
      <trkpt lat="44.20309" lon="2.1413">
        <ele>345.5</ele>
        <time>2022-09-20T13:12:10.000Z</time>
      </trkpt>
      <trkpt lat="44.20309" lon="2.14129">
        <ele>345.4</ele>
        <time>2022-09-20T13:12:12.000Z</time>
      </trkpt>
      <trkpt lat="44.2031" lon="2.14129">
        <ele>345.4</ele>
        <time>2022-09-20T13:12:15.000Z</time>
      </trkpt>
      <trkpt lat="44.2031" lon="2.14128">
        <ele>345.5</ele>
        <time>2022-09-20T13:12:17.000Z</time>
      </trkpt>
      <trkpt lat="44.20307" lon="2.14131">
        <ele>345</ele>
        <time>2022-09-20T13:12:34.000Z</time>
      </trkpt>
      <trkpt lat="44.20307" lon="2.1413">
        <ele>344.8</ele>
        <time>2022-09-20T13:12:35.000Z</time>
      </trkpt>
      <trkpt lat="44.20306" lon="2.1413">
        <ele>344.2</ele>
        <time>2022-09-20T13:12:39.000Z</time>
      </trkpt>
      <trkpt lat="44.20306" lon="2.14131">
        <ele>344</ele>
        <time>2022-09-20T13:12:40.000Z</time>
      </trkpt>
      <trkpt lat="44.20305" lon="2.14122">
        <ele>345.3</ele>
        <time>2022-09-20T13:12:56.000Z</time>
      </trkpt>
      <trkpt lat="44.20305" lon="2.14121">
        <ele>345.3</ele>
        <time>2022-09-20T13:12:58.000Z</time>
      </trkpt>
      <trkpt lat="44.20305" lon="2.14121">
        <ele>345.4</ele>
        <time>2022-09-20T13:12:59.000Z</time>
      </trkpt>
      <trkpt lat="44.20305" lon="2.14121">
        <ele>345.4</ele>
        <time>2022-09-20T13:13:00.000Z</time>
      </trkpt>
      <trkpt lat="44.20301" lon="2.14109">
        <ele>347.8</ele>
        <time>2022-09-20T13:13:24.000Z</time>
      </trkpt>
      <trkpt lat="44.20303" lon="2.14097">
        <ele>349.6</ele>
        <time>2022-09-20T13:13:47.000Z</time>
      </trkpt>
      <trkpt lat="44.20302" lon="2.14096">
        <ele>349.6</ele>
        <time>2022-09-20T13:13:48.000Z</time>
      </trkpt>
      <trkpt lat="44.203" lon="2.1409">
        <ele>350.6</ele>
        <time>2022-09-20T13:14:02.000Z</time>
      </trkpt>
      <trkpt lat="44.203" lon="2.14089">
        <ele>350.7</ele>
        <time>2022-09-20T13:14:04.000Z</time>
      </trkpt>
      <trkpt lat="44.20299" lon="2.14088">
        <ele>350.8</ele>
        <time>2022-09-20T13:14:07.000Z</time>
      </trkpt>
      <trkpt lat="44.20299" lon="2.14087">
        <ele>350.9</ele>
        <time>2022-09-20T13:14:08.000Z</time>
      </trkpt>
      <trkpt lat="44.20299" lon="2.14087">
        <ele>351</ele>
        <time>2022-09-20T13:14:09.000Z</time>
      </trkpt>
      <trkpt lat="44.20299" lon="2.14087">
        <ele>351</ele>
        <time>2022-09-20T13:14:10.000Z</time>
      </trkpt>
      <trkpt lat="44.203" lon="2.14082">
        <ele>351.4</ele>
        <time>2022-09-20T13:14:23.000Z</time>
      </trkpt>
      <trkpt lat="44.20301" lon="2.14082">
        <ele>351.5</ele>
        <time>2022-09-20T13:14:24.000Z</time>
      </trkpt>
      <trkpt lat="44.203" lon="2.14081">
        <ele>351.9</ele>
        <time>2022-09-20T13:14:26.000Z</time>
      </trkpt>
      <trkpt lat="44.203" lon="2.1408">
        <ele>352</ele>
        <time>2022-09-20T13:14:27.000Z</time>
      </trkpt>
      <trkpt lat="44.20309" lon="2.14076">
        <ele>356.9</ele>
        <time>2022-09-20T13:15:01.000Z</time>
      </trkpt>
      <trkpt lat="44.2031" lon="2.14076">
        <ele>357.1</ele>
        <time>2022-09-20T13:15:08.000Z</time>
      </trkpt>
      <trkpt lat="44.2031" lon="2.14076">
        <ele>357.2</ele>
        <time>2022-09-20T13:15:09.000Z</time>
      </trkpt>
      <trkpt lat="44.2031" lon="2.14076">
        <ele>357.3</ele>
        <time>2022-09-20T13:15:11.000Z</time>
      </trkpt>
      <trkpt lat="44.20311" lon="2.14076">
        <ele>357.4</ele>
        <time>2022-09-20T13:15:12.000Z</time>
      </trkpt>
      <trkpt lat="44.20312" lon="2.14075">
        <ele>357.8</ele>
        <time>2022-09-20T13:15:17.000Z</time>
      </trkpt>
      <trkpt lat="44.20312" lon="2.14076">
        <ele>357.8</ele>
        <time>2022-09-20T13:15:18.000Z</time>
      </trkpt>
      <trkpt lat="44.20312" lon="2.14077">
        <ele>358.4</ele>
        <time>2022-09-20T13:15:22.000Z</time>
      </trkpt>
      <trkpt lat="44.20312" lon="2.14076">
        <ele>358.6</ele>
        <time>2022-09-20T13:15:24.000Z</time>
      </trkpt>
      <trkpt lat="44.20312" lon="2.14073">
        <ele>360.9</ele>
        <time>2022-09-20T13:15:32.000Z</time>
      </trkpt>
      <trkpt lat="44.20312" lon="2.14072">
        <ele>361.2</ele>
        <time>2022-09-20T13:15:34.000Z</time>
      </trkpt>
      <trkpt lat="44.20313" lon="2.14068">
        <ele>362.1</ele>
        <time>2022-09-20T13:15:44.000Z</time>
      </trkpt>
      <trkpt lat="44.20313" lon="2.14068">
        <ele>362.3</ele>
        <time>2022-09-20T13:15:50.000Z</time>
      </trkpt>
      <trkpt lat="44.20313" lon="2.14068">
        <ele>362.6</ele>
        <time>2022-09-20T13:15:52.000Z</time>
      </trkpt>
      <trkpt lat="44.20312" lon="2.14068">
        <ele>362.6</ele>
        <time>2022-09-20T13:15:54.000Z</time>
      </trkpt>
      <trkpt lat="44.20312" lon="2.14068">
        <ele>362.7</ele>
        <time>2022-09-20T13:15:55.000Z</time>
      </trkpt>
      <trkpt lat="44.20313" lon="2.14068">
        <ele>362.7</ele>
        <time>2022-09-20T13:16:07.000Z</time>
      </trkpt>
      <trkpt lat="44.20314" lon="2.14063">
        <ele>364.7</ele>
        <time>2022-09-20T13:16:21.000Z</time>
      </trkpt>
      <trkpt lat="44.20314" lon="2.14062">
        <ele>364.7</ele>
        <time>2022-09-20T13:16:22.000Z</time>
      </trkpt>
      <trkpt lat="44.20314" lon="2.14052">
        <ele>368</ele>
        <time>2022-09-20T13:16:44.000Z</time>
      </trkpt>
      <trkpt lat="44.20314" lon="2.14051">
        <ele>368.6</ele>
        <time>2022-09-20T13:16:46.000Z</time>
      </trkpt>
      <trkpt lat="44.20314" lon="2.1405">
        <ele>369.1</ele>
        <time>2022-09-20T13:16:49.000Z</time>
      </trkpt>
      <trkpt lat="44.20314" lon="2.1405">
        <ele>369.2</ele>
        <time>2022-09-20T13:16:53.000Z</time>
      </trkpt>
      <trkpt lat="44.20314" lon="2.14048">
        <ele>369.8</ele>
        <time>2022-09-20T13:16:58.000Z</time>
      </trkpt>
      <trkpt lat="44.20314" lon="2.14048">
        <ele>369.9</ele>
        <time>2022-09-20T13:16:59.000Z</time>
      </trkpt>
      <trkpt lat="44.20314" lon="2.14046">
        <ele>370.6</ele>
        <time>2022-09-20T13:17:05.000Z</time>
      </trkpt>
      <trkpt lat="44.20314" lon="2.14045">
        <ele>371</ele>
        <time>2022-09-20T13:17:06.000Z</time>
      </trkpt>
      <trkpt lat="44.20314" lon="2.14045">
        <ele>371</ele>
        <time>2022-09-20T13:17:09.000Z</time>
      </trkpt>
      <trkpt lat="44.20314" lon="2.14045">
        <ele>371.1</ele>
        <time>2022-09-20T13:17:12.000Z</time>
      </trkpt>
      <trkpt lat="44.20315" lon="2.14041">
        <ele>371.5</ele>
        <time>2022-09-20T13:17:18.000Z</time>
      </trkpt>
      <trkpt lat="44.20315" lon="2.14041">
        <ele>371.5</ele>
        <time>2022-09-20T13:17:20.000Z</time>
      </trkpt>
      <trkpt lat="44.20315" lon="2.14041">
        <ele>371.5</ele>
        <time>2022-09-20T13:17:21.000Z</time>
      </trkpt>
      <trkpt lat="44.20315" lon="2.14041">
        <ele>371.5</ele>
        <time>2022-09-20T13:17:22.000Z</time>
      </trkpt>
      <trkpt lat="44.20316" lon="2.1404">
        <ele>372</ele>
        <time>2022-09-20T13:17:27.000Z</time>
      </trkpt>
      <trkpt lat="44.20316" lon="2.1404">
        <ele>371.9</ele>
        <time>2022-09-20T13:17:32.000Z</time>
      </trkpt>
      <trkpt lat="44.20316" lon="2.1404">
        <ele>372</ele>
        <time>2022-09-20T13:17:33.000Z</time>
      </trkpt>
      <trkpt lat="44.20316" lon="2.14041">
        <ele>372.2</ele>
        <time>2022-09-20T13:17:41.000Z</time>
      </trkpt>
      <trkpt lat="44.20316" lon="2.14039">
        <ele>372.7</ele>
        <time>2022-09-20T13:17:47.000Z</time>
      </trkpt>
      <trkpt lat="44.20316" lon="2.14039">
        <ele>372.7</ele>
        <time>2022-09-20T13:18:02.000Z</time>
      </trkpt>
      <trkpt lat="44.20316" lon="2.14039">
        <ele>372.7</ele>
        <time>2022-09-20T13:18:03.000Z</time>
      </trkpt>
      <trkpt lat="44.20316" lon="2.14039">
        <ele>373</ele>
        <time>2022-09-20T13:18:10.000Z</time>
      </trkpt>
      <trkpt lat="44.20315" lon="2.14039">
        <ele>373.1</ele>
        <time>2022-09-20T13:18:13.000Z</time>
      </trkpt>
      <trkpt lat="44.20315" lon="2.14038">
        <ele>373.2</ele>
        <time>2022-09-20T13:18:14.000Z</time>
      </trkpt>
      <trkpt lat="44.20316" lon="2.14036">
        <ele>373.5</ele>
        <time>2022-09-20T13:18:18.000Z</time>
      </trkpt>
      <trkpt lat="44.20316" lon="2.14035">
        <ele>373.7</ele>
        <time>2022-09-20T13:18:27.000Z</time>
      </trkpt>
      <trkpt lat="44.20316" lon="2.14035">
        <ele>373.9</ele>
        <time>2022-09-20T13:18:30.000Z</time>
      </trkpt>
      <trkpt lat="44.20316" lon="2.14035">
        <ele>373.9</ele>
        <time>2022-09-20T13:18:34.000Z</time>
      </trkpt>
      <trkpt lat="44.20316" lon="2.14035">
        <ele>373.9</ele>
        <time>2022-09-20T13:18:35.000Z</time>
      </trkpt>
      <trkpt lat="44.20316" lon="2.14035">
        <ele>374</ele>
        <time>2022-09-20T13:18:37.000Z</time>
      </trkpt>
      <trkpt lat="44.20316" lon="2.14035">
        <ele>374</ele>
        <time>2022-09-20T13:18:38.000Z</time>
      </trkpt>
      <trkpt lat="44.20316" lon="2.14035">
        <ele>374.1</ele>
        <time>2022-09-20T13:18:44.000Z</time>
      </trkpt>
      <trkpt lat="44.20316" lon="2.14035">
        <ele>374.1</ele>
        <time>2022-09-20T13:18:46.000Z</time>
      </trkpt>
      <trkpt lat="44.20316" lon="2.14035">
        <ele>374.2</ele>
        <time>2022-09-20T13:18:48.000Z</time>
      </trkpt>
      <trkpt lat="44.20316" lon="2.14035">
        <ele>374.2</ele>
        <time>2022-09-20T13:18:49.000Z</time>
      </trkpt>
      <trkpt lat="44.20316" lon="2.14036">
        <ele>374.3</ele>
        <time>2022-09-20T13:19:09.000Z</time>
      </trkpt>
      <trkpt lat="44.20316" lon="2.14036">
        <ele>374.4</ele>
        <time>2022-09-20T13:19:10.000Z</time>
      </trkpt>
      <trkpt lat="44.20316" lon="2.14036">
        <ele>374.5</ele>
        <time>2022-09-20T13:19:16.000Z</time>
      </trkpt>
      <trkpt lat="44.20316" lon="2.14036">
        <ele>374.5</ele>
        <time>2022-09-20T13:19:17.000Z</time>
      </trkpt>
      <trkpt lat="44.20316" lon="2.14036">
        <ele>374.5</ele>
        <time>2022-09-20T13:19:24.000Z</time>
      </trkpt>
      <trkpt lat="44.20316" lon="2.14036">
        <ele>374.5</ele>
        <time>2022-09-20T13:19:25.000Z</time>
      </trkpt>
      <trkpt lat="44.20316" lon="2.14036">
        <ele>374.7</ele>
        <time>2022-09-20T13:20:05.000Z</time>
      </trkpt>
      <trkpt lat="44.20316" lon="2.14036">
        <ele>374.7</ele>
        <time>2022-09-20T13:20:06.000Z</time>
      </trkpt>
      <trkpt lat="44.20316" lon="2.14036">
        <ele>374.8</ele>
        <time>2022-09-20T13:20:36.000Z</time>
      </trkpt>
      <trkpt lat="44.20316" lon="2.14036">
        <ele>374.8</ele>
        <time>2022-09-20T13:20:37.000Z</time>
      </trkpt>
      <trkpt lat="44.20316" lon="2.14036">
        <ele>375</ele>
        <time>2022-09-20T13:21:46.000Z</time>
      </trkpt>
      <trkpt lat="44.20316" lon="2.14036">
        <ele>375</ele>
        <time>2022-09-20T13:21:47.000Z</time>
      </trkpt>
      <trkpt lat="44.20316" lon="2.14036">
        <ele>375</ele>
        <time>2022-09-20T13:21:59.000Z</time>
      </trkpt>
      <trkpt lat="44.20316" lon="2.14036">
        <ele>375</ele>
        <time>2022-09-20T13:22:00.000Z</time>
      </trkpt>
      <trkpt lat="44.20316" lon="2.14036">
        <ele>374.9</ele>
        <time>2022-09-20T13:23:05.000Z</time>
      </trkpt>
      <trkpt lat="44.20316" lon="2.14036">
        <ele>374.9</ele>
        <time>2022-09-20T13:23:06.000Z</time>
      </trkpt>
      <trkpt lat="44.20316" lon="2.14036">
        <ele>374.7</ele>
        <time>2022-09-20T13:23:08.000Z</time>
      </trkpt>
      <trkpt lat="44.20316" lon="2.14036">
        <ele>374.7</ele>
        <time>2022-09-20T13:23:09.000Z</time>
      </trkpt>
      <trkpt lat="44.20316" lon="2.14035">
        <ele>374.7</ele>
        <time>2022-09-20T13:23:10.000Z</time>
      </trkpt>
      <trkpt lat="44.20316" lon="2.14034">
        <ele>374.5</ele>
        <time>2022-09-20T13:23:13.000Z</time>
      </trkpt>
      <trkpt lat="44.20316" lon="2.14034">
        <ele>374.5</ele>
        <time>2022-09-20T13:24:04.000Z</time>
      </trkpt>
      <trkpt lat="44.20316" lon="2.14034">
        <ele>374.5</ele>
        <time>2022-09-20T13:24:05.000Z</time>
      </trkpt>
      <trkpt lat="44.20315" lon="2.14035">
        <ele>374.6</ele>
        <time>2022-09-20T13:24:36.000Z</time>
      </trkpt>
      <trkpt lat="44.20315" lon="2.14035">
        <ele>374.6</ele>
        <time>2022-09-20T13:24:37.000Z</time>
      </trkpt>
      <trkpt lat="44.20316" lon="2.14035">
        <ele>374.6</ele>
        <time>2022-09-20T13:24:39.000Z</time>
      </trkpt>
      <trkpt lat="44.20316" lon="2.14034">
        <ele>374.7</ele>
        <time>2022-09-20T13:24:40.000Z</time>
      </trkpt>
      <trkpt lat="44.20316" lon="2.14034">
        <ele>374.8</ele>
        <time>2022-09-20T13:24:41.000Z</time>
      </trkpt>
      <trkpt lat="44.20316" lon="2.14034">
        <ele>374.9</ele>
        <time>2022-09-20T13:24:43.000Z</time>
      </trkpt>
      <trkpt lat="44.20317" lon="2.14034">
        <ele>374.9</ele>
        <time>2022-09-20T13:24:45.000Z</time>
      </trkpt>
      <trkpt lat="44.20317" lon="2.14033">
        <ele>375</ele>
        <time>2022-09-20T13:24:48.000Z</time>
      </trkpt>
      <trkpt lat="44.20318" lon="2.14033">
        <ele>375</ele>
        <time>2022-09-20T13:24:54.000Z</time>
      </trkpt>
      <trkpt lat="44.20319" lon="2.14032">
        <ele>375.1</ele>
        <time>2022-09-20T13:24:58.000Z</time>
      </trkpt>
      <trkpt lat="44.20319" lon="2.14032">
        <ele>375.1</ele>
        <time>2022-09-20T13:25:05.000Z</time>
      </trkpt>
      <trkpt lat="44.20319" lon="2.14032">
        <ele>375.1</ele>
        <time>2022-09-20T13:25:06.000Z</time>
      </trkpt>
      <trkpt lat="44.20319" lon="2.14032">
        <ele>375.2</ele>
        <time>2022-09-20T13:25:09.000Z</time>
      </trkpt>
      <trkpt lat="44.20318" lon="2.14033">
        <ele>375.2</ele>
        <time>2022-09-20T13:25:12.000Z</time>
      </trkpt>
      <trkpt lat="44.20318" lon="2.14033">
        <ele>375.2</ele>
        <time>2022-09-20T13:27:17.000Z</time>
      </trkpt>
      <trkpt lat="44.20318" lon="2.14033">
        <ele>375.2</ele>
        <time>2022-09-20T13:27:18.000Z</time>
      </trkpt>
      <trkpt lat="44.20318" lon="2.14033">
        <ele>375.1</ele>
        <time>2022-09-20T13:28:08.000Z</time>
      </trkpt>
      <trkpt lat="44.20326" lon="2.14027">
        <ele>376.3</ele>
        <time>2022-09-20T13:28:26.000Z</time>
      </trkpt>
      <trkpt lat="44.20332" lon="2.14016">
        <ele>378.1</ele>
        <time>2022-09-20T13:28:41.000Z</time>
      </trkpt>
      <trkpt lat="44.20335" lon="2.14012">
        <ele>379.9</ele>
        <time>2022-09-20T13:28:51.000Z</time>
      </trkpt>
      <trkpt lat="44.20335" lon="2.14012">
        <ele>379.9</ele>
        <time>2022-09-20T13:28:54.000Z</time>
      </trkpt>
      <trkpt lat="44.2034" lon="2.14001">
        <ele>382.8</ele>
        <time>2022-09-20T13:29:15.000Z</time>
      </trkpt>
      <trkpt lat="44.20344" lon="2.13989">
        <ele>386.5</ele>
        <time>2022-09-20T13:29:39.000Z</time>
      </trkpt>
      <trkpt lat="44.20353" lon="2.13984">
        <ele>389.5</ele>
        <time>2022-09-20T13:30:00.000Z</time>
      </trkpt>
      <trkpt lat="44.20355" lon="2.13983">
        <ele>390.2</ele>
        <time>2022-09-20T13:30:06.000Z</time>
      </trkpt>
      <trkpt lat="44.20354" lon="2.13982">
        <ele>390.3</ele>
        <time>2022-09-20T13:30:07.000Z</time>
      </trkpt>
      <trkpt lat="44.20357" lon="2.1397">
        <ele>391</ele>
        <time>2022-09-20T13:30:24.000Z</time>
      </trkpt>
      <trkpt lat="44.20358" lon="2.13957">
        <ele>392.3</ele>
        <time>2022-09-20T13:30:35.000Z</time>
      </trkpt>
      <trkpt lat="44.20361" lon="2.13944">
        <ele>395.4</ele>
        <time>2022-09-20T13:30:49.000Z</time>
      </trkpt>
      <trkpt lat="44.20361" lon="2.13931">
        <ele>396.1</ele>
        <time>2022-09-20T13:31:04.000Z</time>
      </trkpt>
      <trkpt lat="44.20362" lon="2.13918">
        <ele>396.3</ele>
        <time>2022-09-20T13:31:18.000Z</time>
      </trkpt>
      <trkpt lat="44.20363" lon="2.13905">
        <ele>395.9</ele>
        <time>2022-09-20T13:31:31.000Z</time>
      </trkpt>
      <trkpt lat="44.20358" lon="2.13894">
        <ele>396.3</ele>
        <time>2022-09-20T13:31:40.000Z</time>
      </trkpt>
      <trkpt lat="44.20353" lon="2.13883">
        <ele>396.2</ele>
        <time>2022-09-20T13:31:56.000Z</time>
      </trkpt>
      <trkpt lat="44.20349" lon="2.13877">
        <ele>397</ele>
        <time>2022-09-20T13:32:06.000Z</time>
      </trkpt>
      <trkpt lat="44.20348" lon="2.13876">
        <ele>397.3</ele>
        <time>2022-09-20T13:32:07.000Z</time>
      </trkpt>
      <trkpt lat="44.20342" lon="2.13866">
        <ele>399.5</ele>
        <time>2022-09-20T13:32:18.000Z</time>
      </trkpt>
      <trkpt lat="44.20335" lon="2.13857">
        <ele>400.8</ele>
        <time>2022-09-20T13:32:36.000Z</time>
      </trkpt>
      <trkpt lat="44.2033" lon="2.13846">
        <ele>402.3</ele>
        <time>2022-09-20T13:32:53.000Z</time>
      </trkpt>
      <trkpt lat="44.20322" lon="2.13839">
        <ele>402.9</ele>
        <time>2022-09-20T13:33:08.000Z</time>
      </trkpt>
      <trkpt lat="44.20314" lon="2.13834">
        <ele>405.2</ele>
        <time>2022-09-20T13:33:24.000Z</time>
      </trkpt>
      <trkpt lat="44.20305" lon="2.13828">
        <ele>407</ele>
        <time>2022-09-20T13:33:38.000Z</time>
      </trkpt>
      <trkpt lat="44.203" lon="2.13824">
        <ele>408.2</ele>
        <time>2022-09-20T13:33:53.000Z</time>
      </trkpt>
      <trkpt lat="44.203" lon="2.13824">
        <ele>408.2</ele>
        <time>2022-09-20T13:33:55.000Z</time>
      </trkpt>
      <trkpt lat="44.203" lon="2.13824">
        <ele>408.2</ele>
        <time>2022-09-20T13:33:56.000Z</time>
      </trkpt>
      <trkpt lat="44.203" lon="2.13824">
        <ele>408.2</ele>
        <time>2022-09-20T13:34:08.000Z</time>
      </trkpt>
      <trkpt lat="44.203" lon="2.13824">
        <ele>408.4</ele>
        <time>2022-09-20T13:34:10.000Z</time>
      </trkpt>
      <trkpt lat="44.203" lon="2.13824">
        <ele>408.6</ele>
        <time>2022-09-20T13:34:11.000Z</time>
      </trkpt>
      <trkpt lat="44.20306" lon="2.13814">
        <ele>410.4</ele>
        <time>2022-09-20T13:34:36.000Z</time>
      </trkpt>
      <trkpt lat="44.20314" lon="2.13809">
        <ele>412.4</ele>
        <time>2022-09-20T13:34:49.000Z</time>
      </trkpt>
      <trkpt lat="44.2032" lon="2.13798">
        <ele>414.7</ele>
        <time>2022-09-20T13:35:03.000Z</time>
      </trkpt>
      <trkpt lat="44.20327" lon="2.13806">
        <ele>416.6</ele>
        <time>2022-09-20T13:35:26.000Z</time>
      </trkpt>
      <trkpt lat="44.20333" lon="2.13816">
        <ele>418.9</ele>
        <time>2022-09-20T13:35:40.000Z</time>
      </trkpt>
      <trkpt lat="44.20342" lon="2.13815">
        <ele>418.6</ele>
        <time>2022-09-20T13:35:51.000Z</time>
      </trkpt>
      <trkpt lat="44.20352" lon="2.13817">
        <ele>421.4</ele>
        <time>2022-09-20T13:36:04.000Z</time>
      </trkpt>
      <trkpt lat="44.20361" lon="2.1382">
        <ele>423.7</ele>
        <time>2022-09-20T13:36:18.000Z</time>
      </trkpt>
      <trkpt lat="44.2037" lon="2.13822">
        <ele>424.8</ele>
        <time>2022-09-20T13:36:32.000Z</time>
      </trkpt>
      <trkpt lat="44.2038" lon="2.13824">
        <ele>425.6</ele>
        <time>2022-09-20T13:36:46.000Z</time>
      </trkpt>
      <trkpt lat="44.20388" lon="2.13831">
        <ele>427.7</ele>
        <time>2022-09-20T13:36:59.000Z</time>
      </trkpt>
      <trkpt lat="44.20394" lon="2.1384">
        <ele>429</ele>
        <time>2022-09-20T13:37:10.000Z</time>
      </trkpt>
      <trkpt lat="44.20402" lon="2.13847">
        <ele>433</ele>
        <time>2022-09-20T13:37:23.000Z</time>
      </trkpt>
      <trkpt lat="44.20409" lon="2.13856">
        <ele>437.1</ele>
        <time>2022-09-20T13:37:38.000Z</time>
      </trkpt>
      <trkpt lat="44.20412" lon="2.13868">
        <ele>438.7</ele>
        <time>2022-09-20T13:37:52.000Z</time>
      </trkpt>
      <trkpt lat="44.20413" lon="2.13881">
        <ele>441.8</ele>
        <time>2022-09-20T13:38:08.000Z</time>
      </trkpt>
      <trkpt lat="44.20416" lon="2.13894">
        <ele>443.4</ele>
        <time>2022-09-20T13:38:23.000Z</time>
      </trkpt>
      <trkpt lat="44.20422" lon="2.13904">
        <ele>444.1</ele>
        <time>2022-09-20T13:38:35.000Z</time>
      </trkpt>
      <trkpt lat="44.20422" lon="2.13907">
        <ele>445.3</ele>
        <time>2022-09-20T13:38:40.000Z</time>
      </trkpt>
      <trkpt lat="44.20422" lon="2.13907">
        <ele>445.4</ele>
        <time>2022-09-20T13:38:50.000Z</time>
      </trkpt>
      <trkpt lat="44.20422" lon="2.13907">
        <ele>445.5</ele>
        <time>2022-09-20T13:38:52.000Z</time>
      </trkpt>
      <trkpt lat="44.20422" lon="2.13907">
        <ele>445.7</ele>
        <time>2022-09-20T13:38:53.000Z</time>
      </trkpt>
      <trkpt lat="44.2042" lon="2.13906">
        <ele>446.4</ele>
        <time>2022-09-20T13:39:02.000Z</time>
      </trkpt>
      <trkpt lat="44.2042" lon="2.13906">
        <ele>446.1</ele>
        <time>2022-09-20T13:39:06.000Z</time>
      </trkpt>
      <trkpt lat="44.2042" lon="2.13906">
        <ele>445.8</ele>
        <time>2022-09-20T13:39:07.000Z</time>
      </trkpt>
      <trkpt lat="44.2042" lon="2.13906">
        <ele>445.6</ele>
        <time>2022-09-20T13:39:08.000Z</time>
      </trkpt>
      <trkpt lat="44.20421" lon="2.13905">
        <ele>445.1</ele>
        <time>2022-09-20T13:39:11.000Z</time>
      </trkpt>
      <trkpt lat="44.20421" lon="2.13905">
        <ele>445.1</ele>
        <time>2022-09-20T13:39:30.000Z</time>
      </trkpt>
      <trkpt lat="44.20421" lon="2.13905">
        <ele>445.1</ele>
        <time>2022-09-20T13:39:31.000Z</time>
      </trkpt>
      <trkpt lat="44.20421" lon="2.13905">
        <ele>444.9</ele>
        <time>2022-09-20T13:39:53.000Z</time>
      </trkpt>
      <trkpt lat="44.20421" lon="2.13906">
        <ele>444.9</ele>
        <time>2022-09-20T13:39:54.000Z</time>
      </trkpt>
      <trkpt lat="44.20421" lon="2.13906">
        <ele>445</ele>
        <time>2022-09-20T13:39:55.000Z</time>
      </trkpt>
      <trkpt lat="44.20421" lon="2.13906">
        <ele>445</ele>
        <time>2022-09-20T13:39:56.000Z</time>
      </trkpt>
      <trkpt lat="44.20421" lon="2.13906">
        <ele>445.1</ele>
        <time>2022-09-20T13:40:02.000Z</time>
      </trkpt>
      <trkpt lat="44.20421" lon="2.13905">
        <ele>445.1</ele>
        <time>2022-09-20T13:40:04.000Z</time>
      </trkpt>
      <trkpt lat="44.2042" lon="2.13905">
        <ele>445</ele>
        <time>2022-09-20T13:40:06.000Z</time>
      </trkpt>
      <trkpt lat="44.2042" lon="2.13905">
        <ele>445</ele>
        <time>2022-09-20T13:40:07.000Z</time>
      </trkpt>
      <trkpt lat="44.20421" lon="2.13905">
        <ele>445</ele>
        <time>2022-09-20T13:40:17.000Z</time>
      </trkpt>
      <trkpt lat="44.2042" lon="2.13905">
        <ele>445</ele>
        <time>2022-09-20T13:40:19.000Z</time>
      </trkpt>
      <trkpt lat="44.20421" lon="2.13905">
        <ele>445</ele>
        <time>2022-09-20T13:40:25.000Z</time>
      </trkpt>
      <trkpt lat="44.2042" lon="2.13905">
        <ele>444.9</ele>
        <time>2022-09-20T13:40:27.000Z</time>
      </trkpt>
      <trkpt lat="44.2042" lon="2.13905">
        <ele>444.9</ele>
        <time>2022-09-20T13:40:29.000Z</time>
      </trkpt>
      <trkpt lat="44.2042" lon="2.13905">
        <ele>444.9</ele>
        <time>2022-09-20T13:40:30.000Z</time>
      </trkpt>
      <trkpt lat="44.2042" lon="2.13905">
        <ele>444.9</ele>
        <time>2022-09-20T13:40:32.000Z</time>
      </trkpt>
      <trkpt lat="44.2042" lon="2.13905">
        <ele>444.9</ele>
        <time>2022-09-20T13:40:33.000Z</time>
      </trkpt>
      <trkpt lat="44.2042" lon="2.13904">
        <ele>444.7</ele>
        <time>2022-09-20T13:40:54.000Z</time>
      </trkpt>
      <trkpt lat="44.20421" lon="2.13904">
        <ele>444.3</ele>
        <time>2022-09-20T13:40:56.000Z</time>
      </trkpt>
      <trkpt lat="44.20421" lon="2.13904">
        <ele>444.8</ele>
        <time>2022-09-20T13:41:36.000Z</time>
      </trkpt>
      <trkpt lat="44.20421" lon="2.13904">
        <ele>444.9</ele>
        <time>2022-09-20T13:41:37.000Z</time>
      </trkpt>
      <trkpt lat="44.20421" lon="2.13904">
        <ele>444.9</ele>
        <time>2022-09-20T13:41:39.000Z</time>
      </trkpt>
      <trkpt lat="44.20421" lon="2.13904">
        <ele>444.9</ele>
        <time>2022-09-20T13:41:40.000Z</time>
      </trkpt>
      <trkpt lat="44.20421" lon="2.13904">
        <ele>444.9</ele>
        <time>2022-09-20T13:41:41.000Z</time>
      </trkpt>
      <trkpt lat="44.20421" lon="2.13904">
        <ele>444.9</ele>
        <time>2022-09-20T13:41:42.000Z</time>
      </trkpt>
      <trkpt lat="44.20421" lon="2.13904">
        <ele>445</ele>
        <time>2022-09-20T13:41:48.000Z</time>
      </trkpt>
      <trkpt lat="44.20422" lon="2.13904">
        <ele>444.9</ele>
        <time>2022-09-20T13:41:51.000Z</time>
      </trkpt>
      <trkpt lat="44.20422" lon="2.13904">
        <ele>445</ele>
        <time>2022-09-20T13:42:26.000Z</time>
      </trkpt>
      <trkpt lat="44.20422" lon="2.13904">
        <ele>445.1</ele>
        <time>2022-09-20T13:42:28.000Z</time>
      </trkpt>
      <trkpt lat="44.20422" lon="2.13904">
        <ele>445.1</ele>
        <time>2022-09-20T13:42:50.000Z</time>
      </trkpt>
      <trkpt lat="44.20422" lon="2.13904">
        <ele>445.1</ele>
        <time>2022-09-20T13:42:51.000Z</time>
      </trkpt>
      <trkpt lat="44.20422" lon="2.13904">
        <ele>445.2</ele>
        <time>2022-09-20T13:43:16.000Z</time>
      </trkpt>
      <trkpt lat="44.20422" lon="2.13904">
        <ele>444.9</ele>
        <time>2022-09-20T13:43:19.000Z</time>
      </trkpt>
      <trkpt lat="44.20422" lon="2.13903">
        <ele>444.7</ele>
        <time>2022-09-20T13:43:21.000Z</time>
      </trkpt>
      <trkpt lat="44.20421" lon="2.13903">
        <ele>444.5</ele>
        <time>2022-09-20T13:43:23.000Z</time>
      </trkpt>
      <trkpt lat="44.20421" lon="2.13903">
        <ele>444.4</ele>
        <time>2022-09-20T13:43:26.000Z</time>
      </trkpt>
      <trkpt lat="44.2042" lon="2.13901">
        <ele>443.2</ele>
        <time>2022-09-20T13:43:32.000Z</time>
      </trkpt>
      <trkpt lat="44.20419" lon="2.13901">
        <ele>442.8</ele>
        <time>2022-09-20T13:43:34.000Z</time>
      </trkpt>
      <trkpt lat="44.20419" lon="2.13901">
        <ele>442.8</ele>
        <time>2022-09-20T13:43:35.000Z</time>
      </trkpt>
      <trkpt lat="44.20419" lon="2.13901">
        <ele>442.7</ele>
        <time>2022-09-20T13:43:36.000Z</time>
      </trkpt>
      <trkpt lat="44.20419" lon="2.13901">
        <ele>442.7</ele>
        <time>2022-09-20T13:43:37.000Z</time>
      </trkpt>
      <trkpt lat="44.20419" lon="2.13901">
        <ele>442.7</ele>
        <time>2022-09-20T13:43:38.000Z</time>
      </trkpt>
      <trkpt lat="44.20419" lon="2.13902">
        <ele>442.6</ele>
        <time>2022-09-20T13:43:39.000Z</time>
      </trkpt>
      <trkpt lat="44.20419" lon="2.13902">
        <ele>442.4</ele>
        <time>2022-09-20T13:43:56.000Z</time>
      </trkpt>
      <trkpt lat="44.20419" lon="2.13902">
        <ele>442.4</ele>
        <time>2022-09-20T13:43:57.000Z</time>
      </trkpt>
      <trkpt lat="44.20419" lon="2.13902">
        <ele>442.4</ele>
        <time>2022-09-20T13:43:59.000Z</time>
      </trkpt>
      <trkpt lat="44.20419" lon="2.13902">
        <ele>442.4</ele>
        <time>2022-09-20T13:44:00.000Z</time>
      </trkpt>
      <trkpt lat="44.20419" lon="2.13902">
        <ele>442.5</ele>
        <time>2022-09-20T13:44:03.000Z</time>
      </trkpt>
      <trkpt lat="44.20419" lon="2.13901">
        <ele>442.6</ele>
        <time>2022-09-20T13:44:06.000Z</time>
      </trkpt>
      <trkpt lat="44.20418" lon="2.13901">
        <ele>442.6</ele>
        <time>2022-09-20T13:44:09.000Z</time>
      </trkpt>
      <trkpt lat="44.20418" lon="2.13901">
        <ele>442.9</ele>
        <time>2022-09-20T13:44:11.000Z</time>
      </trkpt>
      <trkpt lat="44.20418" lon="2.13902">
        <ele>443</ele>
        <time>2022-09-20T13:44:18.000Z</time>
      </trkpt>
      <trkpt lat="44.20422" lon="2.13914">
        <ele>443.8</ele>
        <time>2022-09-20T13:44:28.000Z</time>
      </trkpt>
      <trkpt lat="44.20423" lon="2.13927">
        <ele>444.7</ele>
        <time>2022-09-20T13:44:39.000Z</time>
      </trkpt>
      <trkpt lat="44.20427" lon="2.13939">
        <ele>445.8</ele>
        <time>2022-09-20T13:44:51.000Z</time>
      </trkpt>
      <trkpt lat="44.20426" lon="2.13951">
        <ele>445.9</ele>
        <time>2022-09-20T13:45:00.000Z</time>
      </trkpt>
      <trkpt lat="44.20423" lon="2.13965">
        <ele>446</ele>
        <time>2022-09-20T13:45:11.000Z</time>
      </trkpt>
      <trkpt lat="44.20421" lon="2.1397">
        <ele>446.4</ele>
        <time>2022-09-20T13:45:18.000Z</time>
      </trkpt>
      <trkpt lat="44.20421" lon="2.1397">
        <ele>446.5</ele>
        <time>2022-09-20T13:45:19.000Z</time>
      </trkpt>
      <trkpt lat="44.20419" lon="2.13982">
        <ele>446.9</ele>
        <time>2022-09-20T13:45:30.000Z</time>
      </trkpt>
      <trkpt lat="44.20415" lon="2.13993">
        <ele>447.3</ele>
        <time>2022-09-20T13:45:39.000Z</time>
      </trkpt>
      <trkpt lat="44.20406" lon="2.14">
        <ele>447</ele>
        <time>2022-09-20T13:45:55.000Z</time>
      </trkpt>
      <trkpt lat="44.20398" lon="2.14005">
        <ele>447.4</ele>
        <time>2022-09-20T13:46:08.000Z</time>
      </trkpt>
      <trkpt lat="44.20399" lon="2.14017">
        <ele>446.2</ele>
        <time>2022-09-20T13:46:21.000Z</time>
      </trkpt>
      <trkpt lat="44.20407" lon="2.14023">
        <ele>446.8</ele>
        <time>2022-09-20T13:46:34.000Z</time>
      </trkpt>
      <trkpt lat="44.20416" lon="2.1403">
        <ele>448.2</ele>
        <time>2022-09-20T13:46:48.000Z</time>
      </trkpt>
      <trkpt lat="44.20421" lon="2.14042">
        <ele>448.4</ele>
        <time>2022-09-20T13:47:01.000Z</time>
      </trkpt>
      <trkpt lat="44.20427" lon="2.14051">
        <ele>448.1</ele>
        <time>2022-09-20T13:47:13.000Z</time>
      </trkpt>
      <trkpt lat="44.20432" lon="2.14063">
        <ele>448.9</ele>
        <time>2022-09-20T13:47:26.000Z</time>
      </trkpt>
      <trkpt lat="44.20437" lon="2.14075">
        <ele>451.2</ele>
        <time>2022-09-20T13:47:40.000Z</time>
      </trkpt>
      <trkpt lat="44.20437" lon="2.14079">
        <ele>452.5</ele>
        <time>2022-09-20T13:47:45.000Z</time>
      </trkpt>
      <trkpt lat="44.20437" lon="2.14079">
        <ele>452.5</ele>
        <time>2022-09-20T13:47:50.000Z</time>
      </trkpt>
      <trkpt lat="44.20436" lon="2.14079">
        <ele>452.7</ele>
        <time>2022-09-20T13:47:52.000Z</time>
      </trkpt>
      <trkpt lat="44.20436" lon="2.14079">
        <ele>452.7</ele>
        <time>2022-09-20T13:48:00.000Z</time>
      </trkpt>
      <trkpt lat="44.20435" lon="2.14078">
        <ele>452.5</ele>
        <time>2022-09-20T13:48:03.000Z</time>
      </trkpt>
      <trkpt lat="44.20435" lon="2.14078">
        <ele>452.5</ele>
        <time>2022-09-20T13:48:10.000Z</time>
      </trkpt>
      <trkpt lat="44.20435" lon="2.14078">
        <ele>452.5</ele>
        <time>2022-09-20T13:48:11.000Z</time>
      </trkpt>
      <trkpt lat="44.20434" lon="2.14078">
        <ele>452.5</ele>
        <time>2022-09-20T13:48:16.000Z</time>
      </trkpt>
      <trkpt lat="44.20434" lon="2.14078">
        <ele>452.5</ele>
        <time>2022-09-20T13:48:17.000Z</time>
      </trkpt>
      <trkpt lat="44.20434" lon="2.14078">
        <ele>452.5</ele>
        <time>2022-09-20T13:48:21.000Z</time>
      </trkpt>
      <trkpt lat="44.20434" lon="2.14078">
        <ele>452.5</ele>
        <time>2022-09-20T13:48:22.000Z</time>
      </trkpt>
      <trkpt lat="44.20434" lon="2.14078">
        <ele>452.6</ele>
        <time>2022-09-20T13:48:26.000Z</time>
      </trkpt>
      <trkpt lat="44.20433" lon="2.14078">
        <ele>452.9</ele>
        <time>2022-09-20T13:48:32.000Z</time>
      </trkpt>
      <trkpt lat="44.20432" lon="2.14078">
        <ele>453</ele>
        <time>2022-09-20T13:48:42.000Z</time>
      </trkpt>
      <trkpt lat="44.20432" lon="2.14078">
        <ele>453</ele>
        <time>2022-09-20T13:48:43.000Z</time>
      </trkpt>
      <trkpt lat="44.20432" lon="2.14078">
        <ele>453.2</ele>
        <time>2022-09-20T13:49:11.000Z</time>
      </trkpt>
      <trkpt lat="44.20432" lon="2.14078">
        <ele>453.2</ele>
        <time>2022-09-20T13:49:12.000Z</time>
      </trkpt>
      <trkpt lat="44.20432" lon="2.14078">
        <ele>453.6</ele>
        <time>2022-09-20T13:49:14.000Z</time>
      </trkpt>
      <trkpt lat="44.20432" lon="2.14078">
        <ele>454.1</ele>
        <time>2022-09-20T13:49:16.000Z</time>
      </trkpt>
      <trkpt lat="44.20432" lon="2.14078">
        <ele>454.2</ele>
        <time>2022-09-20T13:49:19.000Z</time>
      </trkpt>
      <trkpt lat="44.20432" lon="2.14077">
        <ele>454.3</ele>
        <time>2022-09-20T13:49:20.000Z</time>
      </trkpt>
      <trkpt lat="44.20432" lon="2.14077">
        <ele>454.4</ele>
        <time>2022-09-20T13:50:19.000Z</time>
      </trkpt>
      <trkpt lat="44.20432" lon="2.14077">
        <ele>454.4</ele>
        <time>2022-09-20T13:50:20.000Z</time>
      </trkpt>
      <trkpt lat="44.20432" lon="2.14077">
        <ele>454.5</ele>
        <time>2022-09-20T13:50:25.000Z</time>
      </trkpt>
      <trkpt lat="44.20432" lon="2.14077">
        <ele>454.5</ele>
        <time>2022-09-20T13:50:26.000Z</time>
      </trkpt>
      <trkpt lat="44.20432" lon="2.14077">
        <ele>454.5</ele>
        <time>2022-09-20T13:50:51.000Z</time>
      </trkpt>
      <trkpt lat="44.20432" lon="2.14077">
        <ele>454.5</ele>
        <time>2022-09-20T13:50:52.000Z</time>
      </trkpt>
      <trkpt lat="44.20432" lon="2.14077">
        <ele>454.5</ele>
        <time>2022-09-20T13:51:12.000Z</time>
      </trkpt>
      <trkpt lat="44.20432" lon="2.14077">
        <ele>454.4</ele>
        <time>2022-09-20T13:51:13.000Z</time>
      </trkpt>
      <trkpt lat="44.20432" lon="2.14077">
        <ele>454.4</ele>
        <time>2022-09-20T13:51:14.000Z</time>
      </trkpt>
      <trkpt lat="44.20431" lon="2.14073">
        <ele>454.9</ele>
        <time>2022-09-20T13:51:20.000Z</time>
      </trkpt>
      <trkpt lat="44.20431" lon="2.14072">
        <ele>455</ele>
        <time>2022-09-20T13:51:24.000Z</time>
      </trkpt>
      <trkpt lat="44.20431" lon="2.14072">
        <ele>455.6</ele>
        <time>2022-09-20T13:51:27.000Z</time>
      </trkpt>
      <trkpt lat="44.20432" lon="2.14072">
        <ele>455.6</ele>
        <time>2022-09-20T13:51:30.000Z</time>
      </trkpt>
      <trkpt lat="44.20432" lon="2.14072">
        <ele>455.6</ele>
        <time>2022-09-20T13:51:31.000Z</time>
      </trkpt>
      <trkpt lat="44.20432" lon="2.14072">
        <ele>455.7</ele>
        <time>2022-09-20T13:51:44.000Z</time>
      </trkpt>
      <trkpt lat="44.20432" lon="2.14072">
        <ele>455.8</ele>
        <time>2022-09-20T13:51:45.000Z</time>
      </trkpt>
      <trkpt lat="44.20432" lon="2.14072">
        <ele>455.9</ele>
        <time>2022-09-20T13:52:39.000Z</time>
      </trkpt>
      <trkpt lat="44.20436" lon="2.14083">
        <ele>457.5</ele>
        <time>2022-09-20T13:52:54.000Z</time>
      </trkpt>
      <trkpt lat="44.20441" lon="2.14095">
        <ele>458.5</ele>
        <time>2022-09-20T13:53:05.000Z</time>
      </trkpt>
      <trkpt lat="44.20444" lon="2.14109">
        <ele>459.4</ele>
        <time>2022-09-20T13:53:16.000Z</time>
      </trkpt>
      <trkpt lat="44.20448" lon="2.14121">
        <ele>460.4</ele>
        <time>2022-09-20T13:53:28.000Z</time>
      </trkpt>
      <trkpt lat="44.20452" lon="2.14109">
        <ele>459.9</ele>
        <time>2022-09-20T13:53:48.000Z</time>
      </trkpt>
      <trkpt lat="44.20451" lon="2.14096">
        <ele>461.7</ele>
        <time>2022-09-20T13:53:59.000Z</time>
      </trkpt>
      <trkpt lat="44.2045" lon="2.14082">
        <ele>464.4</ele>
        <time>2022-09-20T13:54:14.000Z</time>
      </trkpt>
      <trkpt lat="44.20453" lon="2.14071">
        <ele>466.7</ele>
        <time>2022-09-20T13:54:27.000Z</time>
      </trkpt>
      <trkpt lat="44.20454" lon="2.14058">
        <ele>467.5</ele>
        <time>2022-09-20T13:54:40.000Z</time>
      </trkpt>
      <trkpt lat="44.20454" lon="2.14045">
        <ele>469.1</ele>
        <time>2022-09-20T13:54:52.000Z</time>
      </trkpt>
      <trkpt lat="44.2046" lon="2.14055">
        <ele>468.9</ele>
        <time>2022-09-20T13:55:10.000Z</time>
      </trkpt>
      <trkpt lat="44.20464" lon="2.14067">
        <ele>469.1</ele>
        <time>2022-09-20T13:55:22.000Z</time>
      </trkpt>
      <trkpt lat="44.20467" lon="2.14079">
        <ele>470.3</ele>
        <time>2022-09-20T13:55:35.000Z</time>
      </trkpt>
      <trkpt lat="44.2047" lon="2.14092">
        <ele>471.3</ele>
        <time>2022-09-20T13:55:44.000Z</time>
      </trkpt>
      <trkpt lat="44.20473" lon="2.14105">
        <ele>471.9</ele>
        <time>2022-09-20T13:55:58.000Z</time>
      </trkpt>
      <trkpt lat="44.20478" lon="2.14116">
        <ele>473.2</ele>
        <time>2022-09-20T13:56:11.000Z</time>
      </trkpt>
      <trkpt lat="44.20478" lon="2.1412">
        <ele>475.9</ele>
        <time>2022-09-20T13:56:20.000Z</time>
      </trkpt>
      <trkpt lat="44.20478" lon="2.1412">
        <ele>476.2</ele>
        <time>2022-09-20T13:56:22.000Z</time>
      </trkpt>
      <trkpt lat="44.20482" lon="2.14132">
        <ele>478.5</ele>
        <time>2022-09-20T13:56:38.000Z</time>
      </trkpt>
      <trkpt lat="44.20482" lon="2.14145">
        <ele>481.9</ele>
        <time>2022-09-20T13:56:49.000Z</time>
      </trkpt>
      <trkpt lat="44.20482" lon="2.14156">
        <ele>484.9</ele>
        <time>2022-09-20T13:57:01.000Z</time>
      </trkpt>
      <trkpt lat="44.20481" lon="2.14156">
        <ele>485.1</ele>
        <time>2022-09-20T13:57:03.000Z</time>
      </trkpt>
      <trkpt lat="44.20481" lon="2.14156">
        <ele>485.2</ele>
        <time>2022-09-20T13:57:04.000Z</time>
      </trkpt>
      <trkpt lat="44.20482" lon="2.14155">
        <ele>485.6</ele>
        <time>2022-09-20T13:57:24.000Z</time>
      </trkpt>
      <trkpt lat="44.20482" lon="2.14155">
        <ele>485.7</ele>
        <time>2022-09-20T13:57:25.000Z</time>
      </trkpt>
      <trkpt lat="44.20482" lon="2.14155">
        <ele>486.8</ele>
        <time>2022-09-20T13:57:47.000Z</time>
      </trkpt>
      <trkpt lat="44.20482" lon="2.14154">
        <ele>486.9</ele>
        <time>2022-09-20T13:57:49.000Z</time>
      </trkpt>
      <trkpt lat="44.20482" lon="2.14154">
        <ele>487</ele>
        <time>2022-09-20T13:57:56.000Z</time>
      </trkpt>
      <trkpt lat="44.20482" lon="2.14154">
        <ele>487</ele>
        <time>2022-09-20T13:57:57.000Z</time>
      </trkpt>
      <trkpt lat="44.20481" lon="2.14154">
        <ele>487.2</ele>
        <time>2022-09-20T13:58:11.000Z</time>
      </trkpt>
      <trkpt lat="44.20481" lon="2.14154">
        <ele>487.2</ele>
        <time>2022-09-20T13:58:12.000Z</time>
      </trkpt>
      <trkpt lat="44.20482" lon="2.14154">
        <ele>487.2</ele>
        <time>2022-09-20T13:58:22.000Z</time>
      </trkpt>
      <trkpt lat="44.20482" lon="2.14154">
        <ele>487.2</ele>
        <time>2022-09-20T13:58:23.000Z</time>
      </trkpt>
      <trkpt lat="44.20481" lon="2.14154">
        <ele>487.3</ele>
        <time>2022-09-20T13:58:26.000Z</time>
      </trkpt>
      <trkpt lat="44.20481" lon="2.14154">
        <ele>487.6</ele>
        <time>2022-09-20T13:58:28.000Z</time>
      </trkpt>
      <trkpt lat="44.20481" lon="2.14153">
        <ele>487.8</ele>
        <time>2022-09-20T13:59:09.000Z</time>
      </trkpt>
      <trkpt lat="44.20481" lon="2.14153">
        <ele>487.9</ele>
        <time>2022-09-20T13:59:10.000Z</time>
      </trkpt>
      <trkpt lat="44.20481" lon="2.14153">
        <ele>488.2</ele>
        <time>2022-09-20T13:59:24.000Z</time>
      </trkpt>
      <trkpt lat="44.20481" lon="2.14152">
        <ele>488.5</ele>
        <time>2022-09-20T13:59:26.000Z</time>
      </trkpt>
      <trkpt lat="44.20481" lon="2.14152">
        <ele>488.9</ele>
        <time>2022-09-20T13:59:58.000Z</time>
      </trkpt>
      <trkpt lat="44.20481" lon="2.14152">
        <ele>488.9</ele>
        <time>2022-09-20T13:59:59.000Z</time>
      </trkpt>
      <trkpt lat="44.20481" lon="2.14151">
        <ele>489</ele>
        <time>2022-09-20T14:00:29.000Z</time>
      </trkpt>
      <trkpt lat="44.20481" lon="2.14151">
        <ele>489</ele>
        <time>2022-09-20T14:00:30.000Z</time>
      </trkpt>
      <trkpt lat="44.20481" lon="2.14151">
        <ele>489.2</ele>
        <time>2022-09-20T14:00:37.000Z</time>
      </trkpt>
      <trkpt lat="44.20481" lon="2.14151">
        <ele>489.2</ele>
        <time>2022-09-20T14:00:38.000Z</time>
      </trkpt>
      <trkpt lat="44.20481" lon="2.14151">
        <ele>489.5</ele>
        <time>2022-09-20T14:00:49.000Z</time>
      </trkpt>
      <trkpt lat="44.20481" lon="2.14151">
        <ele>489.5</ele>
        <time>2022-09-20T14:00:50.000Z</time>
      </trkpt>
      <trkpt lat="44.20481" lon="2.1415">
        <ele>489.4</ele>
        <time>2022-09-20T14:00:51.000Z</time>
      </trkpt>
      <trkpt lat="44.20481" lon="2.1415">
        <ele>489.4</ele>
        <time>2022-09-20T14:00:52.000Z</time>
      </trkpt>
      <trkpt lat="44.20481" lon="2.1415">
        <ele>489.3</ele>
        <time>2022-09-20T14:01:09.000Z</time>
      </trkpt>
      <trkpt lat="44.20481" lon="2.1415">
        <ele>489.3</ele>
        <time>2022-09-20T14:01:10.000Z</time>
      </trkpt>
      <trkpt lat="44.2048" lon="2.1415">
        <ele>489.7</ele>
        <time>2022-09-20T14:01:17.000Z</time>
      </trkpt>
      <trkpt lat="44.2048" lon="2.1415">
        <ele>489.8</ele>
        <time>2022-09-20T14:01:18.000Z</time>
      </trkpt>
      <trkpt lat="44.20481" lon="2.1415">
        <ele>490.2</ele>
        <time>2022-09-20T14:01:52.000Z</time>
      </trkpt>
      <trkpt lat="44.20481" lon="2.1415">
        <ele>490.2</ele>
        <time>2022-09-20T14:01:53.000Z</time>
      </trkpt>
      <trkpt lat="44.20481" lon="2.1415">
        <ele>490.2</ele>
        <time>2022-09-20T14:01:54.000Z</time>
      </trkpt>
      <trkpt lat="44.20481" lon="2.1415">
        <ele>490.2</ele>
        <time>2022-09-20T14:01:55.000Z</time>
      </trkpt>
      <trkpt lat="44.20481" lon="2.1415">
        <ele>490.2</ele>
        <time>2022-09-20T14:02:07.000Z</time>
      </trkpt>
      <trkpt lat="44.20481" lon="2.1415">
        <ele>490.1</ele>
        <time>2022-09-20T14:02:08.000Z</time>
      </trkpt>
      <trkpt lat="44.2048" lon="2.1415">
        <ele>490</ele>
        <time>2022-09-20T14:02:09.000Z</time>
      </trkpt>
      <trkpt lat="44.20483" lon="2.14163">
        <ele>490</ele>
        <time>2022-09-20T14:02:24.000Z</time>
      </trkpt>
      <trkpt lat="44.20483" lon="2.14176">
        <ele>490.8</ele>
        <time>2022-09-20T14:02:34.000Z</time>
      </trkpt>
      <trkpt lat="44.20478" lon="2.14186">
        <ele>492.3</ele>
        <time>2022-09-20T14:02:44.000Z</time>
      </trkpt>
      <trkpt lat="44.2047" lon="2.14193">
        <ele>494.5</ele>
        <time>2022-09-20T14:02:55.000Z</time>
      </trkpt>
      <trkpt lat="44.20467" lon="2.14199">
        <ele>496.6</ele>
        <time>2022-09-20T14:03:03.000Z</time>
      </trkpt>
      <trkpt lat="44.20467" lon="2.14199">
        <ele>496.7</ele>
        <time>2022-09-20T14:03:04.000Z</time>
      </trkpt>
      <trkpt lat="44.20476" lon="2.14202">
        <ele>497.7</ele>
        <time>2022-09-20T14:03:17.000Z</time>
      </trkpt>
      <trkpt lat="44.20484" lon="2.14196">
        <ele>497.7</ele>
        <time>2022-09-20T14:03:25.000Z</time>
      </trkpt>
      <trkpt lat="44.20492" lon="2.1419">
        <ele>497</ele>
        <time>2022-09-20T14:03:34.000Z</time>
      </trkpt>
      <trkpt lat="44.20498" lon="2.14179">
        <ele>497.4</ele>
        <time>2022-09-20T14:03:43.000Z</time>
      </trkpt>
      <trkpt lat="44.20501" lon="2.14166">
        <ele>498.3</ele>
        <time>2022-09-20T14:03:52.000Z</time>
      </trkpt>
      <trkpt lat="44.20503" lon="2.14153">
        <ele>498.5</ele>
        <time>2022-09-20T14:04:04.000Z</time>
      </trkpt>
      <trkpt lat="44.20504" lon="2.1414">
        <ele>499.6</ele>
        <time>2022-09-20T14:04:12.000Z</time>
      </trkpt>
      <trkpt lat="44.20502" lon="2.14127">
        <ele>501.1</ele>
        <time>2022-09-20T14:04:20.000Z</time>
      </trkpt>
      <trkpt lat="44.20501" lon="2.14118">
        <ele>503.3</ele>
        <time>2022-09-20T14:04:31.000Z</time>
      </trkpt>
      <trkpt lat="44.20501" lon="2.14117">
        <ele>503.4</ele>
        <time>2022-09-20T14:04:32.000Z</time>
      </trkpt>
      <trkpt lat="44.20499" lon="2.14104">
        <ele>505.6</ele>
        <time>2022-09-20T14:04:42.000Z</time>
      </trkpt>
      <trkpt lat="44.20497" lon="2.1409">
        <ele>507.7</ele>
        <time>2022-09-20T14:04:54.000Z</time>
      </trkpt>
      <trkpt lat="44.20497" lon="2.1408">
        <ele>510.8</ele>
        <time>2022-09-20T14:05:04.000Z</time>
      </trkpt>
      <trkpt lat="44.20497" lon="2.1408">
        <ele>511.2</ele>
        <time>2022-09-20T14:05:18.000Z</time>
      </trkpt>
      <trkpt lat="44.20497" lon="2.1408">
        <ele>511.2</ele>
        <time>2022-09-20T14:05:19.000Z</time>
      </trkpt>
      <trkpt lat="44.20497" lon="2.1408">
        <ele>511.3</ele>
        <time>2022-09-20T14:05:24.000Z</time>
      </trkpt>
      <trkpt lat="44.20498" lon="2.14066">
        <ele>513.6</ele>
        <time>2022-09-20T14:05:40.000Z</time>
      </trkpt>
      <trkpt lat="44.20501" lon="2.14054">
        <ele>514.9</ele>
        <time>2022-09-20T14:05:54.000Z</time>
      </trkpt>
      <trkpt lat="44.20503" lon="2.14048">
        <ele>516</ele>
        <time>2022-09-20T14:06:04.000Z</time>
      </trkpt>
      <trkpt lat="44.20503" lon="2.14048">
        <ele>516.2</ele>
        <time>2022-09-20T14:06:06.000Z</time>
      </trkpt>
      <trkpt lat="44.20503" lon="2.14048">
        <ele>516.3</ele>
        <time>2022-09-20T14:06:07.000Z</time>
      </trkpt>
      <trkpt lat="44.20503" lon="2.14047">
        <ele>516.4</ele>
        <time>2022-09-20T14:06:09.000Z</time>
      </trkpt>
      <trkpt lat="44.20509" lon="2.14037">
        <ele>516.9</ele>
        <time>2022-09-20T14:06:21.000Z</time>
      </trkpt>
      <trkpt lat="44.20514" lon="2.14025">
        <ele>517.9</ele>
        <time>2022-09-20T14:06:33.000Z</time>
      </trkpt>
      <trkpt lat="44.20517" lon="2.14013">
        <ele>519.2</ele>
        <time>2022-09-20T14:06:43.000Z</time>
      </trkpt>
      <trkpt lat="44.20521" lon="2.14001">
        <ele>521.8</ele>
        <time>2022-09-20T14:06:57.000Z</time>
      </trkpt>
      <trkpt lat="44.20526" lon="2.1399">
        <ele>522.2</ele>
        <time>2022-09-20T14:07:08.000Z</time>
      </trkpt>
      <trkpt lat="44.20529" lon="2.13983">
        <ele>523</ele>
        <time>2022-09-20T14:07:15.000Z</time>
      </trkpt>
      <trkpt lat="44.20529" lon="2.13982">
        <ele>523.2</ele>
        <time>2022-09-20T14:07:17.000Z</time>
      </trkpt>
      <trkpt lat="44.20537" lon="2.13974">
        <ele>524.1</ele>
        <time>2022-09-20T14:07:28.000Z</time>
      </trkpt>
      <trkpt lat="44.20545" lon="2.13968">
        <ele>524.7</ele>
        <time>2022-09-20T14:07:36.000Z</time>
      </trkpt>
      <trkpt lat="44.20554" lon="2.13968">
        <ele>526.3</ele>
        <time>2022-09-20T14:07:47.000Z</time>
      </trkpt>
      <trkpt lat="44.2056" lon="2.13963">
        <ele>529.2</ele>
        <time>2022-09-20T14:07:56.000Z</time>
      </trkpt>
      <trkpt lat="44.20561" lon="2.13964">
        <ele>529.6</ele>
        <time>2022-09-20T14:07:57.000Z</time>
      </trkpt>
      <trkpt lat="44.20561" lon="2.13964">
        <ele>530.5</ele>
        <time>2022-09-20T14:08:03.000Z</time>
      </trkpt>
      <trkpt lat="44.2056" lon="2.13964">
        <ele>530.7</ele>
        <time>2022-09-20T14:08:04.000Z</time>
      </trkpt>
      <trkpt lat="44.2056" lon="2.13965">
        <ele>531.4</ele>
        <time>2022-09-20T14:08:07.000Z</time>
      </trkpt>
      <trkpt lat="44.2056" lon="2.13965">
        <ele>532.5</ele>
        <time>2022-09-20T14:08:37.000Z</time>
      </trkpt>
      <trkpt lat="44.2056" lon="2.13965">
        <ele>533.5</ele>
        <time>2022-09-20T14:08:39.000Z</time>
      </trkpt>
      <trkpt lat="44.2056" lon="2.13965">
        <ele>534</ele>
        <time>2022-09-20T14:08:40.000Z</time>
      </trkpt>
      <trkpt lat="44.2056" lon="2.13965">
        <ele>535.2</ele>
        <time>2022-09-20T14:08:43.000Z</time>
      </trkpt>
      <trkpt lat="44.2056" lon="2.13965">
        <ele>535.6</ele>
        <time>2022-09-20T14:09:00.000Z</time>
      </trkpt>
      <trkpt lat="44.2056" lon="2.13965">
        <ele>535.6</ele>
        <time>2022-09-20T14:09:01.000Z</time>
      </trkpt>
      <trkpt lat="44.2056" lon="2.13965">
        <ele>535.9</ele>
        <time>2022-09-20T14:09:21.000Z</time>
      </trkpt>
      <trkpt lat="44.2056" lon="2.13965">
        <ele>536</ele>
        <time>2022-09-20T14:09:22.000Z</time>
      </trkpt>
      <trkpt lat="44.2056" lon="2.13965">
        <ele>536.3</ele>
        <time>2022-09-20T14:09:39.000Z</time>
      </trkpt>
      <trkpt lat="44.2056" lon="2.13965">
        <ele>537.3</ele>
        <time>2022-09-20T14:09:42.000Z</time>
      </trkpt>
      <trkpt lat="44.20559" lon="2.13965">
        <ele>537.5</ele>
        <time>2022-09-20T14:09:43.000Z</time>
      </trkpt>
      <trkpt lat="44.20559" lon="2.13965">
        <ele>537.6</ele>
        <time>2022-09-20T14:09:44.000Z</time>
      </trkpt>
      <trkpt lat="44.2056" lon="2.13965">
        <ele>537.6</ele>
        <time>2022-09-20T14:09:46.000Z</time>
      </trkpt>
      <trkpt lat="44.2056" lon="2.13965">
        <ele>537.9</ele>
        <time>2022-09-20T14:09:48.000Z</time>
      </trkpt>
      <trkpt lat="44.2056" lon="2.13966">
        <ele>538.2</ele>
        <time>2022-09-20T14:10:14.000Z</time>
      </trkpt>
      <trkpt lat="44.2056" lon="2.13966">
        <ele>538.2</ele>
        <time>2022-09-20T14:10:16.000Z</time>
      </trkpt>
      <trkpt lat="44.2056" lon="2.13966">
        <ele>538.2</ele>
        <time>2022-09-20T14:10:17.000Z</time>
      </trkpt>
      <trkpt lat="44.2056" lon="2.13966">
        <ele>538.2</ele>
        <time>2022-09-20T14:10:18.000Z</time>
      </trkpt>
      <trkpt lat="44.2056" lon="2.13966">
        <ele>538.4</ele>
        <time>2022-09-20T14:11:17.000Z</time>
      </trkpt>
      <trkpt lat="44.2056" lon="2.13966">
        <ele>538.4</ele>
        <time>2022-09-20T14:11:18.000Z</time>
      </trkpt>
      <trkpt lat="44.2056" lon="2.13967">
        <ele>538.5</ele>
        <time>2022-09-20T14:11:45.000Z</time>
      </trkpt>
      <trkpt lat="44.20562" lon="2.13968">
        <ele>538.7</ele>
        <time>2022-09-20T14:11:52.000Z</time>
      </trkpt>
      <trkpt lat="44.20562" lon="2.13968">
        <ele>538.8</ele>
        <time>2022-09-20T14:11:54.000Z</time>
      </trkpt>
      <trkpt lat="44.20562" lon="2.13968">
        <ele>538.8</ele>
        <time>2022-09-20T14:11:55.000Z</time>
      </trkpt>
      <trkpt lat="44.20562" lon="2.13968">
        <ele>538.6</ele>
        <time>2022-09-20T14:12:09.000Z</time>
      </trkpt>
      <trkpt lat="44.20562" lon="2.13967">
        <ele>538.6</ele>
        <time>2022-09-20T14:12:10.000Z</time>
      </trkpt>
      <trkpt lat="44.20562" lon="2.13967">
        <ele>538.9</ele>
        <time>2022-09-20T14:12:24.000Z</time>
      </trkpt>
      <trkpt lat="44.20562" lon="2.13967">
        <ele>539</ele>
        <time>2022-09-20T14:12:25.000Z</time>
      </trkpt>
      <trkpt lat="44.20562" lon="2.13967">
        <ele>539.1</ele>
        <time>2022-09-20T14:12:36.000Z</time>
      </trkpt>
      <trkpt lat="44.20562" lon="2.13967">
        <ele>539.1</ele>
        <time>2022-09-20T14:12:37.000Z</time>
      </trkpt>
      <trkpt lat="44.20562" lon="2.13967">
        <ele>539.2</ele>
        <time>2022-09-20T14:12:47.000Z</time>
      </trkpt>
      <trkpt lat="44.20562" lon="2.13963">
        <ele>539.4</ele>
        <time>2022-09-20T14:12:54.000Z</time>
      </trkpt>
      <trkpt lat="44.20562" lon="2.13962">
        <ele>539.5</ele>
        <time>2022-09-20T14:13:36.000Z</time>
      </trkpt>
      <trkpt lat="44.20562" lon="2.13964">
        <ele>539.2</ele>
        <time>2022-09-20T14:13:40.000Z</time>
      </trkpt>
      <trkpt lat="44.20562" lon="2.13964">
        <ele>539.3</ele>
        <time>2022-09-20T14:14:33.000Z</time>
      </trkpt>
      <trkpt lat="44.20562" lon="2.13964">
        <ele>539.3</ele>
        <time>2022-09-20T14:14:34.000Z</time>
      </trkpt>
      <trkpt lat="44.20562" lon="2.13964">
        <ele>539.4</ele>
        <time>2022-09-20T14:14:45.000Z</time>
      </trkpt>
      <trkpt lat="44.20563" lon="2.13964">
        <ele>539.4</ele>
        <time>2022-09-20T14:14:47.000Z</time>
      </trkpt>
      <trkpt lat="44.20563" lon="2.13963">
        <ele>539.5</ele>
        <time>2022-09-20T14:15:02.000Z</time>
      </trkpt>
      <trkpt lat="44.20563" lon="2.13963">
        <ele>539.5</ele>
        <time>2022-09-20T14:15:04.000Z</time>
      </trkpt>
      <trkpt lat="44.20563" lon="2.13963">
        <ele>539.5</ele>
        <time>2022-09-20T14:15:12.000Z</time>
      </trkpt>
      <trkpt lat="44.20562" lon="2.13963">
        <ele>539.8</ele>
        <time>2022-09-20T14:15:15.000Z</time>
      </trkpt>
      <trkpt lat="44.20562" lon="2.13963">
        <ele>539.9</ele>
        <time>2022-09-20T14:15:54.000Z</time>
      </trkpt>
      <trkpt lat="44.20562" lon="2.13963">
        <ele>539.9</ele>
        <time>2022-09-20T14:15:55.000Z</time>
      </trkpt>
      <trkpt lat="44.20562" lon="2.13963">
        <ele>539.9</ele>
        <time>2022-09-20T14:16:12.000Z</time>
      </trkpt>
      <trkpt lat="44.20562" lon="2.13963">
        <ele>539.9</ele>
        <time>2022-09-20T14:16:14.000Z</time>
      </trkpt>
      <trkpt lat="44.20562" lon="2.13963">
        <ele>540</ele>
        <time>2022-09-20T14:16:32.000Z</time>
      </trkpt>
      <trkpt lat="44.20562" lon="2.13963">
        <ele>540</ele>
        <time>2022-09-20T14:16:33.000Z</time>
      </trkpt>
      <trkpt lat="44.20562" lon="2.13963">
        <ele>540</ele>
        <time>2022-09-20T14:16:34.000Z</time>
      </trkpt>
      <trkpt lat="44.20562" lon="2.13963">
        <ele>540</ele>
        <time>2022-09-20T14:16:35.000Z</time>
      </trkpt>
      <trkpt lat="44.20562" lon="2.13963">
        <ele>540</ele>
        <time>2022-09-20T14:16:36.000Z</time>
      </trkpt>
      <trkpt lat="44.20562" lon="2.13963">
        <ele>540</ele>
        <time>2022-09-20T14:16:38.000Z</time>
      </trkpt>
      <trkpt lat="44.20562" lon="2.13963">
        <ele>540</ele>
        <time>2022-09-20T14:16:57.000Z</time>
      </trkpt>
      <trkpt lat="44.20563" lon="2.13963">
        <ele>540.3</ele>
        <time>2022-09-20T14:16:59.000Z</time>
      </trkpt>
      <trkpt lat="44.20563" lon="2.13963">
        <ele>540.4</ele>
        <time>2022-09-20T14:17:12.000Z</time>
      </trkpt>
      <trkpt lat="44.20563" lon="2.13963">
        <ele>540.4</ele>
        <time>2022-09-20T14:17:13.000Z</time>
      </trkpt>
      <trkpt lat="44.20563" lon="2.13963">
        <ele>540.6</ele>
        <time>2022-09-20T14:20:05.000Z</time>
      </trkpt>
      <trkpt lat="44.20563" lon="2.13963">
        <ele>540.6</ele>
        <time>2022-09-20T14:20:06.000Z</time>
      </trkpt>
      <trkpt lat="44.20563" lon="2.13963">
        <ele>540.6</ele>
        <time>2022-09-20T14:20:41.000Z</time>
      </trkpt>
      <trkpt lat="44.20563" lon="2.13963">
        <ele>540.6</ele>
        <time>2022-09-20T14:20:42.000Z</time>
      </trkpt>
      <trkpt lat="44.20563" lon="2.13963">
        <ele>540.7</ele>
        <time>2022-09-20T14:20:46.000Z</time>
      </trkpt>
      <trkpt lat="44.20562" lon="2.13966">
        <ele>540.6</ele>
        <time>2022-09-20T14:20:55.000Z</time>
      </trkpt>
      <trkpt lat="44.20562" lon="2.13967">
        <ele>540.5</ele>
        <time>2022-09-20T14:20:58.000Z</time>
      </trkpt>
      <trkpt lat="44.2056" lon="2.1398">
        <ele>540</ele>
        <time>2022-09-20T14:21:09.000Z</time>
      </trkpt>
      <trkpt lat="44.20559" lon="2.13988">
        <ele>540</ele>
        <time>2022-09-20T14:21:19.000Z</time>
      </trkpt>
      <trkpt lat="44.20559" lon="2.13988">
        <ele>540</ele>
        <time>2022-09-20T14:21:22.000Z</time>
      </trkpt>
      <trkpt lat="44.20558" lon="2.14002">
        <ele>540.2</ele>
        <time>2022-09-20T14:21:33.000Z</time>
      </trkpt>
      <trkpt lat="44.20559" lon="2.14016">
        <ele>540.7</ele>
        <time>2022-09-20T14:21:41.000Z</time>
      </trkpt>
      <trkpt lat="44.20561" lon="2.14029">
        <ele>540.7</ele>
        <time>2022-09-20T14:21:50.000Z</time>
      </trkpt>
      <trkpt lat="44.20565" lon="2.14041">
        <ele>540.4</ele>
        <time>2022-09-20T14:21:58.000Z</time>
      </trkpt>
      <trkpt lat="44.20571" lon="2.14052">
        <ele>540.2</ele>
        <time>2022-09-20T14:22:06.000Z</time>
      </trkpt>
      <trkpt lat="44.20577" lon="2.14063">
        <ele>540.2</ele>
        <time>2022-09-20T14:22:15.000Z</time>
      </trkpt>
      <trkpt lat="44.20584" lon="2.14073">
        <ele>540.2</ele>
        <time>2022-09-20T14:22:24.000Z</time>
      </trkpt>
      <trkpt lat="44.20592" lon="2.14081">
        <ele>540</ele>
        <time>2022-09-20T14:22:34.000Z</time>
      </trkpt>
      <trkpt lat="44.20599" lon="2.1409">
        <ele>539.7</ele>
        <time>2022-09-20T14:22:44.000Z</time>
      </trkpt>
      <trkpt lat="44.20607" lon="2.14097">
        <ele>539.8</ele>
        <time>2022-09-20T14:22:52.000Z</time>
      </trkpt>
      <trkpt lat="44.20614" lon="2.14107">
        <ele>539.6</ele>
        <time>2022-09-20T14:23:01.000Z</time>
      </trkpt>
      <trkpt lat="44.20621" lon="2.14116">
        <ele>539.5</ele>
        <time>2022-09-20T14:23:10.000Z</time>
      </trkpt>
      <trkpt lat="44.20628" lon="2.14125">
        <ele>539.1</ele>
        <time>2022-09-20T14:23:19.000Z</time>
      </trkpt>
      <trkpt lat="44.20634" lon="2.14134">
        <ele>539.5</ele>
        <time>2022-09-20T14:23:27.000Z</time>
      </trkpt>
      <trkpt lat="44.20639" lon="2.14145">
        <ele>540.8</ele>
        <time>2022-09-20T14:23:35.000Z</time>
      </trkpt>
      <trkpt lat="44.20645" lon="2.14156">
        <ele>541.5</ele>
        <time>2022-09-20T14:23:44.000Z</time>
      </trkpt>
      <trkpt lat="44.20651" lon="2.14167">
        <ele>542.2</ele>
        <time>2022-09-20T14:23:53.000Z</time>
      </trkpt>
      <trkpt lat="44.20659" lon="2.14177">
        <ele>542.8</ele>
        <time>2022-09-20T14:24:03.000Z</time>
      </trkpt>
      <trkpt lat="44.20666" lon="2.14185">
        <ele>543.5</ele>
        <time>2022-09-20T14:24:12.000Z</time>
      </trkpt>
      <trkpt lat="44.20673" lon="2.14194">
        <ele>544.1</ele>
        <time>2022-09-20T14:24:21.000Z</time>
      </trkpt>
      <trkpt lat="44.2068" lon="2.14203">
        <ele>544.8</ele>
        <time>2022-09-20T14:24:29.000Z</time>
      </trkpt>
      <trkpt lat="44.20686" lon="2.14212">
        <ele>545.1</ele>
        <time>2022-09-20T14:24:37.000Z</time>
      </trkpt>
      <trkpt lat="44.2069" lon="2.14224">
        <ele>545.7</ele>
        <time>2022-09-20T14:24:45.000Z</time>
      </trkpt>
      <trkpt lat="44.20691" lon="2.14238">
        <ele>545.1</ele>
        <time>2022-09-20T14:24:54.000Z</time>
      </trkpt>
      <trkpt lat="44.20691" lon="2.14252">
        <ele>544.9</ele>
        <time>2022-09-20T14:25:02.000Z</time>
      </trkpt>
      <trkpt lat="44.20689" lon="2.14265">
        <ele>545.1</ele>
        <time>2022-09-20T14:25:10.000Z</time>
      </trkpt>
      <trkpt lat="44.20686" lon="2.14277">
        <ele>545.2</ele>
        <time>2022-09-20T14:25:19.000Z</time>
      </trkpt>
      <trkpt lat="44.20682" lon="2.14289">
        <ele>543.8</ele>
        <time>2022-09-20T14:25:27.000Z</time>
      </trkpt>
      <trkpt lat="44.20677" lon="2.143">
        <ele>543.3</ele>
        <time>2022-09-20T14:25:35.000Z</time>
      </trkpt>
      <trkpt lat="44.20671" lon="2.1431">
        <ele>543</ele>
        <time>2022-09-20T14:25:44.000Z</time>
      </trkpt>
      <trkpt lat="44.20664" lon="2.1432">
        <ele>542.3</ele>
        <time>2022-09-20T14:25:52.000Z</time>
      </trkpt>
      <trkpt lat="44.20658" lon="2.1433">
        <ele>542</ele>
        <time>2022-09-20T14:26:00.000Z</time>
      </trkpt>
      <trkpt lat="44.20652" lon="2.1434">
        <ele>541.8</ele>
        <time>2022-09-20T14:26:08.000Z</time>
      </trkpt>
      <trkpt lat="44.20646" lon="2.1435">
        <ele>541.4</ele>
        <time>2022-09-20T14:26:16.000Z</time>
      </trkpt>
      <trkpt lat="44.20639" lon="2.1436">
        <ele>541.1</ele>
        <time>2022-09-20T14:26:24.000Z</time>
      </trkpt>
      <trkpt lat="44.20633" lon="2.14369">
        <ele>541.1</ele>
        <time>2022-09-20T14:26:32.000Z</time>
      </trkpt>
      <trkpt lat="44.20625" lon="2.14377">
        <ele>541</ele>
        <time>2022-09-20T14:26:40.000Z</time>
      </trkpt>
      <trkpt lat="44.20618" lon="2.14385">
        <ele>540.6</ele>
        <time>2022-09-20T14:26:48.000Z</time>
      </trkpt>
      <trkpt lat="44.2061" lon="2.14392">
        <ele>540</ele>
        <time>2022-09-20T14:26:56.000Z</time>
      </trkpt>
      <trkpt lat="44.20603" lon="2.14402">
        <ele>539.6</ele>
        <time>2022-09-20T14:27:05.000Z</time>
      </trkpt>
      <trkpt lat="44.20598" lon="2.14414">
        <ele>538.9</ele>
        <time>2022-09-20T14:27:13.000Z</time>
      </trkpt>
      <trkpt lat="44.20595" lon="2.14427">
        <ele>537.6</ele>
        <time>2022-09-20T14:27:21.000Z</time>
      </trkpt>
      <trkpt lat="44.20595" lon="2.1444">
        <ele>536.3</ele>
        <time>2022-09-20T14:27:29.000Z</time>
      </trkpt>
      <trkpt lat="44.20594" lon="2.14452">
        <ele>535.4</ele>
        <time>2022-09-20T14:27:37.000Z</time>
      </trkpt>
      <trkpt lat="44.20592" lon="2.14466">
        <ele>534.4</ele>
        <time>2022-09-20T14:27:46.000Z</time>
      </trkpt>
      <trkpt lat="44.2059" lon="2.14479">
        <ele>533.2</ele>
        <time>2022-09-20T14:27:54.000Z</time>
      </trkpt>
      <trkpt lat="44.20586" lon="2.14492">
        <ele>531.8</ele>
        <time>2022-09-20T14:28:03.000Z</time>
      </trkpt>
      <trkpt lat="44.20582" lon="2.14504">
        <ele>530.9</ele>
        <time>2022-09-20T14:28:12.000Z</time>
      </trkpt>
      <trkpt lat="44.20579" lon="2.14516">
        <ele>530.4</ele>
        <time>2022-09-20T14:28:20.000Z</time>
      </trkpt>
      <trkpt lat="44.20573" lon="2.14527">
        <ele>529.7</ele>
        <time>2022-09-20T14:28:29.000Z</time>
      </trkpt>
      <trkpt lat="44.20564" lon="2.14535">
        <ele>529</ele>
        <time>2022-09-20T14:28:38.000Z</time>
      </trkpt>
      <trkpt lat="44.20556" lon="2.14541">
        <ele>528.8</ele>
        <time>2022-09-20T14:28:47.000Z</time>
      </trkpt>
      <trkpt lat="44.20553" lon="2.14543">
        <ele>528.5</ele>
        <time>2022-09-20T14:28:55.000Z</time>
      </trkpt>
      <trkpt lat="44.20553" lon="2.14544">
        <ele>528.6</ele>
        <time>2022-09-20T14:28:56.000Z</time>
      </trkpt>
      <trkpt lat="44.20544" lon="2.14552">
        <ele>527.9</ele>
        <time>2022-09-20T14:29:03.000Z</time>
      </trkpt>
      <trkpt lat="44.2054" lon="2.14552">
        <ele>527.7</ele>
        <time>2022-09-20T14:29:08.000Z</time>
      </trkpt>
      <trkpt lat="44.20539" lon="2.14552">
        <ele>527.8</ele>
        <time>2022-09-20T14:29:11.000Z</time>
      </trkpt>
      <trkpt lat="44.20531" lon="2.14546">
        <ele>529.7</ele>
        <time>2022-09-20T14:29:24.000Z</time>
      </trkpt>
      <trkpt lat="44.20524" lon="2.14539">
        <ele>529.9</ele>
        <time>2022-09-20T14:29:33.000Z</time>
      </trkpt>
      <trkpt lat="44.20515" lon="2.14536">
        <ele>529.5</ele>
        <time>2022-09-20T14:29:41.000Z</time>
      </trkpt>
      <trkpt lat="44.20506" lon="2.14533">
        <ele>528.5</ele>
        <time>2022-09-20T14:29:50.000Z</time>
      </trkpt>
      <trkpt lat="44.20497" lon="2.14527">
        <ele>527.4</ele>
        <time>2022-09-20T14:29:59.000Z</time>
      </trkpt>
      <trkpt lat="44.20488" lon="2.14523">
        <ele>527</ele>
        <time>2022-09-20T14:30:09.000Z</time>
      </trkpt>
      <trkpt lat="44.20483" lon="2.14524">
        <ele>526.5</ele>
        <time>2022-09-20T14:30:19.000Z</time>
      </trkpt>
      <trkpt lat="44.20483" lon="2.14524">
        <ele>526.2</ele>
        <time>2022-09-20T14:30:41.000Z</time>
      </trkpt>
      <trkpt lat="44.20484" lon="2.14523">
        <ele>525.7</ele>
        <time>2022-09-20T14:30:45.000Z</time>
      </trkpt>
      <trkpt lat="44.20484" lon="2.14523">
        <ele>525.7</ele>
        <time>2022-09-20T14:30:48.000Z</time>
      </trkpt>
      <trkpt lat="44.20484" lon="2.14523">
        <ele>525.7</ele>
        <time>2022-09-20T14:30:49.000Z</time>
      </trkpt>
      <trkpt lat="44.20484" lon="2.14523">
        <ele>525.5</ele>
        <time>2022-09-20T14:31:05.000Z</time>
      </trkpt>
      <trkpt lat="44.20484" lon="2.14523">
        <ele>525.4</ele>
        <time>2022-09-20T14:31:06.000Z</time>
      </trkpt>
      <trkpt lat="44.20484" lon="2.14524">
        <ele>525.4</ele>
        <time>2022-09-20T14:31:07.000Z</time>
      </trkpt>
      <trkpt lat="44.20484" lon="2.14525">
        <ele>525.3</ele>
        <time>2022-09-20T14:31:12.000Z</time>
      </trkpt>
      <trkpt lat="44.20484" lon="2.14525">
        <ele>525.2</ele>
        <time>2022-09-20T14:31:14.000Z</time>
      </trkpt>
      <trkpt lat="44.20484" lon="2.14525">
        <ele>525.2</ele>
        <time>2022-09-20T14:31:15.000Z</time>
      </trkpt>
      <trkpt lat="44.20484" lon="2.14525">
        <ele>525.1</ele>
        <time>2022-09-20T14:31:22.000Z</time>
      </trkpt>
      <trkpt lat="44.20484" lon="2.14525">
        <ele>525.1</ele>
        <time>2022-09-20T14:31:23.000Z</time>
      </trkpt>
      <trkpt lat="44.20484" lon="2.14525">
        <ele>525.1</ele>
        <time>2022-09-20T14:32:08.000Z</time>
      </trkpt>
      <trkpt lat="44.20484" lon="2.14525">
        <ele>525.1</ele>
        <time>2022-09-20T14:32:09.000Z</time>
      </trkpt>
      <trkpt lat="44.20484" lon="2.14525">
        <ele>525</ele>
        <time>2022-09-20T14:32:12.000Z</time>
      </trkpt>
      <trkpt lat="44.20478" lon="2.14522">
        <ele>523</ele>
        <time>2022-09-20T14:32:26.000Z</time>
      </trkpt>
      <trkpt lat="44.20478" lon="2.14521">
        <ele>523</ele>
        <time>2022-09-20T14:32:28.000Z</time>
      </trkpt>
      <trkpt lat="44.20478" lon="2.14521">
        <ele>523</ele>
        <time>2022-09-20T14:32:29.000Z</time>
      </trkpt>
      <trkpt lat="44.20478" lon="2.14521">
        <ele>522.9</ele>
        <time>2022-09-20T14:33:01.000Z</time>
      </trkpt>
      <trkpt lat="44.20478" lon="2.14521">
        <ele>522.9</ele>
        <time>2022-09-20T14:33:02.000Z</time>
      </trkpt>
      <trkpt lat="44.20478" lon="2.14521">
        <ele>522.8</ele>
        <time>2022-09-20T14:33:06.000Z</time>
      </trkpt>
      <trkpt lat="44.20477" lon="2.14527">
        <ele>522.1</ele>
        <time>2022-09-20T14:33:17.000Z</time>
      </trkpt>
      <trkpt lat="44.20477" lon="2.14527">
        <ele>522.1</ele>
        <time>2022-09-20T14:33:24.000Z</time>
      </trkpt>
      <trkpt lat="44.20477" lon="2.14527">
        <ele>522</ele>
        <time>2022-09-20T14:33:25.000Z</time>
      </trkpt>
      <trkpt lat="44.20477" lon="2.14527">
        <ele>521.9</ele>
        <time>2022-09-20T14:33:26.000Z</time>
      </trkpt>
      <trkpt lat="44.20477" lon="2.14527">
        <ele>521.8</ele>
        <time>2022-09-20T14:33:28.000Z</time>
      </trkpt>
      <trkpt lat="44.20477" lon="2.14526">
        <ele>521.6</ele>
        <time>2022-09-20T14:33:31.000Z</time>
      </trkpt>
      <trkpt lat="44.20477" lon="2.14525">
        <ele>521.5</ele>
        <time>2022-09-20T14:33:35.000Z</time>
      </trkpt>
      <trkpt lat="44.20477" lon="2.14525">
        <ele>521.5</ele>
        <time>2022-09-20T14:33:38.000Z</time>
      </trkpt>
      <trkpt lat="44.20477" lon="2.14525">
        <ele>521.5</ele>
        <time>2022-09-20T14:33:39.000Z</time>
      </trkpt>
      <trkpt lat="44.20478" lon="2.14524">
        <ele>521.4</ele>
        <time>2022-09-20T14:33:48.000Z</time>
      </trkpt>
      <trkpt lat="44.20478" lon="2.14524">
        <ele>521.2</ele>
        <time>2022-09-20T14:33:52.000Z</time>
      </trkpt>
      <trkpt lat="44.20479" lon="2.14524">
        <ele>521.2</ele>
        <time>2022-09-20T14:33:53.000Z</time>
      </trkpt>
      <trkpt lat="44.20488" lon="2.14523">
        <ele>520.4</ele>
        <time>2022-09-20T14:34:05.000Z</time>
      </trkpt>
      <trkpt lat="44.20497" lon="2.14527">
        <ele>521</ele>
        <time>2022-09-20T14:34:17.000Z</time>
      </trkpt>
      <trkpt lat="44.20497" lon="2.14527">
        <ele>521</ele>
        <time>2022-09-20T14:34:19.000Z</time>
      </trkpt>
      <trkpt lat="44.20498" lon="2.14527">
        <ele>520.9</ele>
        <time>2022-09-20T14:34:20.000Z</time>
      </trkpt>
      <trkpt lat="44.20506" lon="2.14534">
        <ele>521.1</ele>
        <time>2022-09-20T14:34:31.000Z</time>
      </trkpt>
      <trkpt lat="44.20515" lon="2.14538">
        <ele>521</ele>
        <time>2022-09-20T14:34:38.000Z</time>
      </trkpt>
      <trkpt lat="44.20524" lon="2.14541">
        <ele>521.9</ele>
        <time>2022-09-20T14:34:46.000Z</time>
      </trkpt>
      <trkpt lat="44.20532" lon="2.14545">
        <ele>523.1</ele>
        <time>2022-09-20T14:34:54.000Z</time>
      </trkpt>
      <trkpt lat="44.20539" lon="2.14554">
        <ele>523.9</ele>
        <time>2022-09-20T14:35:08.000Z</time>
      </trkpt>
      <trkpt lat="44.20549" lon="2.14556">
        <ele>524</ele>
        <time>2022-09-20T14:35:16.000Z</time>
      </trkpt>
      <trkpt lat="44.20557" lon="2.14562">
        <ele>524.3</ele>
        <time>2022-09-20T14:35:26.000Z</time>
      </trkpt>
      <trkpt lat="44.20566" lon="2.14566">
        <ele>525</ele>
        <time>2022-09-20T14:35:34.000Z</time>
      </trkpt>
      <trkpt lat="44.20575" lon="2.1457">
        <ele>525.4</ele>
        <time>2022-09-20T14:35:42.000Z</time>
      </trkpt>
      <trkpt lat="44.20583" lon="2.14576">
        <ele>525.2</ele>
        <time>2022-09-20T14:35:51.000Z</time>
      </trkpt>
      <trkpt lat="44.2059" lon="2.14584">
        <ele>524.7</ele>
        <time>2022-09-20T14:35:59.000Z</time>
      </trkpt>
      <trkpt lat="44.20596" lon="2.14594">
        <ele>524.4</ele>
        <time>2022-09-20T14:36:07.000Z</time>
      </trkpt>
      <trkpt lat="44.20597" lon="2.14607">
        <ele>524.4</ele>
        <time>2022-09-20T14:36:14.000Z</time>
      </trkpt>
      <trkpt lat="44.20594" lon="2.14619">
        <ele>522.8</ele>
        <time>2022-09-20T14:36:22.000Z</time>
      </trkpt>
      <trkpt lat="44.2059" lon="2.14631">
        <ele>521.2</ele>
        <time>2022-09-20T14:36:31.000Z</time>
      </trkpt>
      <trkpt lat="44.20587" lon="2.14644">
        <ele>521</ele>
        <time>2022-09-20T14:36:40.000Z</time>
      </trkpt>
      <trkpt lat="44.20586" lon="2.14657">
        <ele>522.1</ele>
        <time>2022-09-20T14:36:48.000Z</time>
      </trkpt>
      <trkpt lat="44.20584" lon="2.1467">
        <ele>521.7</ele>
        <time>2022-09-20T14:36:57.000Z</time>
      </trkpt>
      <trkpt lat="44.20586" lon="2.14682">
        <ele>521.1</ele>
        <time>2022-09-20T14:37:05.000Z</time>
      </trkpt>
      <trkpt lat="44.20593" lon="2.14693">
        <ele>520.3</ele>
        <time>2022-09-20T14:37:14.000Z</time>
      </trkpt>
      <trkpt lat="44.20597" lon="2.14706">
        <ele>519.1</ele>
        <time>2022-09-20T14:37:21.000Z</time>
      </trkpt>
      <trkpt lat="44.206" lon="2.14719">
        <ele>517.7</ele>
        <time>2022-09-20T14:37:29.000Z</time>
      </trkpt>
      <trkpt lat="44.20603" lon="2.14732">
        <ele>515.4</ele>
        <time>2022-09-20T14:37:39.000Z</time>
      </trkpt>
      <trkpt lat="44.20604" lon="2.14745">
        <ele>514.8</ele>
        <time>2022-09-20T14:37:48.000Z</time>
      </trkpt>
      <trkpt lat="44.20605" lon="2.14758">
        <ele>514.2</ele>
        <time>2022-09-20T14:37:57.000Z</time>
      </trkpt>
      <trkpt lat="44.20607" lon="2.14771">
        <ele>513.4</ele>
        <time>2022-09-20T14:38:07.000Z</time>
      </trkpt>
      <trkpt lat="44.20608" lon="2.14784">
        <ele>514</ele>
        <time>2022-09-20T14:38:16.000Z</time>
      </trkpt>
      <trkpt lat="44.20608" lon="2.14796">
        <ele>513.5</ele>
        <time>2022-09-20T14:38:25.000Z</time>
      </trkpt>
      <trkpt lat="44.20608" lon="2.14809">
        <ele>512.4</ele>
        <time>2022-09-20T14:38:36.000Z</time>
      </trkpt>
      <trkpt lat="44.20608" lon="2.14812">
        <ele>512.4</ele>
        <time>2022-09-20T14:38:43.000Z</time>
      </trkpt>
      <trkpt lat="44.20608" lon="2.14812">
        <ele>512.5</ele>
        <time>2022-09-20T14:38:45.000Z</time>
      </trkpt>
      <trkpt lat="44.20606" lon="2.14814">
        <ele>512.8</ele>
        <time>2022-09-20T14:38:54.000Z</time>
      </trkpt>
      <trkpt lat="44.20607" lon="2.14814">
        <ele>512.6</ele>
        <time>2022-09-20T14:39:02.000Z</time>
      </trkpt>
      <trkpt lat="44.20606" lon="2.14814">
        <ele>512.6</ele>
        <time>2022-09-20T14:39:04.000Z</time>
      </trkpt>
      <trkpt lat="44.20606" lon="2.14815">
        <ele>512.5</ele>
        <time>2022-09-20T14:39:07.000Z</time>
      </trkpt>
      <trkpt lat="44.20608" lon="2.14828">
        <ele>511.1</ele>
        <time>2022-09-20T14:39:20.000Z</time>
      </trkpt>
      <trkpt lat="44.2061" lon="2.14841">
        <ele>510</ele>
        <time>2022-09-20T14:39:31.000Z</time>
      </trkpt>
      <trkpt lat="44.20613" lon="2.14853">
        <ele>508.3</ele>
        <time>2022-09-20T14:39:42.000Z</time>
      </trkpt>
      <trkpt lat="44.20615" lon="2.14866">
        <ele>506.9</ele>
        <time>2022-09-20T14:39:53.000Z</time>
      </trkpt>
      <trkpt lat="44.20618" lon="2.14879">
        <ele>505.4</ele>
        <time>2022-09-20T14:40:08.000Z</time>
      </trkpt>
      <trkpt lat="44.20627" lon="2.14878">
        <ele>504.9</ele>
        <time>2022-09-20T14:40:25.000Z</time>
      </trkpt>
      <trkpt lat="44.20632" lon="2.14868">
        <ele>506.1</ele>
        <time>2022-09-20T14:40:37.000Z</time>
      </trkpt>
      <trkpt lat="44.20638" lon="2.14858">
        <ele>507.6</ele>
        <time>2022-09-20T14:40:49.000Z</time>
      </trkpt>
      <trkpt lat="44.20645" lon="2.14848">
        <ele>510</ele>
        <time>2022-09-20T14:41:02.000Z</time>
      </trkpt>
      <trkpt lat="44.20651" lon="2.14839">
        <ele>512.5</ele>
        <time>2022-09-20T14:41:14.000Z</time>
      </trkpt>
      <trkpt lat="44.20657" lon="2.14828">
        <ele>513.9</ele>
        <time>2022-09-20T14:41:25.000Z</time>
      </trkpt>
      <trkpt lat="44.20662" lon="2.14818">
        <ele>515.6</ele>
        <time>2022-09-20T14:41:39.000Z</time>
      </trkpt>
      <trkpt lat="44.20668" lon="2.14808">
        <ele>517.5</ele>
        <time>2022-09-20T14:41:50.000Z</time>
      </trkpt>
      <trkpt lat="44.20674" lon="2.14797">
        <ele>519.1</ele>
        <time>2022-09-20T14:42:02.000Z</time>
      </trkpt>
      <trkpt lat="44.2068" lon="2.14788">
        <ele>520.3</ele>
        <time>2022-09-20T14:42:12.000Z</time>
      </trkpt>
      <trkpt lat="44.20686" lon="2.14777">
        <ele>522.7</ele>
        <time>2022-09-20T14:42:25.000Z</time>
      </trkpt>
      <trkpt lat="44.20693" lon="2.14768">
        <ele>523.7</ele>
        <time>2022-09-20T14:42:35.000Z</time>
      </trkpt>
      <trkpt lat="44.20699" lon="2.14759">
        <ele>525.1</ele>
        <time>2022-09-20T14:42:45.000Z</time>
      </trkpt>
      <trkpt lat="44.20706" lon="2.14749">
        <ele>525.6</ele>
        <time>2022-09-20T14:42:58.000Z</time>
      </trkpt>
      <trkpt lat="44.2071" lon="2.14737">
        <ele>525.6</ele>
        <time>2022-09-20T14:43:10.000Z</time>
      </trkpt>
      <trkpt lat="44.20714" lon="2.14725">
        <ele>525.9</ele>
        <time>2022-09-20T14:43:21.000Z</time>
      </trkpt>
      <trkpt lat="44.20719" lon="2.14713">
        <ele>526.5</ele>
        <time>2022-09-20T14:43:31.000Z</time>
      </trkpt>
      <trkpt lat="44.20724" lon="2.14701">
        <ele>527.4</ele>
        <time>2022-09-20T14:43:42.000Z</time>
      </trkpt>
      <trkpt lat="44.20731" lon="2.14691">
        <ele>528.4</ele>
        <time>2022-09-20T14:43:52.000Z</time>
      </trkpt>
      <trkpt lat="44.20738" lon="2.14682">
        <ele>530.2</ele>
        <time>2022-09-20T14:44:02.000Z</time>
      </trkpt>
      <trkpt lat="44.20746" lon="2.14675">
        <ele>531.5</ele>
        <time>2022-09-20T14:44:12.000Z</time>
      </trkpt>
      <trkpt lat="44.20753" lon="2.14672">
        <ele>532</ele>
        <time>2022-09-20T14:44:20.000Z</time>
      </trkpt>
      <trkpt lat="44.20753" lon="2.14672">
        <ele>532</ele>
        <time>2022-09-20T14:44:20.000Z</time>
      </trkpt>
      <trkpt lat="44.20753" lon="2.14672">
        <ele>532</ele>
        <time>2022-09-20T14:44:20.000Z</time>
      </trkpt>
      <trkpt lat="44.20754" lon="2.14672">
        <ele>532</ele>
        <time>2022-09-20T14:44:21.000Z</time>
      </trkpt>
      <trkpt lat="44.20763" lon="2.14669">
        <ele>532.2</ele>
        <time>2022-09-20T14:44:30.000Z</time>
      </trkpt>
      <trkpt lat="44.20772" lon="2.14666">
        <ele>532.8</ele>
        <time>2022-09-20T14:44:40.000Z</time>
      </trkpt>
      <trkpt lat="44.20782" lon="2.14664">
        <ele>533.5</ele>
        <time>2022-09-20T14:44:49.000Z</time>
      </trkpt>
      <trkpt lat="44.20792" lon="2.14661">
        <ele>534.3</ele>
        <time>2022-09-20T14:44:58.000Z</time>
      </trkpt>
      <trkpt lat="44.20799" lon="2.14657">
        <ele>535.6</ele>
        <time>2022-09-20T14:45:11.000Z</time>
      </trkpt>
      <trkpt lat="44.208" lon="2.14657">
        <ele>535.5</ele>
        <time>2022-09-20T14:45:12.000Z</time>
      </trkpt>
      <trkpt lat="44.20806" lon="2.14647">
        <ele>534.9</ele>
        <time>2022-09-20T14:45:22.000Z</time>
      </trkpt>
      <trkpt lat="44.20812" lon="2.14637">
        <ele>535.7</ele>
        <time>2022-09-20T14:45:32.000Z</time>
      </trkpt>
      <trkpt lat="44.20818" lon="2.14627">
        <ele>536.9</ele>
        <time>2022-09-20T14:45:41.000Z</time>
      </trkpt>
      <trkpt lat="44.20824" lon="2.14617">
        <ele>537.9</ele>
        <time>2022-09-20T14:45:51.000Z</time>
      </trkpt>
      <trkpt lat="44.20831" lon="2.14606">
        <ele>539</ele>
        <time>2022-09-20T14:46:00.000Z</time>
      </trkpt>
      <trkpt lat="44.20838" lon="2.14597">
        <ele>540.6</ele>
        <time>2022-09-20T14:46:09.000Z</time>
      </trkpt>
      <trkpt lat="44.20845" lon="2.14588">
        <ele>541.8</ele>
        <time>2022-09-20T14:46:17.000Z</time>
      </trkpt>
      <trkpt lat="44.2085" lon="2.14578">
        <ele>541.9</ele>
        <time>2022-09-20T14:46:26.000Z</time>
      </trkpt>
      <trkpt lat="44.20856" lon="2.14567">
        <ele>541.7</ele>
        <time>2022-09-20T14:46:35.000Z</time>
      </trkpt>
      <trkpt lat="44.20861" lon="2.14557">
        <ele>541.8</ele>
        <time>2022-09-20T14:46:44.000Z</time>
      </trkpt>
      <trkpt lat="44.20867" lon="2.14546">
        <ele>542.4</ele>
        <time>2022-09-20T14:46:53.000Z</time>
      </trkpt>
      <trkpt lat="44.20874" lon="2.14536">
        <ele>542.8</ele>
        <time>2022-09-20T14:47:02.000Z</time>
      </trkpt>
      <trkpt lat="44.20882" lon="2.14528">
        <ele>543.3</ele>
        <time>2022-09-20T14:47:11.000Z</time>
      </trkpt>
      <trkpt lat="44.20891" lon="2.14525">
        <ele>543.2</ele>
        <time>2022-09-20T14:47:20.000Z</time>
      </trkpt>
      <trkpt lat="44.20901" lon="2.14526">
        <ele>543.6</ele>
        <time>2022-09-20T14:47:28.000Z</time>
      </trkpt>
      <trkpt lat="44.2091" lon="2.14528">
        <ele>544.5</ele>
        <time>2022-09-20T14:47:36.000Z</time>
      </trkpt>
      <trkpt lat="44.2092" lon="2.14529">
        <ele>545.3</ele>
        <time>2022-09-20T14:47:44.000Z</time>
      </trkpt>
      <trkpt lat="44.20929" lon="2.14531">
        <ele>546</ele>
        <time>2022-09-20T14:47:52.000Z</time>
      </trkpt>
      <trkpt lat="44.20939" lon="2.14533">
        <ele>546.9</ele>
        <time>2022-09-20T14:48:01.000Z</time>
      </trkpt>
      <trkpt lat="44.20949" lon="2.14534">
        <ele>547.6</ele>
        <time>2022-09-20T14:48:10.000Z</time>
      </trkpt>
      <trkpt lat="44.20958" lon="2.14535">
        <ele>548.2</ele>
        <time>2022-09-20T14:48:18.000Z</time>
      </trkpt>
      <trkpt lat="44.20968" lon="2.14536">
        <ele>548.8</ele>
        <time>2022-09-20T14:48:27.000Z</time>
      </trkpt>
      <trkpt lat="44.20977" lon="2.14537">
        <ele>549.6</ele>
        <time>2022-09-20T14:48:36.000Z</time>
      </trkpt>
      <trkpt lat="44.20986" lon="2.14537">
        <ele>551.1</ele>
        <time>2022-09-20T14:48:47.000Z</time>
      </trkpt>
      <trkpt lat="44.20996" lon="2.14541">
        <ele>551.5</ele>
        <time>2022-09-20T14:48:56.000Z</time>
      </trkpt>
      <trkpt lat="44.21005" lon="2.14544">
        <ele>552.5</ele>
        <time>2022-09-20T14:49:05.000Z</time>
      </trkpt>
      <trkpt lat="44.21015" lon="2.14545">
        <ele>553.8</ele>
        <time>2022-09-20T14:49:14.000Z</time>
      </trkpt>
      <trkpt lat="44.21024" lon="2.14543">
        <ele>555.6</ele>
        <time>2022-09-20T14:49:24.000Z</time>
      </trkpt>
      <trkpt lat="44.21033" lon="2.1454">
        <ele>556.9</ele>
        <time>2022-09-20T14:49:33.000Z</time>
      </trkpt>
      <trkpt lat="44.21043" lon="2.14538">
        <ele>558.9</ele>
        <time>2022-09-20T14:49:45.000Z</time>
      </trkpt>
      <trkpt lat="44.2105" lon="2.14531">
        <ele>558.5</ele>
        <time>2022-09-20T14:49:53.000Z</time>
      </trkpt>
      <trkpt lat="44.2106" lon="2.14533">
        <ele>558.9</ele>
        <time>2022-09-20T14:50:04.000Z</time>
      </trkpt>
      <trkpt lat="44.21069" lon="2.14538">
        <ele>559.2</ele>
        <time>2022-09-20T14:50:14.000Z</time>
      </trkpt>
      <trkpt lat="44.21076" lon="2.14545">
        <ele>559.2</ele>
        <time>2022-09-20T14:50:22.000Z</time>
      </trkpt>
      <trkpt lat="44.21084" lon="2.14554">
        <ele>559.8</ele>
        <time>2022-09-20T14:50:30.000Z</time>
      </trkpt>
      <trkpt lat="44.21091" lon="2.14562">
        <ele>560.6</ele>
        <time>2022-09-20T14:50:37.000Z</time>
      </trkpt>
      <trkpt lat="44.21098" lon="2.14571">
        <ele>561.7</ele>
        <time>2022-09-20T14:50:45.000Z</time>
      </trkpt>
      <trkpt lat="44.211" lon="2.14575">
        <ele>561.7</ele>
        <time>2022-09-20T14:50:50.000Z</time>
      </trkpt>
      <trkpt lat="44.211" lon="2.14575">
        <ele>561.5</ele>
        <time>2022-09-20T14:50:52.000Z</time>
      </trkpt>
      <trkpt lat="44.21106" lon="2.14586">
        <ele>562.2</ele>
        <time>2022-09-20T14:51:01.000Z</time>
      </trkpt>
      <trkpt lat="44.21113" lon="2.14595">
        <ele>561.7</ele>
        <time>2022-09-20T14:51:09.000Z</time>
      </trkpt>
      <trkpt lat="44.21119" lon="2.14605">
        <ele>560.9</ele>
        <time>2022-09-20T14:51:17.000Z</time>
      </trkpt>
      <trkpt lat="44.21126" lon="2.14615">
        <ele>560.4</ele>
        <time>2022-09-20T14:51:26.000Z</time>
      </trkpt>
      <trkpt lat="44.21129" lon="2.14627">
        <ele>559.7</ele>
        <time>2022-09-20T14:51:36.000Z</time>
      </trkpt>
      <trkpt lat="44.21123" lon="2.14638">
        <ele>558.4</ele>
        <time>2022-09-20T14:51:45.000Z</time>
      </trkpt>
      <trkpt lat="44.21118" lon="2.14649">
        <ele>556.3</ele>
        <time>2022-09-20T14:51:54.000Z</time>
      </trkpt>
      <trkpt lat="44.21112" lon="2.1466">
        <ele>554.6</ele>
        <time>2022-09-20T14:52:02.000Z</time>
      </trkpt>
      <trkpt lat="44.21106" lon="2.14672">
        <ele>552.8</ele>
        <time>2022-09-20T14:52:11.000Z</time>
      </trkpt>
      <trkpt lat="44.211" lon="2.14683">
        <ele>551.5</ele>
        <time>2022-09-20T14:52:20.000Z</time>
      </trkpt>
      <trkpt lat="44.21094" lon="2.14693">
        <ele>550.5</ele>
        <time>2022-09-20T14:52:28.000Z</time>
      </trkpt>
      <trkpt lat="44.21088" lon="2.14703">
        <ele>549.4</ele>
        <time>2022-09-20T14:52:37.000Z</time>
      </trkpt>
      <trkpt lat="44.21086" lon="2.14706">
        <ele>548.9</ele>
        <time>2022-09-20T14:52:42.000Z</time>
      </trkpt>
      <trkpt lat="44.21086" lon="2.14706">
        <ele>548.8</ele>
        <time>2022-09-20T14:52:44.000Z</time>
      </trkpt>
      <trkpt lat="44.21079" lon="2.14716">
        <ele>547</ele>
        <time>2022-09-20T14:52:51.000Z</time>
      </trkpt>
      <trkpt lat="44.21071" lon="2.14724">
        <ele>546.5</ele>
        <time>2022-09-20T14:52:57.000Z</time>
      </trkpt>
      <trkpt lat="44.21063" lon="2.14732">
        <ele>546.1</ele>
        <time>2022-09-20T14:53:04.000Z</time>
      </trkpt>
      <trkpt lat="44.21055" lon="2.1474">
        <ele>544.7</ele>
        <time>2022-09-20T14:53:11.000Z</time>
      </trkpt>
      <trkpt lat="44.21048" lon="2.14748">
        <ele>543.2</ele>
        <time>2022-09-20T14:53:18.000Z</time>
      </trkpt>
      <trkpt lat="44.21041" lon="2.14757">
        <ele>542.1</ele>
        <time>2022-09-20T14:53:26.000Z</time>
      </trkpt>
      <trkpt lat="44.21035" lon="2.14768">
        <ele>541.3</ele>
        <time>2022-09-20T14:53:34.000Z</time>
      </trkpt>
      <trkpt lat="44.21031" lon="2.1478">
        <ele>540.7</ele>
        <time>2022-09-20T14:53:42.000Z</time>
      </trkpt>
      <trkpt lat="44.21026" lon="2.14792">
        <ele>540.1</ele>
        <time>2022-09-20T14:53:51.000Z</time>
      </trkpt>
      <trkpt lat="44.2102" lon="2.14802">
        <ele>539.3</ele>
        <time>2022-09-20T14:53:59.000Z</time>
      </trkpt>
      <trkpt lat="44.21014" lon="2.14813">
        <ele>537.2</ele>
        <time>2022-09-20T14:54:08.000Z</time>
      </trkpt>
      <trkpt lat="44.21008" lon="2.14824">
        <ele>535.1</ele>
        <time>2022-09-20T14:54:17.000Z</time>
      </trkpt>
      <trkpt lat="44.21002" lon="2.14835">
        <ele>533</ele>
        <time>2022-09-20T14:54:26.000Z</time>
      </trkpt>
      <trkpt lat="44.20996" lon="2.14845">
        <ele>531.7</ele>
        <time>2022-09-20T14:54:34.000Z</time>
      </trkpt>
      <trkpt lat="44.2099" lon="2.14856">
        <ele>531</ele>
        <time>2022-09-20T14:54:42.000Z</time>
      </trkpt>
      <trkpt lat="44.20984" lon="2.14866">
        <ele>529.8</ele>
        <time>2022-09-20T14:54:50.000Z</time>
      </trkpt>
      <trkpt lat="44.20979" lon="2.14876">
        <ele>528.5</ele>
        <time>2022-09-20T14:54:58.000Z</time>
      </trkpt>
      <trkpt lat="44.20973" lon="2.14886">
        <ele>527.8</ele>
        <time>2022-09-20T14:55:06.000Z</time>
      </trkpt>
      <trkpt lat="44.20967" lon="2.14897">
        <ele>526.5</ele>
        <time>2022-09-20T14:55:15.000Z</time>
      </trkpt>
      <trkpt lat="44.2096" lon="2.14908">
        <ele>524.9</ele>
        <time>2022-09-20T14:55:23.000Z</time>
      </trkpt>
      <trkpt lat="44.20955" lon="2.14919">
        <ele>524.6</ele>
        <time>2022-09-20T14:55:31.000Z</time>
      </trkpt>
      <trkpt lat="44.2095" lon="2.1493">
        <ele>523.9</ele>
        <time>2022-09-20T14:55:39.000Z</time>
      </trkpt>
      <trkpt lat="44.20946" lon="2.14942">
        <ele>522.9</ele>
        <time>2022-09-20T14:55:48.000Z</time>
      </trkpt>
      <trkpt lat="44.20942" lon="2.14954">
        <ele>521.6</ele>
        <time>2022-09-20T14:55:57.000Z</time>
      </trkpt>
      <trkpt lat="44.20938" lon="2.14966">
        <ele>520.7</ele>
        <time>2022-09-20T14:56:06.000Z</time>
      </trkpt>
      <trkpt lat="44.20933" lon="2.14978">
        <ele>519.6</ele>
        <time>2022-09-20T14:56:15.000Z</time>
      </trkpt>
      <trkpt lat="44.20929" lon="2.14991">
        <ele>518.4</ele>
        <time>2022-09-20T14:56:24.000Z</time>
      </trkpt>
      <trkpt lat="44.20924" lon="2.15002">
        <ele>518</ele>
        <time>2022-09-20T14:56:32.000Z</time>
      </trkpt>
      <trkpt lat="44.2092" lon="2.15013">
        <ele>517.4</ele>
        <time>2022-09-20T14:56:40.000Z</time>
      </trkpt>
      <trkpt lat="44.20916" lon="2.15025">
        <ele>516.4</ele>
        <time>2022-09-20T14:56:49.000Z</time>
      </trkpt>
      <trkpt lat="44.20911" lon="2.15037">
        <ele>515.6</ele>
        <time>2022-09-20T14:56:58.000Z</time>
      </trkpt>
      <trkpt lat="44.20906" lon="2.15049">
        <ele>515.1</ele>
        <time>2022-09-20T14:57:07.000Z</time>
      </trkpt>
      <trkpt lat="44.20902" lon="2.1506">
        <ele>514.1</ele>
        <time>2022-09-20T14:57:16.000Z</time>
      </trkpt>
      <trkpt lat="44.20898" lon="2.15072">
        <ele>513.7</ele>
        <time>2022-09-20T14:57:24.000Z</time>
      </trkpt>
      <trkpt lat="44.20894" lon="2.15084">
        <ele>512.7</ele>
        <time>2022-09-20T14:57:33.000Z</time>
      </trkpt>
      <trkpt lat="44.20891" lon="2.15097">
        <ele>510.6</ele>
        <time>2022-09-20T14:57:43.000Z</time>
      </trkpt>
      <trkpt lat="44.20888" lon="2.1511">
        <ele>508.8</ele>
        <time>2022-09-20T14:57:52.000Z</time>
      </trkpt>
      <trkpt lat="44.20885" lon="2.15123">
        <ele>507.2</ele>
        <time>2022-09-20T14:58:02.000Z</time>
      </trkpt>
      <trkpt lat="44.20881" lon="2.15134">
        <ele>505.9</ele>
        <time>2022-09-20T14:58:11.000Z</time>
      </trkpt>
      <trkpt lat="44.20877" lon="2.15147">
        <ele>504.6</ele>
        <time>2022-09-20T14:58:20.000Z</time>
      </trkpt>
      <trkpt lat="44.20873" lon="2.15159">
        <ele>503.1</ele>
        <time>2022-09-20T14:58:29.000Z</time>
      </trkpt>
      <trkpt lat="44.20865" lon="2.15167">
        <ele>502.2</ele>
        <time>2022-09-20T14:58:39.000Z</time>
      </trkpt>
      <trkpt lat="44.20858" lon="2.15159">
        <ele>502.2</ele>
        <time>2022-09-20T14:58:47.000Z</time>
      </trkpt>
      <trkpt lat="44.2085" lon="2.15149">
        <ele>502.1</ele>
        <time>2022-09-20T14:58:55.000Z</time>
      </trkpt>
      <trkpt lat="44.20842" lon="2.15141">
        <ele>501.5</ele>
        <time>2022-09-20T14:59:03.000Z</time>
      </trkpt>
      <trkpt lat="44.20834" lon="2.15133">
        <ele>500.8</ele>
        <time>2022-09-20T14:59:11.000Z</time>
      </trkpt>
      <trkpt lat="44.20827" lon="2.15125">
        <ele>500.3</ele>
        <time>2022-09-20T14:59:19.000Z</time>
      </trkpt>
      <trkpt lat="44.2082" lon="2.15117">
        <ele>499.9</ele>
        <time>2022-09-20T14:59:27.000Z</time>
      </trkpt>
      <trkpt lat="44.20812" lon="2.15109">
        <ele>499.2</ele>
        <time>2022-09-20T14:59:35.000Z</time>
      </trkpt>
      <trkpt lat="44.20806" lon="2.15099">
        <ele>498.3</ele>
        <time>2022-09-20T14:59:43.000Z</time>
      </trkpt>
      <trkpt lat="44.20799" lon="2.15108">
        <ele>497</ele>
        <time>2022-09-20T14:59:54.000Z</time>
      </trkpt>
      <trkpt lat="44.20796" lon="2.15121">
        <ele>496.3</ele>
        <time>2022-09-20T15:00:03.000Z</time>
      </trkpt>
      <trkpt lat="44.20792" lon="2.15133">
        <ele>495.5</ele>
        <time>2022-09-20T15:00:12.000Z</time>
      </trkpt>
      <trkpt lat="44.20788" lon="2.15145">
        <ele>494.5</ele>
        <time>2022-09-20T15:00:21.000Z</time>
      </trkpt>
      <trkpt lat="44.20783" lon="2.15157">
        <ele>493.5</ele>
        <time>2022-09-20T15:00:30.000Z</time>
      </trkpt>
      <trkpt lat="44.20777" lon="2.15169">
        <ele>492.3</ele>
        <time>2022-09-20T15:00:39.000Z</time>
      </trkpt>
      <trkpt lat="44.20772" lon="2.15181">
        <ele>491.5</ele>
        <time>2022-09-20T15:00:48.000Z</time>
      </trkpt>
      <trkpt lat="44.20767" lon="2.15193">
        <ele>490.8</ele>
        <time>2022-09-20T15:00:57.000Z</time>
      </trkpt>
      <trkpt lat="44.20764" lon="2.15205">
        <ele>489.7</ele>
        <time>2022-09-20T15:01:06.000Z</time>
      </trkpt>
      <trkpt lat="44.20762" lon="2.15219">
        <ele>489</ele>
        <time>2022-09-20T15:01:15.000Z</time>
      </trkpt>
      <trkpt lat="44.2076" lon="2.15232">
        <ele>488.8</ele>
        <time>2022-09-20T15:01:25.000Z</time>
      </trkpt>
      <trkpt lat="44.20764" lon="2.15244">
        <ele>489.1</ele>
        <time>2022-09-20T15:01:35.000Z</time>
      </trkpt>
      <trkpt lat="44.2077" lon="2.15254">
        <ele>488</ele>
        <time>2022-09-20T15:01:46.000Z</time>
      </trkpt>
      <trkpt lat="44.20777" lon="2.15262">
        <ele>487.5</ele>
        <time>2022-09-20T15:01:54.000Z</time>
      </trkpt>
      <trkpt lat="44.20786" lon="2.15267">
        <ele>486.6</ele>
        <time>2022-09-20T15:02:05.000Z</time>
      </trkpt>
      <trkpt lat="44.20794" lon="2.15273">
        <ele>485.4</ele>
        <time>2022-09-20T15:02:15.000Z</time>
      </trkpt>
      <trkpt lat="44.20803" lon="2.15279">
        <ele>484</ele>
        <time>2022-09-20T15:02:24.000Z</time>
      </trkpt>
      <trkpt lat="44.20807" lon="2.15291">
        <ele>482.3</ele>
        <time>2022-09-20T15:02:35.000Z</time>
      </trkpt>
      <trkpt lat="44.20804" lon="2.15303">
        <ele>481.6</ele>
        <time>2022-09-20T15:02:48.000Z</time>
      </trkpt>
      <trkpt lat="44.20795" lon="2.15308">
        <ele>479.9</ele>
        <time>2022-09-20T15:03:01.000Z</time>
      </trkpt>
      <trkpt lat="44.20786" lon="2.15314">
        <ele>481.3</ele>
        <time>2022-09-20T15:03:10.000Z</time>
      </trkpt>
      <trkpt lat="44.20778" lon="2.15319">
        <ele>482.4</ele>
        <time>2022-09-20T15:03:19.000Z</time>
      </trkpt>
      <trkpt lat="44.20769" lon="2.15326">
        <ele>482.6</ele>
        <time>2022-09-20T15:03:29.000Z</time>
      </trkpt>
      <trkpt lat="44.2076" lon="2.15331">
        <ele>481.4</ele>
        <time>2022-09-20T15:03:40.000Z</time>
      </trkpt>
      <trkpt lat="44.2075" lon="2.15333">
        <ele>481.3</ele>
        <time>2022-09-20T15:03:49.000Z</time>
      </trkpt>
      <trkpt lat="44.20741" lon="2.15337">
        <ele>481.5</ele>
        <time>2022-09-20T15:03:58.000Z</time>
      </trkpt>
      <trkpt lat="44.20732" lon="2.15343">
        <ele>481.7</ele>
        <time>2022-09-20T15:04:09.000Z</time>
      </trkpt>
      <trkpt lat="44.20724" lon="2.15349">
        <ele>482.3</ele>
        <time>2022-09-20T15:04:18.000Z</time>
      </trkpt>
      <trkpt lat="44.20716" lon="2.15355">
        <ele>482.1</ele>
        <time>2022-09-20T15:04:26.000Z</time>
      </trkpt>
      <trkpt lat="44.20706" lon="2.15358">
        <ele>482.6</ele>
        <time>2022-09-20T15:04:34.000Z</time>
      </trkpt>
      <trkpt lat="44.20697" lon="2.15363">
        <ele>483.2</ele>
        <time>2022-09-20T15:04:42.000Z</time>
      </trkpt>
      <trkpt lat="44.20688" lon="2.15365">
        <ele>483.2</ele>
        <time>2022-09-20T15:04:55.000Z</time>
      </trkpt>
      <trkpt lat="44.20678" lon="2.15368">
        <ele>483.2</ele>
        <time>2022-09-20T15:05:03.000Z</time>
      </trkpt>
      <trkpt lat="44.20669" lon="2.15369">
        <ele>483.3</ele>
        <time>2022-09-20T15:05:12.000Z</time>
      </trkpt>
      <trkpt lat="44.20659" lon="2.15371">
        <ele>483</ele>
        <time>2022-09-20T15:05:24.000Z</time>
      </trkpt>
      <trkpt lat="44.20652" lon="2.15373">
        <ele>483</ele>
        <time>2022-09-20T15:05:38.000Z</time>
      </trkpt>
      <trkpt lat="44.20652" lon="2.15373">
        <ele>483</ele>
        <time>2022-09-20T15:05:39.000Z</time>
      </trkpt>
      <trkpt lat="44.20652" lon="2.15373">
        <ele>482.9</ele>
        <time>2022-09-20T15:05:40.000Z</time>
      </trkpt>
      <trkpt lat="44.20652" lon="2.15374">
        <ele>482.9</ele>
        <time>2022-09-20T15:06:00.000Z</time>
      </trkpt>
      <trkpt lat="44.20652" lon="2.15374">
        <ele>483</ele>
        <time>2022-09-20T15:06:03.000Z</time>
      </trkpt>
      <trkpt lat="44.20652" lon="2.15374">
        <ele>483</ele>
        <time>2022-09-20T15:06:08.000Z</time>
      </trkpt>
      <trkpt lat="44.20652" lon="2.15374">
        <ele>483</ele>
        <time>2022-09-20T15:06:09.000Z</time>
      </trkpt>
      <trkpt lat="44.20651" lon="2.15375">
        <ele>483</ele>
        <time>2022-09-20T15:06:29.000Z</time>
      </trkpt>
      <trkpt lat="44.20651" lon="2.15375">
        <ele>483</ele>
        <time>2022-09-20T15:06:30.000Z</time>
      </trkpt>
      <trkpt lat="44.20651" lon="2.15375">
        <ele>483</ele>
        <time>2022-09-20T15:06:55.000Z</time>
      </trkpt>
      <trkpt lat="44.20651" lon="2.15375">
        <ele>483</ele>
        <time>2022-09-20T15:06:56.000Z</time>
      </trkpt>
      <trkpt lat="44.20651" lon="2.15375">
        <ele>483</ele>
        <time>2022-09-20T15:07:01.000Z</time>
      </trkpt>
      <trkpt lat="44.2065" lon="2.15376">
        <ele>483.2</ele>
        <time>2022-09-20T15:07:05.000Z</time>
      </trkpt>
      <trkpt lat="44.2065" lon="2.15376">
        <ele>483.2</ele>
        <time>2022-09-20T15:07:15.000Z</time>
      </trkpt>
      <trkpt lat="44.20651" lon="2.15377">
        <ele>483.2</ele>
        <time>2022-09-20T15:07:17.000Z</time>
      </trkpt>
      <trkpt lat="44.2065" lon="2.15377">
        <ele>483.6</ele>
        <time>2022-09-20T15:07:29.000Z</time>
      </trkpt>
      <trkpt lat="44.2065" lon="2.15377">
        <ele>483.7</ele>
        <time>2022-09-20T15:07:30.000Z</time>
      </trkpt>
      <trkpt lat="44.2065" lon="2.15377">
        <ele>483.6</ele>
        <time>2022-09-20T15:07:40.000Z</time>
      </trkpt>
      <trkpt lat="44.2065" lon="2.15377">
        <ele>483.6</ele>
        <time>2022-09-20T15:07:41.000Z</time>
      </trkpt>
      <trkpt lat="44.2065" lon="2.15378">
        <ele>483.6</ele>
        <time>2022-09-20T15:08:20.000Z</time>
      </trkpt>
      <trkpt lat="44.2065" lon="2.15378">
        <ele>483.6</ele>
        <time>2022-09-20T15:08:21.000Z</time>
      </trkpt>
      <trkpt lat="44.2065" lon="2.15378">
        <ele>483.7</ele>
        <time>2022-09-20T15:08:56.000Z</time>
      </trkpt>
      <trkpt lat="44.2065" lon="2.15378">
        <ele>483.7</ele>
        <time>2022-09-20T15:08:57.000Z</time>
      </trkpt>
      <trkpt lat="44.2065" lon="2.15378">
        <ele>484</ele>
        <time>2022-09-20T15:09:15.000Z</time>
      </trkpt>
      <trkpt lat="44.2064" lon="2.1538">
        <ele>484.2</ele>
        <time>2022-09-20T15:09:32.000Z</time>
      </trkpt>
      <trkpt lat="44.20631" lon="2.15383">
        <ele>484.2</ele>
        <time>2022-09-20T15:09:42.000Z</time>
      </trkpt>
      <trkpt lat="44.20622" lon="2.15388">
        <ele>484.2</ele>
        <time>2022-09-20T15:09:53.000Z</time>
      </trkpt>
      <trkpt lat="44.20613" lon="2.15394">
        <ele>484.1</ele>
        <time>2022-09-20T15:10:02.000Z</time>
      </trkpt>
      <trkpt lat="44.20605" lon="2.15401">
        <ele>483.6</ele>
        <time>2022-09-20T15:10:10.000Z</time>
      </trkpt>
      <trkpt lat="44.20597" lon="2.15407">
        <ele>482.8</ele>
        <time>2022-09-20T15:10:20.000Z</time>
      </trkpt>
      <trkpt lat="44.20588" lon="2.15415">
        <ele>482.1</ele>
        <time>2022-09-20T15:10:29.000Z</time>
      </trkpt>
      <trkpt lat="44.2058" lon="2.15422">
        <ele>481.6</ele>
        <time>2022-09-20T15:10:38.000Z</time>
      </trkpt>
      <trkpt lat="44.20571" lon="2.1543">
        <ele>480.9</ele>
        <time>2022-09-20T15:10:48.000Z</time>
      </trkpt>
      <trkpt lat="44.20564" lon="2.15437">
        <ele>479.9</ele>
        <time>2022-09-20T15:10:56.000Z</time>
      </trkpt>
      <trkpt lat="44.20564" lon="2.15438">
        <ele>479.9</ele>
        <time>2022-09-20T15:10:58.000Z</time>
      </trkpt>
      <trkpt lat="44.20556" lon="2.15445">
        <ele>479.8</ele>
        <time>2022-09-20T15:11:09.000Z</time>
      </trkpt>
      <trkpt lat="44.20548" lon="2.15453">
        <ele>479.4</ele>
        <time>2022-09-20T15:11:18.000Z</time>
      </trkpt>
      <trkpt lat="44.20544" lon="2.15464">
        <ele>478.3</ele>
        <time>2022-09-20T15:11:26.000Z</time>
      </trkpt>
      <trkpt lat="44.20545" lon="2.15478">
        <ele>476.1</ele>
        <time>2022-09-20T15:11:37.000Z</time>
      </trkpt>
      <trkpt lat="44.20549" lon="2.1549">
        <ele>474.4</ele>
        <time>2022-09-20T15:11:47.000Z</time>
      </trkpt>
      <trkpt lat="44.20557" lon="2.15496">
        <ele>474</ele>
        <time>2022-09-20T15:11:58.000Z</time>
      </trkpt>
      <trkpt lat="44.20567" lon="2.15499">
        <ele>474.4</ele>
        <time>2022-09-20T15:12:08.000Z</time>
      </trkpt>
      <trkpt lat="44.20576" lon="2.155">
        <ele>474.1</ele>
        <time>2022-09-20T15:12:18.000Z</time>
      </trkpt>
      <trkpt lat="44.20586" lon="2.15501">
        <ele>474.2</ele>
        <time>2022-09-20T15:12:27.000Z</time>
      </trkpt>
      <trkpt lat="44.20594" lon="2.15507">
        <ele>474.3</ele>
        <time>2022-09-20T15:12:46.000Z</time>
      </trkpt>
      <trkpt lat="44.20602" lon="2.15513">
        <ele>474.3</ele>
        <time>2022-09-20T15:12:56.000Z</time>
      </trkpt>
      <trkpt lat="44.20608" lon="2.15523">
        <ele>474.1</ele>
        <time>2022-09-20T15:13:07.000Z</time>
      </trkpt>
      <trkpt lat="44.20614" lon="2.15531">
        <ele>472.9</ele>
        <time>2022-09-20T15:13:15.000Z</time>
      </trkpt>
      <trkpt lat="44.20622" lon="2.15538">
        <ele>473.4</ele>
        <time>2022-09-20T15:13:25.000Z</time>
      </trkpt>
      <trkpt lat="44.2063" lon="2.15545">
        <ele>473.1</ele>
        <time>2022-09-20T15:13:36.000Z</time>
      </trkpt>
      <trkpt lat="44.20638" lon="2.15554">
        <ele>471.8</ele>
        <time>2022-09-20T15:13:46.000Z</time>
      </trkpt>
      <trkpt lat="44.20645" lon="2.15562">
        <ele>470.6</ele>
        <time>2022-09-20T15:13:57.000Z</time>
      </trkpt>
      <trkpt lat="44.20651" lon="2.15572">
        <ele>468.9</ele>
        <time>2022-09-20T15:14:06.000Z</time>
      </trkpt>
      <trkpt lat="44.20658" lon="2.15581">
        <ele>468.1</ele>
        <time>2022-09-20T15:14:16.000Z</time>
      </trkpt>
      <trkpt lat="44.20666" lon="2.15589">
        <ele>465.9</ele>
        <time>2022-09-20T15:14:27.000Z</time>
      </trkpt>
      <trkpt lat="44.20671" lon="2.156">
        <ele>464.6</ele>
        <time>2022-09-20T15:14:37.000Z</time>
      </trkpt>
      <trkpt lat="44.20674" lon="2.15603">
        <ele>460.7</ele>
        <time>2022-09-20T15:14:51.000Z</time>
      </trkpt>
      <trkpt lat="44.20675" lon="2.15604">
        <ele>460.6</ele>
        <time>2022-09-20T15:14:58.000Z</time>
      </trkpt>
      <trkpt lat="44.2068" lon="2.15614">
        <ele>458.9</ele>
        <time>2022-09-20T15:15:07.000Z</time>
      </trkpt>
      <trkpt lat="44.20671" lon="2.15611">
        <ele>453.1</ele>
        <time>2022-09-20T15:15:27.000Z</time>
      </trkpt>
      <trkpt lat="44.20662" lon="2.15609">
        <ele>450.9</ele>
        <time>2022-09-20T15:15:38.000Z</time>
      </trkpt>
      <trkpt lat="44.20652" lon="2.15609">
        <ele>448.4</ele>
        <time>2022-09-20T15:15:51.000Z</time>
      </trkpt>
      <trkpt lat="44.20643" lon="2.15609">
        <ele>447.2</ele>
        <time>2022-09-20T15:15:59.000Z</time>
      </trkpt>
      <trkpt lat="44.20634" lon="2.15608">
        <ele>445.9</ele>
        <time>2022-09-20T15:16:08.000Z</time>
      </trkpt>
      <trkpt lat="44.20624" lon="2.15608">
        <ele>445.4</ele>
        <time>2022-09-20T15:16:17.000Z</time>
      </trkpt>
      <trkpt lat="44.20615" lon="2.15607">
        <ele>445.3</ele>
        <time>2022-09-20T15:16:25.000Z</time>
      </trkpt>
      <trkpt lat="44.20605" lon="2.15605">
        <ele>444.5</ele>
        <time>2022-09-20T15:16:35.000Z</time>
      </trkpt>
      <trkpt lat="44.20596" lon="2.15602">
        <ele>444.7</ele>
        <time>2022-09-20T15:16:43.000Z</time>
      </trkpt>
      <trkpt lat="44.20587" lon="2.15599">
        <ele>445</ele>
        <time>2022-09-20T15:16:49.000Z</time>
      </trkpt>
      <trkpt lat="44.20577" lon="2.15595">
        <ele>444.9</ele>
        <time>2022-09-20T15:16:58.000Z</time>
      </trkpt>
      <trkpt lat="44.20567" lon="2.15593">
        <ele>443.1</ele>
        <time>2022-09-20T15:17:08.000Z</time>
      </trkpt>
      <trkpt lat="44.20559" lon="2.1559">
        <ele>441.7</ele>
        <time>2022-09-20T15:17:16.000Z</time>
      </trkpt>
      <trkpt lat="44.2055" lon="2.15589">
        <ele>440.7</ele>
        <time>2022-09-20T15:17:25.000Z</time>
      </trkpt>
      <trkpt lat="44.2054" lon="2.15589">
        <ele>438.6</ele>
        <time>2022-09-20T15:17:36.000Z</time>
      </trkpt>
      <trkpt lat="44.20531" lon="2.15588">
        <ele>435.2</ele>
        <time>2022-09-20T15:17:51.000Z</time>
      </trkpt>
      <trkpt lat="44.20521" lon="2.15586">
        <ele>434</ele>
        <time>2022-09-20T15:17:59.000Z</time>
      </trkpt>
      <trkpt lat="44.20512" lon="2.15585">
        <ele>433.2</ele>
        <time>2022-09-20T15:18:06.000Z</time>
      </trkpt>
      <trkpt lat="44.20503" lon="2.15584">
        <ele>432.5</ele>
        <time>2022-09-20T15:18:14.000Z</time>
      </trkpt>
      <trkpt lat="44.20494" lon="2.15583">
        <ele>432.1</ele>
        <time>2022-09-20T15:18:23.000Z</time>
      </trkpt>
      <trkpt lat="44.20485" lon="2.15582">
        <ele>432</ele>
        <time>2022-09-20T15:18:31.000Z</time>
      </trkpt>
      <trkpt lat="44.20475" lon="2.1558">
        <ele>430.9</ele>
        <time>2022-09-20T15:18:39.000Z</time>
      </trkpt>
      <trkpt lat="44.20466" lon="2.15578">
        <ele>429.9</ele>
        <time>2022-09-20T15:18:47.000Z</time>
      </trkpt>
      <trkpt lat="44.20457" lon="2.15575">
        <ele>429.8</ele>
        <time>2022-09-20T15:18:55.000Z</time>
      </trkpt>
      <trkpt lat="44.20449" lon="2.15571">
        <ele>429.4</ele>
        <time>2022-09-20T15:19:02.000Z</time>
      </trkpt>
      <trkpt lat="44.2044" lon="2.15566">
        <ele>429.4</ele>
        <time>2022-09-20T15:19:10.000Z</time>
      </trkpt>
      <trkpt lat="44.20431" lon="2.1556">
        <ele>427.7</ele>
        <time>2022-09-20T15:19:19.000Z</time>
      </trkpt>
      <trkpt lat="44.20422" lon="2.15557">
        <ele>426.9</ele>
        <time>2022-09-20T15:19:28.000Z</time>
      </trkpt>
      <trkpt lat="44.20413" lon="2.15553">
        <ele>426.3</ele>
        <time>2022-09-20T15:19:37.000Z</time>
      </trkpt>
      <trkpt lat="44.20405" lon="2.15548">
        <ele>425.1</ele>
        <time>2022-09-20T15:19:46.000Z</time>
      </trkpt>
      <trkpt lat="44.20399" lon="2.15547">
        <ele>422.3</ele>
        <time>2022-09-20T15:20:00.000Z</time>
      </trkpt>
      <trkpt lat="44.20399" lon="2.15547">
        <ele>422.1</ele>
        <time>2022-09-20T15:20:10.000Z</time>
      </trkpt>
      <trkpt lat="44.20399" lon="2.15547">
        <ele>421.7</ele>
        <time>2022-09-20T15:20:12.000Z</time>
      </trkpt>
      <trkpt lat="44.20399" lon="2.15548">
        <ele>421.7</ele>
        <time>2022-09-20T15:20:13.000Z</time>
      </trkpt>
      <trkpt lat="44.20398" lon="2.15548">
        <ele>421.5</ele>
        <time>2022-09-20T15:20:16.000Z</time>
      </trkpt>
      <trkpt lat="44.20398" lon="2.15548">
        <ele>421.2</ele>
        <time>2022-09-20T15:20:19.000Z</time>
      </trkpt>
      <trkpt lat="44.20394" lon="2.15546">
        <ele>419.5</ele>
        <time>2022-09-20T15:20:27.000Z</time>
      </trkpt>
      <trkpt lat="44.20394" lon="2.15546">
        <ele>419.5</ele>
        <time>2022-09-20T15:20:28.000Z</time>
      </trkpt>
      <trkpt lat="44.20403" lon="2.1555">
        <ele>418.7</ele>
        <time>2022-09-20T15:20:39.000Z</time>
      </trkpt>
      <trkpt lat="44.20403" lon="2.15543">
        <ele>418.4</ele>
        <time>2022-09-20T15:20:52.000Z</time>
      </trkpt>
      <trkpt lat="44.20403" lon="2.15543">
        <ele>418.4</ele>
        <time>2022-09-20T15:20:54.000Z</time>
      </trkpt>
      <trkpt lat="44.20402" lon="2.15544">
        <ele>418.3</ele>
        <time>2022-09-20T15:20:57.000Z</time>
      </trkpt>
      <trkpt lat="44.20402" lon="2.15544">
        <ele>418.2</ele>
        <time>2022-09-20T15:20:59.000Z</time>
      </trkpt>
      <trkpt lat="44.20395" lon="2.15536">
        <ele>417.3</ele>
        <time>2022-09-20T15:21:09.000Z</time>
      </trkpt>
      <trkpt lat="44.20388" lon="2.15527">
        <ele>416.7</ele>
        <time>2022-09-20T15:21:18.000Z</time>
      </trkpt>
      <trkpt lat="44.2038" lon="2.15518">
        <ele>416.4</ele>
        <time>2022-09-20T15:21:28.000Z</time>
      </trkpt>
      <trkpt lat="44.20371" lon="2.15512">
        <ele>416.5</ele>
        <time>2022-09-20T15:21:37.000Z</time>
      </trkpt>
      <trkpt lat="44.20363" lon="2.15505">
        <ele>416.3</ele>
        <time>2022-09-20T15:21:45.000Z</time>
      </trkpt>
      <trkpt lat="44.20354" lon="2.15505">
        <ele>416.8</ele>
        <time>2022-09-20T15:21:52.000Z</time>
      </trkpt>
      <trkpt lat="44.20345" lon="2.15508">
        <ele>418</ele>
        <time>2022-09-20T15:22:00.000Z</time>
      </trkpt>
      <trkpt lat="44.20336" lon="2.1551">
        <ele>418.2</ele>
        <time>2022-09-20T15:22:08.000Z</time>
      </trkpt>
      <trkpt lat="44.20326" lon="2.15509">
        <ele>417.9</ele>
        <time>2022-09-20T15:22:16.000Z</time>
      </trkpt>
      <trkpt lat="44.20317" lon="2.15509">
        <ele>417.3</ele>
        <time>2022-09-20T15:22:24.000Z</time>
      </trkpt>
      <trkpt lat="44.20307" lon="2.15507">
        <ele>416</ele>
        <time>2022-09-20T15:22:35.000Z</time>
      </trkpt>
      <trkpt lat="44.20297" lon="2.15506">
        <ele>415.8</ele>
        <time>2022-09-20T15:22:45.000Z</time>
      </trkpt>
      <trkpt lat="44.20288" lon="2.15505">
        <ele>415.5</ele>
        <time>2022-09-20T15:22:52.000Z</time>
      </trkpt>
      <trkpt lat="44.20278" lon="2.15504">
        <ele>415.3</ele>
        <time>2022-09-20T15:23:00.000Z</time>
      </trkpt>
      <trkpt lat="44.20269" lon="2.15501">
        <ele>414.9</ele>
        <time>2022-09-20T15:23:08.000Z</time>
      </trkpt>
      <trkpt lat="44.2026" lon="2.15496">
        <ele>415.3</ele>
        <time>2022-09-20T15:23:14.000Z</time>
      </trkpt>
      <trkpt lat="44.20251" lon="2.15493">
        <ele>414</ele>
        <time>2022-09-20T15:23:22.000Z</time>
      </trkpt>
      <trkpt lat="44.20242" lon="2.15491">
        <ele>413.7</ele>
        <time>2022-09-20T15:23:30.000Z</time>
      </trkpt>
      <trkpt lat="44.20233" lon="2.1549">
        <ele>413.5</ele>
        <time>2022-09-20T15:23:38.000Z</time>
      </trkpt>
      <trkpt lat="44.20223" lon="2.15485">
        <ele>413.8</ele>
        <time>2022-09-20T15:23:46.000Z</time>
      </trkpt>
      <trkpt lat="44.20215" lon="2.15479">
        <ele>412.3</ele>
        <time>2022-09-20T15:23:57.000Z</time>
      </trkpt>
      <trkpt lat="44.20207" lon="2.15472">
        <ele>411.7</ele>
        <time>2022-09-20T15:24:07.000Z</time>
      </trkpt>
      <trkpt lat="44.20201" lon="2.15461">
        <ele>411.1</ele>
        <time>2022-09-20T15:24:17.000Z</time>
      </trkpt>
      <trkpt lat="44.20196" lon="2.1545">
        <ele>409.6</ele>
        <time>2022-09-20T15:24:28.000Z</time>
      </trkpt>
      <trkpt lat="44.20191" lon="2.15439">
        <ele>406.9</ele>
        <time>2022-09-20T15:24:40.000Z</time>
      </trkpt>
      <trkpt lat="44.20186" lon="2.15427">
        <ele>405.3</ele>
        <time>2022-09-20T15:24:50.000Z</time>
      </trkpt>
      <trkpt lat="44.20182" lon="2.15416">
        <ele>403.3</ele>
        <time>2022-09-20T15:25:01.000Z</time>
      </trkpt>
      <trkpt lat="44.20178" lon="2.15403">
        <ele>403.9</ele>
        <time>2022-09-20T15:25:14.000Z</time>
      </trkpt>
      <trkpt lat="44.20173" lon="2.15392">
        <ele>402.6</ele>
        <time>2022-09-20T15:25:26.000Z</time>
      </trkpt>
      <trkpt lat="44.20164" lon="2.15387">
        <ele>401.4</ele>
        <time>2022-09-20T15:25:35.000Z</time>
      </trkpt>
      <trkpt lat="44.20155" lon="2.15383">
        <ele>400.3</ele>
        <time>2022-09-20T15:25:44.000Z</time>
      </trkpt>
      <trkpt lat="44.20146" lon="2.15379">
        <ele>398.7</ele>
        <time>2022-09-20T15:25:54.000Z</time>
      </trkpt>
      <trkpt lat="44.20137" lon="2.15375">
        <ele>396.2</ele>
        <time>2022-09-20T15:26:05.000Z</time>
      </trkpt>
      <trkpt lat="44.20131" lon="2.15373">
        <ele>394.2</ele>
        <time>2022-09-20T15:26:14.000Z</time>
      </trkpt>
      <trkpt lat="44.2013" lon="2.15373">
        <ele>394.1</ele>
        <time>2022-09-20T15:26:15.000Z</time>
      </trkpt>
      <trkpt lat="44.20121" lon="2.15377">
        <ele>390.6</ele>
        <time>2022-09-20T15:26:26.000Z</time>
      </trkpt>
      <trkpt lat="44.20112" lon="2.15375">
        <ele>389.2</ele>
        <time>2022-09-20T15:26:35.000Z</time>
      </trkpt>
      <trkpt lat="44.20103" lon="2.15369">
        <ele>387.7</ele>
        <time>2022-09-20T15:26:44.000Z</time>
      </trkpt>
      <trkpt lat="44.20095" lon="2.15362">
        <ele>386.3</ele>
        <time>2022-09-20T15:26:53.000Z</time>
      </trkpt>
      <trkpt lat="44.20088" lon="2.15354">
        <ele>384</ele>
        <time>2022-09-20T15:27:06.000Z</time>
      </trkpt>
      <trkpt lat="44.20079" lon="2.15357">
        <ele>380.4</ele>
        <time>2022-09-20T15:27:22.000Z</time>
      </trkpt>
      <trkpt lat="44.20071" lon="2.15363">
        <ele>375.1</ele>
        <time>2022-09-20T15:27:42.000Z</time>
      </trkpt>
      <trkpt lat="44.20061" lon="2.15362">
        <ele>372.6</ele>
        <time>2022-09-20T15:27:58.000Z</time>
      </trkpt>
      <trkpt lat="44.20053" lon="2.15357">
        <ele>371.2</ele>
        <time>2022-09-20T15:28:12.000Z</time>
      </trkpt>
      <trkpt lat="44.20043" lon="2.15356">
        <ele>367</ele>
        <time>2022-09-20T15:28:28.000Z</time>
      </trkpt>
      <trkpt lat="44.2004" lon="2.15344">
        <ele>364.4</ele>
        <time>2022-09-20T15:28:51.000Z</time>
      </trkpt>
      <trkpt lat="44.20033" lon="2.15335">
        <ele>362.5</ele>
        <time>2022-09-20T15:29:04.000Z</time>
      </trkpt>
      <trkpt lat="44.20023" lon="2.15334">
        <ele>360.7</ele>
        <time>2022-09-20T15:29:14.000Z</time>
      </trkpt>
      <trkpt lat="44.20014" lon="2.15331">
        <ele>358.8</ele>
        <time>2022-09-20T15:29:25.000Z</time>
      </trkpt>
      <trkpt lat="44.20005" lon="2.15328">
        <ele>358.2</ele>
        <time>2022-09-20T15:29:36.000Z</time>
      </trkpt>
      <trkpt lat="44.19996" lon="2.15328">
        <ele>355.4</ele>
        <time>2022-09-20T15:29:49.000Z</time>
      </trkpt>
      <trkpt lat="44.19989" lon="2.15337">
        <ele>352.8</ele>
        <time>2022-09-20T15:29:59.000Z</time>
      </trkpt>
      <trkpt lat="44.19983" lon="2.15348">
        <ele>350.2</ele>
        <time>2022-09-20T15:30:08.000Z</time>
      </trkpt>
      <trkpt lat="44.19982" lon="2.15361">
        <ele>349.1</ele>
        <time>2022-09-20T15:30:17.000Z</time>
      </trkpt>
      <trkpt lat="44.19984" lon="2.15374">
        <ele>348.8</ele>
        <time>2022-09-20T15:30:26.000Z</time>
      </trkpt>
      <trkpt lat="44.19989" lon="2.15386">
        <ele>348.8</ele>
        <time>2022-09-20T15:30:37.000Z</time>
      </trkpt>
      <trkpt lat="44.19997" lon="2.15392">
        <ele>348.6</ele>
        <time>2022-09-20T15:30:48.000Z</time>
      </trkpt>
      <trkpt lat="44.19989" lon="2.15396">
        <ele>346.5</ele>
        <time>2022-09-20T15:31:09.000Z</time>
      </trkpt>
      <trkpt lat="44.19979" lon="2.15396">
        <ele>344.5</ele>
        <time>2022-09-20T15:31:19.000Z</time>
      </trkpt>
      <trkpt lat="44.1997" lon="2.15392">
        <ele>343.3</ele>
        <time>2022-09-20T15:31:30.000Z</time>
      </trkpt>
      <trkpt lat="44.19962" lon="2.15386">
        <ele>341.1</ele>
        <time>2022-09-20T15:31:41.000Z</time>
      </trkpt>
      <trkpt lat="44.19956" lon="2.15396">
        <ele>336.9</ele>
        <time>2022-09-20T15:31:54.000Z</time>
      </trkpt>
      <trkpt lat="44.19957" lon="2.15409">
        <ele>334.8</ele>
        <time>2022-09-20T15:32:06.000Z</time>
      </trkpt>
      <trkpt lat="44.19964" lon="2.15416">
        <ele>334.8</ele>
        <time>2022-09-20T15:32:17.000Z</time>
      </trkpt>
      <trkpt lat="44.19955" lon="2.1542">
        <ele>332.1</ele>
        <time>2022-09-20T15:32:35.000Z</time>
      </trkpt>
      <trkpt lat="44.19946" lon="2.15424">
        <ele>328</ele>
        <time>2022-09-20T15:32:49.000Z</time>
      </trkpt>
      <trkpt lat="44.19937" lon="2.15425">
        <ele>326.6</ele>
        <time>2022-09-20T15:33:03.000Z</time>
      </trkpt>
      <trkpt lat="44.19933" lon="2.15421">
        <ele>325.8</ele>
        <time>2022-09-20T15:33:13.000Z</time>
      </trkpt>
      <trkpt lat="44.19933" lon="2.15421">
        <ele>325.9</ele>
        <time>2022-09-20T15:33:15.000Z</time>
      </trkpt>
      <trkpt lat="44.19934" lon="2.15408">
        <ele>323.5</ele>
        <time>2022-09-20T15:33:26.000Z</time>
      </trkpt>
      <trkpt lat="44.1993" lon="2.15395">
        <ele>323</ele>
        <time>2022-09-20T15:33:34.000Z</time>
      </trkpt>
      <trkpt lat="44.1993" lon="2.15382">
        <ele>322.2</ele>
        <time>2022-09-20T15:33:43.000Z</time>
      </trkpt>
      <trkpt lat="44.19935" lon="2.1537">
        <ele>322.5</ele>
        <time>2022-09-20T15:33:51.000Z</time>
      </trkpt>
      <trkpt lat="44.19926" lon="2.15376">
        <ele>319.6</ele>
        <time>2022-09-20T15:34:12.000Z</time>
      </trkpt>
      <trkpt lat="44.19922" lon="2.15388">
        <ele>316.9</ele>
        <time>2022-09-20T15:34:20.000Z</time>
      </trkpt>
      <trkpt lat="44.19919" lon="2.15401">
        <ele>317.4</ele>
        <time>2022-09-20T15:34:29.000Z</time>
      </trkpt>
      <trkpt lat="44.19918" lon="2.15414">
        <ele>315.8</ele>
        <time>2022-09-20T15:34:39.000Z</time>
      </trkpt>
      <trkpt lat="44.19915" lon="2.15426">
        <ele>314.5</ele>
        <time>2022-09-20T15:34:48.000Z</time>
      </trkpt>
      <trkpt lat="44.19915" lon="2.1544">
        <ele>312.7</ele>
        <time>2022-09-20T15:34:57.000Z</time>
      </trkpt>
      <trkpt lat="44.19913" lon="2.15453">
        <ele>311.4</ele>
        <time>2022-09-20T15:35:08.000Z</time>
      </trkpt>
      <trkpt lat="44.19911" lon="2.15466">
        <ele>310.7</ele>
        <time>2022-09-20T15:35:18.000Z</time>
      </trkpt>
      <trkpt lat="44.19911" lon="2.15478">
        <ele>309.6</ele>
        <time>2022-09-20T15:35:27.000Z</time>
      </trkpt>
      <trkpt lat="44.19904" lon="2.15469">
        <ele>303.2</ele>
        <time>2022-09-20T15:35:55.000Z</time>
      </trkpt>
      <trkpt lat="44.19902" lon="2.15456">
        <ele>300.9</ele>
        <time>2022-09-20T15:36:05.000Z</time>
      </trkpt>
      <trkpt lat="44.199" lon="2.15444">
        <ele>300.1</ele>
        <time>2022-09-20T15:36:14.000Z</time>
      </trkpt>
      <trkpt lat="44.19898" lon="2.15431">
        <ele>300.2</ele>
        <time>2022-09-20T15:36:23.000Z</time>
      </trkpt>
      <trkpt lat="44.19892" lon="2.15442">
        <ele>296.1</ele>
        <time>2022-09-20T15:36:36.000Z</time>
      </trkpt>
      <trkpt lat="44.19889" lon="2.15454">
        <ele>295.1</ele>
        <time>2022-09-20T15:36:45.000Z</time>
      </trkpt>
      <trkpt lat="44.19883" lon="2.15465">
        <ele>294.7</ele>
        <time>2022-09-20T15:36:55.000Z</time>
      </trkpt>
      <trkpt lat="44.19878" lon="2.15476">
        <ele>293.7</ele>
        <time>2022-09-20T15:37:06.000Z</time>
      </trkpt>
      <trkpt lat="44.19874" lon="2.15488">
        <ele>293.1</ele>
        <time>2022-09-20T15:37:17.000Z</time>
      </trkpt>
      <trkpt lat="44.19871" lon="2.15501">
        <ele>290.7</ele>
        <time>2022-09-20T15:37:27.000Z</time>
      </trkpt>
      <trkpt lat="44.19862" lon="2.15499">
        <ele>287.4</ele>
        <time>2022-09-20T15:37:42.000Z</time>
      </trkpt>
      <trkpt lat="44.1986" lon="2.15486">
        <ele>285.7</ele>
        <time>2022-09-20T15:37:51.000Z</time>
      </trkpt>
      <trkpt lat="44.19861" lon="2.15472">
        <ele>284.7</ele>
        <time>2022-09-20T15:37:59.000Z</time>
      </trkpt>
      <trkpt lat="44.19863" lon="2.15458">
        <ele>284.5</ele>
        <time>2022-09-20T15:38:07.000Z</time>
      </trkpt>
      <trkpt lat="44.19863" lon="2.15444">
        <ele>284.5</ele>
        <time>2022-09-20T15:38:15.000Z</time>
      </trkpt>
      <trkpt lat="44.19863" lon="2.15431">
        <ele>284.3</ele>
        <time>2022-09-20T15:38:23.000Z</time>
      </trkpt>
      <trkpt lat="44.19855" lon="2.15437">
        <ele>280.5</ele>
        <time>2022-09-20T15:38:45.000Z</time>
      </trkpt>
      <trkpt lat="44.19852" lon="2.15449">
        <ele>278.1</ele>
        <time>2022-09-20T15:38:52.000Z</time>
      </trkpt>
      <trkpt lat="44.19845" lon="2.15458">
        <ele>276.5</ele>
        <time>2022-09-20T15:39:01.000Z</time>
      </trkpt>
      <trkpt lat="44.19837" lon="2.15465">
        <ele>274.9</ele>
        <time>2022-09-20T15:39:10.000Z</time>
      </trkpt>
      <trkpt lat="44.19828" lon="2.15469">
        <ele>272.2</ele>
        <time>2022-09-20T15:39:20.000Z</time>
      </trkpt>
      <trkpt lat="44.19819" lon="2.15475">
        <ele>269.9</ele>
        <time>2022-09-20T15:39:30.000Z</time>
      </trkpt>
      <trkpt lat="44.1981" lon="2.1548">
        <ele>267.5</ele>
        <time>2022-09-20T15:39:39.000Z</time>
      </trkpt>
      <trkpt lat="44.19802" lon="2.15486">
        <ele>265.3</ele>
        <time>2022-09-20T15:39:48.000Z</time>
      </trkpt>
      <trkpt lat="44.19793" lon="2.1549">
        <ele>262.9</ele>
        <time>2022-09-20T15:39:56.000Z</time>
      </trkpt>
      <trkpt lat="44.19783" lon="2.15493">
        <ele>261.1</ele>
        <time>2022-09-20T15:40:03.000Z</time>
      </trkpt>
      <trkpt lat="44.19774" lon="2.15498">
        <ele>260.2</ele>
        <time>2022-09-20T15:40:10.000Z</time>
      </trkpt>
      <trkpt lat="44.19765" lon="2.15501">
        <ele>257.6</ele>
        <time>2022-09-20T15:40:18.000Z</time>
      </trkpt>
      <trkpt lat="44.19758" lon="2.15499">
        <ele>256.4</ele>
        <time>2022-09-20T15:40:24.000Z</time>
      </trkpt>
      <trkpt lat="44.19758" lon="2.15499">
        <ele>256.4</ele>
        <time>2022-09-20T15:40:24.000Z</time>
      </trkpt>
    </trkseg>
  </trk>
</gpx>